Provisional Data: West Branch Pine Creek near Galeton, PA


Please select a monitoring station.
Please select start date.
Please select start date.

Toggle Unit: C/F Toggle Unit: C/F
Sample Time Temperature (C) Temperature (F) Specific Conductivity (mS/cm) pH   Turbidity (NTU+) DO (mg/L)
1/12/2021 12:00:00 AM 2.37 36.266 0.043 6.7 2.14 13.1
1/12/2021 12:15:00 AM 2.36 36.248 0.043 6.7 2.12 13.1
1/12/2021 12:30:00 AM 2.36 36.248 0.043 6.7 2.12 13.1
1/12/2021 12:45:00 AM 2.37 36.266 0.043 6.71 2.14 13.11
1/12/2021 1:00:00 AM 2.37 36.266 0.043 6.71 2.12 13.11
1/12/2021 1:15:00 AM 2.37 36.266 0.043 6.7 2.09 13.11
1/12/2021 1:30:00 AM 2.36 36.248 0.044 6.7 2.1 13.11
1/12/2021 1:45:00 AM 2.36 36.248 0.044 6.7 2.1 13.12
1/12/2021 2:00:00 AM 2.35 36.23 0.044 6.72 2.1 13.12
1/12/2021 2:15:00 AM 2.35 36.23 0.044 6.71 2.1 13.12
1/12/2021 2:30:00 AM 2.34 36.212 0.044 6.69 2.09 13.13
1/12/2021 2:45:00 AM 2.33 36.194 0.044 6.68 2.06 13.13
1/12/2021 3:00:00 AM 2.32 36.176 0.044 6.71 2.07 13.13
1/12/2021 3:15:00 AM 2.31 36.158 0.044 6.72 2.08 13.13
1/12/2021 3:30:00 AM 2.3 36.14 0.044 6.72 2.08 13.14
1/12/2021 3:45:00 AM 2.29 36.122 0.044 6.72 2.1 13.15
1/12/2021 4:00:00 AM 2.27 36.086 0.044 6.7 2.09 13.15
1/12/2021 4:15:00 AM 2.26 36.068 0.044 6.71 2.11 13.16
1/12/2021 4:30:00 AM 2.24 36.032 0.044 6.71 2.1 13.16
1/12/2021 4:45:00 AM 2.22 35.996 0.044 6.71 2.1 13.16
1/12/2021 5:00:00 AM 2.21 35.978 0.044 6.7 2.06 13.17
1/12/2021 5:15:00 AM 2.2 35.96 0.044 6.72 2.07 13.17
1/12/2021 5:30:00 AM 2.18 35.924 0.044 6.71 2.08 13.18
1/12/2021 5:45:00 AM 2.17 35.906 0.044 6.71 2.09 13.18
1/12/2021 6:00:00 AM 2.16 35.888 0.044 6.71 2.09 13.19
1/12/2021 6:15:00 AM 2.14 35.852 0.044 6.69 2.06 13.19
1/12/2021 6:30:00 AM 2.12 35.816 0.044 6.68 2.09 13.21
1/12/2021 6:45:00 AM 2.11 35.798 0.044 6.71 2.07 13.21
1/12/2021 7:00:00 AM 2.09 35.762 0.044 6.7 2.11 13.21
1/12/2021 7:15:00 AM 2.08 35.744 0.044 6.69 2.06 13.22
1/12/2021 7:30:00 AM 2.07 35.726 0.044 6.71 2.09 13.22
1/12/2021 7:45:00 AM 2.06 35.708 0.044 6.71 2.11 13.24
1/12/2021 8:00:00 AM 2.05 35.69 0.044 6.72 2.1 13.25
1/12/2021 8:15:00 AM 2.04 35.672 0.044 6.71 2.07 13.27
1/12/2021 8:30:00 AM 2.04 35.672 0.044 6.74 2.06 13.3
1/12/2021 8:45:00 AM 2.05 35.69 0.044 6.72 2.09 13.32
1/12/2021 9:00:00 AM 2.05 35.69 0.044 6.75 2.09 13.36
1/12/2021 9:15:00 AM 2.06 35.708 0.044 6.75 2.08 13.39
1/12/2021 9:30:00 AM 2.08 35.744 0.044 6.74 2.05 13.41
1/12/2021 9:45:00 AM 2.1 35.78 0.044 6.76 2.04 13.42
1/12/2021 10:00:00 AM 2.14 35.852 0.043 6.78 2.03 13.43
1/12/2021 10:15:00 AM 2.19 35.942 0.043 6.8 2.03 13.44
1/12/2021 10:30:00 AM 2.22 35.996 0.043 6.81 2.06 13.44
1/12/2021 10:45:00 AM 2.26 36.068 0.043 6.8 2.06 13.43
1/12/2021 11:00:00 AM 2.3 36.14 0.043 6.81 2.06 13.42
1/12/2021 11:15:00 AM 2.35 36.23 0.043 6.84 2.02 13.41
1/12/2021 11:30:00 AM 2.4 36.32 0.043 6.84 2.03 13.39
1/12/2021 11:45:00 AM 2.46 36.428 0.043 6.82 2.04 13.38
1/12/2021 12:00:00 PM 2.53 36.554 0.043 6.84 1.99 13.36
1/12/2021 12:15:00 PM 2.58 36.644 0.043 6.83 2.02 13.34
1/12/2021 12:30:00 PM 2.64 36.752 0.043 6.84 2 13.32
1/12/2021 12:45:00 PM 2.71 36.878 0.043 6.83 2 13.29
1/12/2021 1:00:00 PM 2.77 36.986 0.043 6.86 2.05 13.27
1/12/2021 1:15:00 PM 2.82 37.076 0.043 6.87 2.01 13.25
1/12/2021 1:30:00 PM 2.87 37.166 0.043 6.85 2 13.23
1/12/2021 1:45:00 PM 2.93 37.274 0.043 6.86 2 13.21
1/12/2021 2:00:00 PM 2.97 37.346 0.043 6.85 1.99 13.19
1/12/2021 2:15:00 PM 3.01 37.418 0.043 6.86 2 13.17
1/12/2021 2:30:00 PM 3.04 37.472 0.043 6.86 1.96 13.15
1/12/2021 2:45:00 PM 3.07 37.526 0.043 6.85 2.01 13.15
1/12/2021 3:00:00 PM 3.09 37.562 0.043 6.86 1.99 13.13
1/12/2021 3:15:00 PM 3.09 37.562 0.043 6.83 1.96 13.11
1/12/2021 3:30:00 PM 3.08 37.544 0.043 6.84 1.97 13.08
1/12/2021 3:45:00 PM 3.07 37.526 0.043 6.84 2.04 13.07
1/12/2021 4:00:00 PM 3.05 37.49 0.043 6.82 2 13.06
1/12/2021 4:15:00 PM 3.03 37.454 0.043 6.81 2.02 13.04
1/12/2021 4:30:00 PM 3 37.4 0.043 6.79 2.06 13.02
1/12/2021 4:45:00 PM 2.97 37.346 0.043 6.8 2.04 13.01
1/12/2021 5:00:00 PM 2.94 37.292 0.043 6.78 2.06 12.99
1/12/2021 5:15:00 PM 2.91 37.238 0.043 6.77 2.03 12.98
1/12/2021 5:30:00 PM 2.88 37.184 0.043 6.75 1.99 12.97
1/12/2021 5:45:00 PM 2.85 37.13 0.043 6.73 2.02 12.96
1/12/2021 6:00:00 PM 2.83 37.094 0.043 6.74 2.01 12.95
1/12/2021 6:15:00 PM 2.8 37.04 0.043 6.72 1.98 12.95
1/12/2021 6:30:00 PM 2.79 37.022 0.043 6.74 2.03 12.95
1/12/2021 6:45:00 PM 2.77 36.986 0.043 6.73 2.03 12.95
1/12/2021 7:00:00 PM 2.76 36.968 0.043 6.74 2.04 12.96
1/12/2021 7:15:00 PM 2.75 36.95 0.043 6.72 2.13 12.96
1/12/2021 7:30:00 PM 2.73 36.914 0.043 6.69 2.08 12.96
1/12/2021 7:45:00 PM 2.72 36.896 0.043 6.71 2.02 12.96
1/12/2021 8:00:00 PM 2.71 36.878 0.043 6.71 2.05 12.96
1/12/2021 8:15:00 PM 2.7 36.86 0.043 6.73 2.01 12.97
1/12/2021 8:30:00 PM 2.69 36.842 0.043 6.71 2.01 12.97
1/12/2021 8:45:00 PM 2.67 36.806 0.043 6.72 2.04 12.97
1/12/2021 9:00:00 PM 2.66 36.788 0.043 6.72 2.08 12.98
1/12/2021 9:15:00 PM 2.64 36.752 0.044 6.71 2.09 12.98
1/12/2021 9:30:00 PM 2.63 36.734 0.044 6.72 2.03 12.99
1/12/2021 9:45:00 PM 2.61 36.698 0.044 6.72 2.02 12.99
1/12/2021 10:00:00 PM 2.6 36.68 0.044 6.71 2.07 13
1/12/2021 10:15:00 PM 2.59 36.662 0.044 6.72 2.05 13
1/12/2021 10:30:00 PM 2.58 36.644 0.044 6.72 2.05 13
1/12/2021 10:45:00 PM 2.57 36.626 0.044 6.72 2.08 13.01
1/12/2021 11:00:00 PM 2.56 36.608 0.044 6.72 2.06 13.01
1/12/2021 11:15:00 PM 2.54 36.572 0.044 6.71 2.08 13.01
1/12/2021 11:30:00 PM 2.53 36.554 0.044 6.74 2.04 13.02
1/12/2021 11:45:00 PM 2.53 36.554 0.044 6.71 2.06 13.02
1/13/2021 12:00:00 AM 2.52 36.536 0.044 6.73 2.04 13.02
1/13/2021 12:15:00 AM 2.51 36.518 0.044 6.72 2.07 13.03
1/13/2021 12:30:00 AM 2.5 36.5 0.044 6.72 2.01 13.03
1/13/2021 12:45:00 AM 2.49 36.482 0.044 6.71 2.07 13.03
1/13/2021 1:00:00 AM 2.47 36.446 0.044 6.72 2.1 13.04
1/13/2021 1:15:00 AM 2.47 36.446 0.044 6.73 2.07 13.04
1/13/2021 1:30:00 AM 2.45 36.41 0.044 6.73 2.07 13.04
1/13/2021 1:45:00 AM 2.44 36.392 0.044 6.71 2.1 13.04
1/13/2021 2:00:00 AM 2.42 36.356 0.044 6.71 2.03 13.05
1/13/2021 2:15:00 AM 2.41 36.338 0.044 6.72 2 13.06
1/13/2021 2:30:00 AM 2.4 36.32 0.044 6.72 2 13.06
1/13/2021 2:45:00 AM 2.39 36.302 0.044 6.72 2.09 13.07
1/13/2021 3:00:00 AM 2.37 36.266 0.044 6.7 2.02 13.07
1/13/2021 3:15:00 AM 2.36 36.248 0.044 6.69 2.01 13.08
1/13/2021 3:30:00 AM 2.35 36.23 0.044 6.7 2.06 13.08
1/13/2021 3:45:00 AM 2.34 36.212 0.044 6.7 2.04 13.08
1/13/2021 4:00:00 AM 2.33 36.194 0.044 6.72 2.01 13.09
1/13/2021 4:15:00 AM 2.32 36.176 0.044 6.73 2.05 13.09
1/13/2021 4:30:00 AM 2.29 36.122 0.044 6.71 2.06 13.1
1/13/2021 4:45:00 AM 2.28 36.104 0.044 6.7 2.02 13.1
1/13/2021 5:00:00 AM 2.26 36.068 0.044 6.74 2.06 13.11
1/13/2021 5:15:00 AM 2.25 36.05 0.044 6.7 2 13.11
1/13/2021 5:30:00 AM 2.23 36.014 0.044 6.72 2.03 13.12
1/13/2021 5:45:00 AM 2.22 35.996 0.044 6.71 2.07 13.13
1/13/2021 6:00:00 AM 2.2 35.96 0.044 6.7 2.06 13.13
1/13/2021 6:15:00 AM 2.19 35.942 0.044 6.72 2.09 13.14
1/13/2021 6:30:00 AM 2.19 35.942 0.044 6.71 2.07 13.14
1/13/2021 6:45:00 AM 2.18 35.924 0.044 6.71 2.02 13.14
1/13/2021 7:00:00 AM 2.17 35.906 0.044 6.72 2.05 13.14
1/13/2021 7:15:00 AM 2.17 35.906 0.044 6.71 2.05 13.14
1/13/2021 7:30:00 AM 2.17 35.906 0.044 6.72 2.03 13.15
1/13/2021 7:45:00 AM 2.17 35.906 0.044 6.73 2.04 13.15
1/13/2021 8:00:00 AM 2.16 35.888 0.044 6.72 2.02 13.16
1/13/2021 8:15:00 AM 2.15 35.87 0.044 6.75 2.04 13.17
1/13/2021 8:30:00 AM 2.15 35.87 0.044 6.73 2.01 13.18
1/13/2021 8:45:00 AM 2.15 35.87 0.044 6.72 2.04 13.19
1/13/2021 9:00:00 AM 2.15 35.87 0.044 6.78 2 13.22
1/13/2021 9:15:00 AM 2.16 35.888 0.044 6.74 2.01 13.24
1/13/2021 9:30:00 AM 2.17 35.906 0.044 6.76 2.04 13.27
1/13/2021 9:45:00 AM 2.19 35.942 0.044 6.79 2.02 13.29
1/13/2021 10:00:00 AM 2.2 35.96 0.044 6.77 2.01 13.3
1/13/2021 10:15:00 AM 2.22 35.996 0.044 6.79 2.02 13.32
1/13/2021 10:30:00 AM 2.23 36.014 0.044 6.77 1.98 13.32
1/13/2021 10:45:00 AM 2.25 36.05 0.044 6.79 2.01 13.34
1/13/2021 11:00:00 AM 2.29 36.122 0.044 6.81 1.99 13.34
1/13/2021 11:15:00 AM 2.33 36.194 0.044 6.83 2.01 13.34
1/13/2021 11:30:00 AM 2.37 36.266 0.044 6.83 2.01 13.33
1/13/2021 11:45:00 AM 2.43 36.374 0.044 6.84 1.97 13.32
1/13/2021 12:00:00 PM 2.47 36.446 0.044 6.83 1.99 13.31
1/13/2021 12:15:00 PM 2.51 36.518 0.044 6.85 1.99 13.29
1/13/2021 12:30:00 PM 2.55 36.59 0.044 6.85 2 13.28
1/13/2021 12:45:00 PM 2.57 36.626 0.044 6.87 1.99 13.26
1/13/2021 1:00:00 PM 2.6 36.68 0.044 6.85 2 13.25
1/13/2021 1:15:00 PM 2.62 36.716 0.044 6.85 1.92 13.24
1/13/2021 1:30:00 PM 2.66 36.788 0.044 6.87 1.98 13.23
1/13/2021 1:45:00 PM 2.72 36.896 0.043 6.88 1.94 13.22
1/13/2021 2:00:00 PM 2.77 36.986 0.043 6.89 1.97 13.2
1/13/2021 2:15:00 PM 2.84 37.112 0.043 6.89 2.01 13.19
1/13/2021 2:30:00 PM 2.9 37.22 0.043 6.89 1.93 13.17
1/13/2021 2:45:00 PM 2.95 37.31 0.043 6.88 1.94 13.15
1/13/2021 3:00:00 PM 2.98 37.364 0.043 6.88 1.96 13.13
1/13/2021 3:15:00 PM 3.02 37.436 0.043 6.89 1.96 13.11
1/13/2021 3:30:00 PM 3.06 37.508 0.043 6.88 1.97 13.09
1/13/2021 3:45:00 PM 3.07 37.526 0.043 6.89 1.94 13.07
1/13/2021 4:00:00 PM 3.07 37.526 0.043 6.87 1.99 13.04
1/13/2021 4:15:00 PM 3.09 37.562 0.043 6.89 1.96 13.01
1/13/2021 4:30:00 PM 3.09 37.562 0.043 6.87 1.97 12.98
1/13/2021 4:45:00 PM 3.07 37.526 0.043 6.85 2 12.95
1/13/2021 5:00:00 PM 3.05 37.49 0.043 6.82 1.98 12.92
1/13/2021 5:15:00 PM 3.03 37.454 0.043 6.82 1.99 12.89
1/13/2021 5:30:00 PM 3 37.4 0.043 6.81 2.07 12.87
1/13/2021 5:45:00 PM 2.98 37.364 0.043 6.8 1.97 12.86
1/13/2021 6:00:00 PM 2.96 37.328 0.043 6.81 2.04 12.84
1/13/2021 6:15:00 PM 2.94 37.292 0.043 6.8 2.05 12.83
1/13/2021 6:30:00 PM 2.93 37.274 0.044 6.76 2.02 12.83
1/13/2021 6:45:00 PM 2.92 37.256 0.044 6.74 2 12.82
1/13/2021 7:00:00 PM 2.91 37.238 0.044 6.76 2.05 12.82
1/13/2021 7:15:00 PM 2.91 37.238 0.044 6.74 2.02 12.82
1/13/2021 7:30:00 PM 2.9 37.22 0.044 6.76 2.04 12.81
1/13/2021 7:45:00 PM 2.89 37.202 0.044 6.74 2.04 12.81
1/13/2021 8:00:00 PM 2.88 37.184 0.044 6.74 2.02 12.81
1/13/2021 8:15:00 PM 2.87 37.166 0.044 6.74 2.03 12.82
1/13/2021 8:30:00 PM 2.86 37.148 0.044 6.74 2.02 12.82
1/13/2021 8:45:00 PM 2.86 37.148 0.044 6.72 1.99 12.82
1/13/2021 9:00:00 PM 2.85 37.13 0.044 6.73 2.02 12.82
1/13/2021 9:15:00 PM 2.84 37.112 0.044 6.74 2.02 12.82
1/13/2021 9:30:00 PM 2.83 37.094 0.044 6.74 2.02 12.83
1/13/2021 9:45:00 PM 2.83 37.094 0.044 6.74 1.99 12.82
1/13/2021 10:00:00 PM 2.83 37.094 0.044 6.72 2.03 12.83
1/13/2021 10:15:00 PM 2.82 37.076 0.044 6.72 2 12.83
1/13/2021 10:30:00 PM 2.81 37.058 0.044 6.72 2.04 12.83
1/13/2021 10:45:00 PM 2.8 37.04 0.044 6.72 2 12.83
1/13/2021 11:00:00 PM 2.8 37.04 0.044 6.74 2.03 12.83
1/13/2021 11:15:00 PM 2.79 37.022 0.044 6.74 2.08 12.83
1/13/2021 11:30:00 PM 2.79 37.022 0.044 6.75 2.03 12.83
1/13/2021 11:45:00 PM 2.78 37.004 0.044 6.72 2.09 12.84
1/14/2021 12:00:00 AM 2.78 37.004 0.044 6.74 2.04 12.83
1/14/2021 12:15:00 AM 2.77 36.986 0.044 6.75 2.11 12.84
1/14/2021 12:30:00 AM 2.77 36.986 0.044 6.75 2.06 12.84
1/14/2021 12:45:00 AM 2.76 36.968 0.044 6.75 2.04 12.84
1/14/2021 1:00:00 AM 2.75 36.95 0.044 6.73 2.04 12.84
1/14/2021 1:15:00 AM 2.75 36.95 0.044 6.74 2.05 12.84
1/14/2021 1:30:00 AM 2.74 36.932 0.044 6.74 2.02 12.84
1/14/2021 1:45:00 AM 2.74 36.932 0.044 6.73 2.04 12.85
1/14/2021 2:00:00 AM 2.73 36.914 0.044 6.73 2.09 12.85
1/14/2021 2:15:00 AM 2.73 36.914 0.044 6.72 2.06 12.85
1/14/2021 2:30:00 AM 2.72 36.896 0.044 6.71 2.03 12.85
1/14/2021 2:45:00 AM 2.72 36.896 0.044 6.74 2.03 12.85
1/14/2021 3:00:00 AM 2.71 36.878 0.044 6.72 2.03 12.85
1/14/2021 3:15:00 AM 2.71 36.878 0.044 6.71 2.12 12.85
1/14/2021 3:30:00 AM 2.71 36.878 0.044 6.7 2.08 12.85
1/14/2021 3:45:00 AM 2.71 36.878 0.044 6.74 2.05 12.85
1/14/2021 4:00:00 AM 2.71 36.878 0.044 6.72 2.06 12.85
1/14/2021 4:15:00 AM 2.7 36.86 0.044 6.72 2.07 12.85
1/14/2021 4:30:00 AM 2.7 36.86 0.044 6.73 2.01 12.85
1/14/2021 4:45:00 AM 2.7 36.86 0.044 6.72 2.06 12.85
1/14/2021 5:00:00 AM 2.7 36.86 0.044 6.72 2.03 12.85
1/14/2021 5:15:00 AM 2.7 36.86 0.044 6.73 2.02 12.85
1/14/2021 5:30:00 AM 2.7 36.86 0.044 6.72 2.03 12.85
1/14/2021 5:45:00 AM 2.7 36.86 0.044 6.73 2.04 12.85
1/14/2021 6:00:00 AM 2.7 36.86 0.044 6.72 2.06 12.85
1/14/2021 6:15:00 AM 2.7 36.86 0.044 6.73 2.01 12.85
1/14/2021 6:30:00 AM 2.7 36.86 0.044 6.72 2 12.85
1/14/2021 6:45:00 AM 2.69 36.842 0.044 6.69 2.02 12.85
1/14/2021 7:00:00 AM 2.69 36.842 0.044 6.71 2.06 12.85
1/14/2021 7:15:00 AM 2.69 36.842 0.044 6.7 2.02 12.85
1/14/2021 7:30:00 AM 2.69 36.842 0.044 6.73 2 12.85
1/14/2021 7:45:00 AM 2.7 36.86 0.044 6.71 2.02 12.86
1/14/2021 8:00:00 AM 2.71 36.878 0.044 6.73 2.04 12.87
1/14/2021 8:15:00 AM 2.72 36.896 0.044 6.74 1.99 12.89
1/14/2021 8:30:00 AM 2.74 36.932 0.044 6.71 2.04 12.92
1/14/2021 8:45:00 AM 2.76 36.968 0.044 6.74 2.01 12.94
1/14/2021 9:00:00 AM 2.78 37.004 0.044 6.75 1.99 12.97
1/14/2021 9:15:00 AM 2.81 37.058 0.044 6.78 2.07 13
1/14/2021 9:30:00 AM 2.84 37.112 0.044 6.79 1.99 13.02
1/14/2021 9:45:00 AM 2.87 37.166 0.044 6.79 1.99 13.03
1/14/2021 10:00:00 AM 2.94 37.292 0.044 6.79 1.99 13.05
1/14/2021 10:15:00 AM 2.98 37.364 0.044 6.81 2.01 13.05
1/14/2021 10:30:00 AM 3.04 37.472 0.044 6.84 1.96 13.04
1/14/2021 10:45:00 AM 3.1 37.58 0.044 6.84 1.95 13.04
1/14/2021 11:00:00 AM 3.2 37.76 0.043 6.86 1.93 13.03
1/14/2021 11:15:00 AM 3.32 37.976 0.043 6.87 1.98 13.01
1/14/2021 11:30:00 AM 3.39 38.102 0.043 6.89 1.97 12.99
1/14/2021 11:45:00 AM 3.49 38.282 0.043 6.89 1.93 12.97
1/14/2021 12:00:00 PM 3.56 38.408 0.043 6.89 1.97 12.94
1/14/2021 12:15:00 PM 3.63 38.534 0.043 6.9 1.91 12.92
1/14/2021 12:30:00 PM 3.7 38.66 0.043 6.9 1.96 12.89
1/14/2021 12:45:00 PM 3.75 38.75 0.043 6.9 1.96 12.88
1/14/2021 1:00:00 PM 3.77 38.786 0.043 6.91 1.97 12.86
1/14/2021 1:15:00 PM 3.8 38.84 0.043 6.91 1.93 12.83
1/14/2021 1:30:00 PM 3.84 38.912 0.043 6.92 1.98 12.81
1/14/2021 1:45:00 PM 3.87 38.966 0.043 6.91 1.95 12.8
1/14/2021 2:00:00 PM 3.88 38.984 0.043 6.93 1.94 12.77
1/14/2021 2:15:00 PM 3.9 39.02 0.043 6.92 1.97 12.76
1/14/2021 2:30:00 PM 3.9 39.02 0.043 6.93 1.93 12.74
1/14/2021 2:45:00 PM 3.92 39.056 0.043 6.92 1.96 12.73
1/14/2021 3:00:00 PM 3.92 39.056 0.043 6.92 1.95 12.72
1/14/2021 3:15:00 PM 3.92 39.056 0.043 6.89 1.93 12.7
1/14/2021 3:30:00 PM 3.92 39.056 0.043 6.9 1.98 12.69
1/14/2021 3:45:00 PM 3.92 39.056 0.043 6.9 1.95 12.69
1/14/2021 4:00:00 PM 3.92 39.056 0.043 6.9 1.99 12.67
1/14/2021 4:15:00 PM 3.91 39.038 0.043 6.87 1.95 12.64
1/14/2021 4:30:00 PM 3.9 39.02 0.043 6.85 1.95 12.62
1/14/2021 4:45:00 PM 3.89 39.002 0.043 6.86 2.01 12.6
1/14/2021 5:00:00 PM 3.87 38.966 0.043 6.83 1.98 12.58
1/14/2021 5:15:00 PM 3.86 38.948 0.043 6.83 1.97 12.55
1/14/2021 5:30:00 PM 3.85 38.93 0.043 6.82 1.98 12.53
1/14/2021 5:45:00 PM 3.83 38.894 0.043 6.81 1.97 12.51
1/14/2021 6:00:00 PM 3.82 38.876 0.043 6.78 1.99 12.51
1/14/2021 6:15:00 PM 3.81 38.858 0.043 6.78 1.96 12.5
1/14/2021 6:30:00 PM 3.79 38.822 0.043 6.77 2 12.49
1/14/2021 6:45:00 PM 3.77 38.786 0.043 6.77 1.99 12.5
1/14/2021 7:00:00 PM 3.73 38.714 0.044 6.76 2.01 12.5
1/14/2021 7:15:00 PM 3.69 38.642 0.044 6.76 2.05 12.51
1/14/2021 7:30:00 PM 3.65 38.57 0.044 6.74 1.97 12.52
1/14/2021 7:45:00 PM 3.6 38.48 0.044 6.75 2.06 12.53
1/14/2021 8:00:00 PM 3.55 38.39 0.044 6.74 2.01 12.54
1/14/2021 8:15:00 PM 3.51 38.318 0.044 6.73 2.01 12.56
1/14/2021 8:30:00 PM 3.46 38.228 0.044 6.74 2.36 12.57
1/14/2021 8:45:00 PM 3.42 38.156 0.044 6.73 2.06 12.59
1/14/2021 9:00:00 PM 3.38 38.084 0.044 6.71 2.07 12.6
1/14/2021 9:15:00 PM 3.34 38.012 0.044 6.71 2 12.62
1/14/2021 9:30:00 PM 3.29 37.922 0.044 6.71 2.08 12.63
1/14/2021 9:45:00 PM 3.25 37.85 0.044 6.71 2.07 12.65
1/14/2021 10:00:00 PM 3.21 37.778 0.044 6.71 2.08 12.66
1/14/2021 10:15:00 PM 3.17 37.706 0.044 6.7 2.04 12.67
1/14/2021 10:30:00 PM 3.13 37.634 0.044 6.7 2.1 12.69
1/14/2021 10:45:00 PM 3.09 37.562 0.044 6.7 2.07 12.7
1/14/2021 11:00:00 PM 3.06 37.508 0.044 6.69 2.09 12.72
1/14/2021 11:15:00 PM 3.04 37.472 0.044 6.71 2.07 12.73
1/14/2021 11:30:00 PM 3.01 37.418 0.044 6.72 2.09 12.74
1/14/2021 11:45:00 PM 2.99 37.382 0.044 6.71 2 12.75
1/15/2021 12:00:00 AM 2.97 37.346 0.044 6.72 1.96 12.76
1/15/2021 12:15:00 AM 2.96 37.328 0.044 6.73 2.03 12.77
1/15/2021 12:30:00 AM 2.95 37.31 0.044 6.72 2.03 12.77
1/15/2021 12:45:00 AM 2.94 37.292 0.044 6.73 2.07 12.78
1/15/2021 1:00:00 AM 2.93 37.274 0.044 6.71 2.05 12.79
1/15/2021 1:15:00 AM 2.93 37.274 0.044 6.72 2.04 12.79
1/15/2021 1:30:00 AM 2.91 37.238 0.044 6.73 2.02 12.79
1/15/2021 1:45:00 AM 2.9 37.22 0.044 6.72 2.01 12.8
1/15/2021 2:00:00 AM 2.89 37.202 0.044 6.73 2.04 12.81
1/15/2021 2:15:00 AM 2.88 37.184 0.044 6.71 2.01 12.81
1/15/2021 2:30:00 AM 2.87 37.166 0.044 6.73 2.01 12.81
1/15/2021 2:45:00 AM 2.86 37.148 0.044 6.72 2 12.82
1/15/2021 3:00:00 AM 2.85 37.13 0.044 6.7 2.03 12.83
1/15/2021 3:15:00 AM 2.84 37.112 0.044 6.71 2 12.83
1/15/2021 3:30:00 AM 2.84 37.112 0.044 6.74 2.05 12.83
1/15/2021 3:45:00 AM 2.83 37.094 0.044 6.74 1.97 12.83
1/15/2021 4:00:00 AM 2.83 37.094 0.044 6.73 2.01 12.83
1/15/2021 4:15:00 AM 2.82 37.076 0.044 6.73 2 12.84
1/15/2021 4:30:00 AM 2.81 37.058 0.044 6.73 1.99 12.84
1/15/2021 4:45:00 AM 2.81 37.058 0.044 6.74 2.03 12.84
1/15/2021 5:00:00 AM 2.8 37.04 0.044 6.74 2.03 12.84
1/15/2021 5:15:00 AM 2.8 37.04 0.044 6.75 2.03 12.84
1/15/2021 5:30:00 AM 2.8 37.04 0.044 6.74 2.01 12.84
1/15/2021 5:45:00 AM 2.8 37.04 0.044 6.72 2.03 12.84
1/15/2021 6:00:00 AM 2.8 37.04 0.044 6.72 2.01 12.85
1/15/2021 6:15:00 AM 2.79 37.022 0.044 6.71 2.02 12.84
1/15/2021 6:30:00 AM 2.79 37.022 0.044 6.75 2.06 12.84
1/15/2021 6:45:00 AM 2.79 37.022 0.044 6.74 2.02 12.85
1/15/2021 7:00:00 AM 2.79 37.022 0.044 6.75 2.03 12.85
1/15/2021 7:15:00 AM 2.8 37.04 0.044 6.75 1.96 12.84
1/15/2021 7:30:00 AM 2.81 37.058 0.044 6.74 2 12.84
1/15/2021 7:45:00 AM 2.82 37.076 0.044 6.74 2.03 12.84
1/15/2021 8:00:00 AM 2.83 37.094 0.044 6.76 2.01 12.85
1/15/2021 8:15:00 AM 2.84 37.112 0.044 6.75 1.94 12.86
1/15/2021 8:30:00 AM 2.85 37.13 0.044 6.75 1.97 12.87
1/15/2021 8:45:00 AM 2.87 37.166 0.044 6.77 1.98 12.89
1/15/2021 9:00:00 AM 2.9 37.22 0.044 6.8 2.01 12.93
1/15/2021 9:15:00 AM 2.93 37.274 0.044 6.8 1.96 12.97
1/15/2021 9:30:00 AM 2.96 37.328 0.044 6.82 2 13
1/15/2021 9:45:00 AM 3 37.4 0.044 6.84 2 13.02
1/15/2021 10:00:00 AM 3.04 37.472 0.044 6.85 1.98 13.04
1/15/2021 10:15:00 AM 3.1 37.58 0.044 6.86 1.96 13.04
1/15/2021 10:30:00 AM 3.15 37.67 0.044 6.87 1.95 13.04
1/15/2021 10:45:00 AM 3.19 37.742 0.044 6.86 1.99 13.03
1/15/2021 11:00:00 AM 3.23 37.814 0.044 6.87 2 13.02
1/15/2021 11:15:00 AM 3.27 37.886 0.044 6.9 1.95 13.01
1/15/2021 11:30:00 AM 3.3 37.94 0.044 6.9 1.97 12.99
1/15/2021 11:45:00 AM 3.34 38.012 0.044 6.91 1.99 12.98
1/15/2021 12:00:00 PM 3.36 38.048 0.044 6.91 1.96 12.96
1/15/2021 12:15:00 PM 3.39 38.102 0.044 6.9 1.96 12.95
1/15/2021 12:30:00 PM 3.41 38.138 0.044 6.89 1.95 12.94
1/15/2021 12:45:00 PM 3.44 38.192 0.044 6.91 1.95 12.93
1/15/2021 1:00:00 PM 3.45 38.21 0.044 6.92 1.94 12.93
1/15/2021 1:15:00 PM 3.48 38.264 0.044 6.92 1.97 12.92
1/15/2021 1:30:00 PM 3.52 38.336 0.044 6.94 1.98 12.91
1/15/2021 1:45:00 PM 3.56 38.408 0.044 6.91 1.95 12.9
1/15/2021 2:00:00 PM 3.66 38.588 0.043 6.92 1.96 12.88
1/15/2021 2:15:00 PM 3.66 38.588 0.043 6.94 2.01 12.87
1/15/2021 2:30:00 PM 3.66 38.588 0.043 6.92 1.94 12.84
1/15/2021 2:45:00 PM 3.7 38.66 0.043 6.92 1.96 12.82
1/15/2021 3:00:00 PM 3.74 38.732 0.043 6.92 2.02 12.79
1/15/2021 3:15:00 PM 3.75 38.75 0.043 6.9 1.97 12.76
1/15/2021 3:30:00 PM 3.74 38.732 0.043 6.88 1.96 12.74
1/15/2021 3:45:00 PM 3.75 38.75 0.043 6.88 1.99 12.71
1/15/2021 4:00:00 PM 3.74 38.732 0.043 6.89 1.98 12.7
1/15/2021 4:15:00 PM 3.73 38.714 0.044 6.87 1.97 12.66
1/15/2021 4:30:00 PM 3.72 38.696 0.044 6.87 2.02 12.64
1/15/2021 4:45:00 PM 3.71 38.678 0.044 6.83 2.04 12.62
1/15/2021 5:00:00 PM 3.7 38.66 0.044 6.83 2.02 12.59
1/15/2021 5:15:00 PM 3.69 38.642 0.044 6.83 1.98 12.57
1/15/2021 5:30:00 PM 3.68 38.624 0.044 6.82 1.99 12.55
1/15/2021 5:45:00 PM 3.67 38.606 0.044 6.81 2.06 12.53
1/15/2021 6:00:00 PM 3.66 38.588 0.044 6.79 2.06 12.52
1/15/2021 6:15:00 PM 3.65 38.57 0.044 6.81 2.04 12.52
1/15/2021 6:30:00 PM 3.65 38.57 0.044 6.78 2.08 12.51
1/15/2021 6:45:00 PM 3.64 38.552 0.044 6.8 2.08 12.51
1/15/2021 7:00:00 PM 3.63 38.534 0.044 6.79 2.08 12.5
1/15/2021 7:15:00 PM 3.63 38.534 0.044 6.77 2.06 12.5
1/15/2021 7:30:00 PM 3.62 38.516 0.044 6.77 2.07 12.51
1/15/2021 7:45:00 PM 3.61 38.498 0.044 6.77 2.07 12.5
1/15/2021 8:00:00 PM 3.6 38.48 0.044 6.75 2.14 12.5
1/15/2021 8:15:00 PM 3.59 38.462 0.044 6.76 2.09 12.51
1/15/2021 8:30:00 PM 3.58 38.444 0.044 6.75 2.16 12.5
1/15/2021 8:45:00 PM 3.58 38.444 0.044 6.75 2.17 12.51
1/15/2021 9:00:00 PM 3.57 38.426 0.044 6.74 2.19 12.51
1/15/2021 9:15:00 PM 3.56 38.408 0.044 6.75 2.19 12.51
1/15/2021 9:30:00 PM 3.55 38.39 0.044 6.75 2.22 12.51
1/15/2021 9:45:00 PM 3.54 38.372 0.044 6.73 2.23 12.51
1/15/2021 10:00:00 PM 3.5 38.3 0.044 6.74 2.25 12.51
1/15/2021 10:15:00 PM 3.47 38.246 0.044 6.75 2.31 12.52
1/15/2021 10:30:00 PM 3.44 38.192 0.044 6.73 2.31 12.53
1/15/2021 10:45:00 PM 3.44 38.192 0.044 6.73 2.49 12.53
1/15/2021 11:00:00 PM 3.43 38.174 0.044 6.75 2.37 12.54
1/15/2021 11:15:00 PM 3.42 38.156 0.044 6.71 2.37 12.54
1/15/2021 11:30:00 PM 3.41 38.138 0.044 6.75 2.36 12.55
1/15/2021 11:45:00 PM 3.41 38.138 0.044 6.73 2.4 12.55
1/16/2021 12:00:00 AM 3.4 38.12 0.045 6.72 2.36 12.55
1/16/2021 12:15:00 AM 3.39 38.102 0.045 6.75 2.36 12.55
1/16/2021 12:30:00 AM 3.38 38.084 0.045 6.74 2.38 12.56
1/16/2021 12:45:00 AM 3.37 38.066 0.045 6.73 2.42 12.56
1/16/2021 1:00:00 AM 3.35 38.03 0.045 6.72 2.41 12.56
1/16/2021 1:15:00 AM 3.34 38.012 0.045 6.72 2.43 12.57
1/16/2021 1:30:00 AM 3.32 37.976 0.045 6.74 2.45 12.57
1/16/2021 1:45:00 AM 3.31 37.958 0.045 6.74 2.52 12.57
1/16/2021 2:00:00 AM 3.29 37.922 0.045 6.73 2.41 12.58
1/16/2021 2:15:00 AM 3.28 37.904 0.045 6.73 2.42 12.58
1/16/2021 2:30:00 AM 3.25 37.85 0.045 6.73 2.5 12.58
1/16/2021 2:45:00 AM 3.23 37.814 0.046 6.73 2.43 12.59
1/16/2021 3:00:00 AM 3.21 37.778 0.046 6.73 2.45 12.6
1/16/2021 3:15:00 AM 3.21 37.778 0.046 6.74 2.48 12.6
1/16/2021 3:30:00 AM 3.2 37.76 0.046 6.75 2.51 12.6
1/16/2021 3:45:00 AM 3.18 37.724 0.046 6.73 2.41 12.61
1/16/2021 4:00:00 AM 3.16 37.688 0.046 6.74 2.44 12.61
1/16/2021 4:15:00 AM 3.15 37.67 0.046 6.74 2.47 12.61
1/16/2021 4:30:00 AM 3.14 37.652 0.046 6.73 2.34 12.61
1/16/2021 4:45:00 AM 3.12 37.616 0.046 6.74 2.4 12.62
1/16/2021 5:00:00 AM 3.1 37.58 0.046 6.74 2.37 12.62
1/16/2021 5:15:00 AM 3.08 37.544 0.046 6.75 2.38 12.62
1/16/2021 5:30:00 AM 3.08 37.544 0.046 6.75 2.44 12.63
1/16/2021 5:45:00 AM 3.06 37.508 0.046 6.75 2.29 12.63
1/16/2021 6:00:00 AM 3.03 37.454 0.046 6.75 2.32 12.63
1/16/2021 6:15:00 AM 3 37.4 0.046 6.73 2.37 12.64
1/16/2021 6:30:00 AM 2.96 37.328 0.046 6.76 2.35 12.65
1/16/2021 6:45:00 AM 2.92 37.256 0.046 6.76 2.31 12.67
1/16/2021 7:00:00 AM 2.88 37.184 0.046 6.74 2.34 12.68
1/16/2021 7:15:00 AM 2.83 37.094 0.046 6.73 2.29 12.69
1/16/2021 7:30:00 AM 2.79 37.022 0.046 6.73 2.47 12.7
1/16/2021 7:45:00 AM 2.75 36.95 0.046 6.74 2.26 12.73
1/16/2021 8:00:00 AM 2.71 36.878 0.046 6.74 2.62 12.77
1/16/2021 8:15:00 AM 2.68 36.824 0.046 6.75 2.39 12.81
1/16/2021 8:30:00 AM 2.66 36.788 0.046 6.76 2.34 12.86
1/16/2021 8:45:00 AM 2.64 36.752 0.046 6.77 2.25 12.91
1/16/2021 9:00:00 AM 2.64 36.752 0.046 6.79 2.25 12.95
1/16/2021 9:15:00 AM 2.66 36.788 0.046 6.82 2.27 12.99
1/16/2021 9:30:00 AM 2.68 36.824 0.046 6.83 2.24 13.02
1/16/2021 9:45:00 AM 2.7 36.86 0.045 6.85 2.23 13.04
1/16/2021 10:00:00 AM 2.72 36.896 0.045 6.85 2.18 13.05
1/16/2021 10:15:00 AM 2.75 36.95 0.045 6.86 2.18 13.05
1/16/2021 10:30:00 AM 2.79 37.022 0.045 6.88 2.18 13.05
1/16/2021 10:45:00 AM 2.84 37.112 0.045 6.89 2.17 13.05
1/16/2021 11:00:00 AM 2.91 37.238 0.045 6.9 2.19 13.04
1/16/2021 11:15:00 AM 2.96 37.328 0.045 6.89 2.16 13.03
1/16/2021 11:30:00 AM 2.99 37.382 0.045 6.91 2.16 13.02
1/16/2021 11:45:00 AM 3.05 37.49 0.045 6.91 2.15 13
1/16/2021 12:00:00 PM 3.13 37.634 0.045 6.92 2.13 12.98
1/16/2021 12:15:00 PM 3.2 37.76 0.045 6.92 2.15 12.96
1/16/2021 12:30:00 PM 3.24 37.832 0.045 6.94 2.14 12.94
1/16/2021 12:45:00 PM 3.29 37.922 0.045 6.93 2.09 12.93
1/16/2021 1:00:00 PM 3.37 38.066 0.045 6.95 2.1 12.9
1/16/2021 1:15:00 PM 3.42 38.156 0.045 6.93 2.13 12.88
1/16/2021 1:30:00 PM 3.46 38.228 0.045 6.93 2.1 12.86
1/16/2021 1:45:00 PM 3.48 38.264 0.045 6.95 2.09 12.85
1/16/2021 2:00:00 PM 3.54 38.372 0.045 6.95 2.09 12.83
1/16/2021 2:15:00 PM 3.57 38.426 0.045 6.95 2.07 12.82
1/16/2021 2:30:00 PM 3.57 38.426 0.045 6.95 2.11 12.8
1/16/2021 2:45:00 PM 3.58 38.444 0.045 6.94 2.14 12.78
1/16/2021 3:00:00 PM 3.6 38.48 0.045 6.93 2.1 12.76
1/16/2021 3:15:00 PM 3.6 38.48 0.045 6.94 2.09 12.75
1/16/2021 3:30:00 PM 3.61 38.498 0.045 6.94 2.09 12.76
1/16/2021 3:45:00 PM 3.6 38.48 0.045 6.93 2.06 12.76
1/16/2021 4:00:00 PM 3.59 38.462 0.045 6.94 2.1 12.76
1/16/2021 4:15:00 PM 3.58 38.444 0.045 6.93 2.06 12.75
1/16/2021 4:30:00 PM 3.55 38.39 0.045 6.91 2.07 12.73
1/16/2021 4:45:00 PM 3.52 38.336 0.045 6.91 2.1 12.72
1/16/2021 5:00:00 PM 3.48 38.264 0.045 6.88 2.1 12.68
1/16/2021 5:15:00 PM 3.44 38.192 0.045 6.87 2.09 12.65
1/16/2021 5:30:00 PM 3.39 38.102 0.045 6.84 2.13 12.62
1/16/2021 5:45:00 PM 3.34 38.012 0.045 6.84 2.15 12.6
1/16/2021 6:00:00 PM 3.32 37.976 0.045 6.83 2.1 12.58
1/16/2021 6:15:00 PM 3.24 37.832 0.045 6.81 2.11 12.57
1/16/2021 6:30:00 PM 3.16 37.688 0.045 6.8 2.16 12.57
1/16/2021 6:45:00 PM 3.15 37.67 0.045 6.8 2.09 12.57
1/16/2021 7:00:00 PM 3.13 37.634 0.045 6.76 2.16 12.57
1/16/2021 7:15:00 PM 3.11 37.598 0.045 6.78 2.15 12.57
1/16/2021 7:30:00 PM 3.1 37.58 0.045 6.78 2.14 12.57
1/16/2021 7:45:00 PM 3.09 37.562 0.045 6.76 2.15 12.58
1/16/2021 8:00:00 PM 3.07 37.526 0.045 6.77 2.13 12.58
1/16/2021 8:15:00 PM 3.04 37.472 0.045 6.76 2.07 12.59
1/16/2021 8:30:00 PM 3.03 37.454 0.045 6.77 2.11 12.6
1/16/2021 8:45:00 PM 3.01 37.418 0.045 6.77 2.14 12.6
1/16/2021 9:00:00 PM 3 37.4 0.045 6.76 2.1 12.61
1/16/2021 9:15:00 PM 2.99 37.382 0.045 6.76 2.07 12.61
1/16/2021 9:30:00 PM 2.98 37.364 0.045 6.75 2.09 12.62
1/16/2021 9:45:00 PM 2.97 37.346 0.045 6.78 2.09 12.62
1/16/2021 10:00:00 PM 2.96 37.328 0.045 6.77 2.13 12.62
1/16/2021 10:15:00 PM 2.94 37.292 0.045 6.76 2.09 12.63
1/16/2021 10:30:00 PM 2.93 37.274 0.045 6.75 2.05 12.63
1/16/2021 10:45:00 PM 2.91 37.238 0.045 6.75 2.11 12.64
1/16/2021 11:00:00 PM 2.88 37.184 0.045 6.74 2.09 12.65
1/16/2021 11:15:00 PM 2.85 37.13 0.045 6.75 2.09 12.66
1/16/2021 11:30:00 PM 2.83 37.094 0.045 6.75 2.08 12.67
1/16/2021 11:45:00 PM 2.79 37.022 0.046 6.75 2.1 12.68
1/17/2021 12:00:00 AM 2.77 36.986 0.046 6.74 2.07 12.69
1/17/2021 12:15:00 AM 2.74 36.932 0.046 6.74 2.14 12.69
1/17/2021 12:30:00 AM 2.7 36.86 0.046 6.73 2.05 12.71
1/17/2021 12:45:00 AM 2.68 36.824 0.046 6.76 2.08 12.72
1/17/2021 1:00:00 AM 2.65 36.77 0.046 6.74 2.1 12.74
1/17/2021 1:15:00 AM 2.62 36.716 0.046 6.74 2.06 12.75
1/17/2021 1:30:00 AM 2.6 36.68 0.046 6.74 2.06 12.76
1/17/2021 1:45:00 AM 2.58 36.644 0.046 6.74 2.11 12.77
1/17/2021 2:00:00 AM 2.56 36.608 0.046 6.74 2.03 12.77
1/17/2021 2:15:00 AM 2.54 36.572 0.046 6.74 2.07 12.78
1/17/2021 2:30:00 AM 2.52 36.536 0.046 6.73 2.03 12.79
1/17/2021 2:45:00 AM 2.5 36.5 0.046 6.74 2.1 12.8
1/17/2021 3:00:00 AM 2.48 36.464 0.046 6.74 2.09 12.81
1/17/2021 3:15:00 AM 2.46 36.428 0.046 6.72 2.03 12.82
1/17/2021 3:30:00 AM 2.43 36.374 0.046 6.75 2.03 12.83
1/17/2021 3:45:00 AM 2.42 36.356 0.046 6.74 2.04 12.83
1/17/2021 4:00:00 AM 2.4 36.32 0.046 6.75 2.04 12.85
1/17/2021 4:15:00 AM 2.38 36.284 0.046 6.75 2.09 12.85
1/17/2021 4:30:00 AM 2.36 36.248 0.046 6.74 2.05 12.85
1/17/2021 4:45:00 AM 2.35 36.23 0.046 6.75 2.05 12.86
1/17/2021 5:00:00 AM 2.32 36.176 0.046 6.75 2.07 12.86
1/17/2021 5:15:00 AM 2.3 36.14 0.046 6.76 2.07 12.87
1/17/2021 5:30:00 AM 2.29 36.122 0.046 6.74 2.06 12.88
1/17/2021 5:45:00 AM 2.27 36.086 0.046 6.75 2.07 12.89
1/17/2021 6:00:00 AM 2.27 36.086 0.046 6.74 2.03 12.89
1/17/2021 6:15:00 AM 2.25 36.05 0.046 6.73 2.05 12.9
1/17/2021 6:30:00 AM 2.24 36.032 0.046 6.73 2.05 12.91
1/17/2021 6:45:00 AM 2.23 36.014 0.046 6.75 2.05 12.91
1/17/2021 7:00:00 AM 2.22 35.996 0.046 6.74 2.04 12.92
1/17/2021 7:15:00 AM 2.22 35.996 0.046 6.74 2 12.92
1/17/2021 7:30:00 AM 2.21 35.978 0.046 6.73 2.1 12.93
1/17/2021 7:45:00 AM 2.2 35.96 0.046 6.72 2.03 12.93
1/17/2021 8:00:00 AM 2.2 35.96 0.046 6.74 2.11 12.96
1/17/2021 8:15:00 AM 2.2 35.96 0.046 6.76 2.07 12.99
1/17/2021 8:30:00 AM 2.21 35.978 0.046 6.78 2.04 13.03
1/17/2021 8:45:00 AM 2.22 35.996 0.046 6.78 2.06 13.06
1/17/2021 9:00:00 AM 2.23 36.014 0.046 6.79 2.03 13.09
1/17/2021 9:15:00 AM 2.25 36.05 0.046 6.77 2.02 13.12
1/17/2021 9:30:00 AM 2.27 36.086 0.046 6.81 1.98 13.14
1/17/2021 9:45:00 AM 2.28 36.104 0.045 6.82 1.98 13.16
1/17/2021 10:00:00 AM 2.29 36.122 0.045 6.83 2.02 13.18
1/17/2021 10:15:00 AM 2.34 36.212 0.045 6.82 2.04 13.2
1/17/2021 10:30:00 AM 2.37 36.266 0.045 6.85 1.97 13.21
1/17/2021 10:45:00 AM 2.39 36.302 0.045 6.87 1.97 13.21
1/17/2021 11:00:00 AM 2.41 36.338 0.045 6.87 1.99 13.21
1/17/2021 11:15:00 AM 2.44 36.392 0.045 6.89 2.01 13.21
1/17/2021 11:30:00 AM 2.47 36.446 0.045 6.89 2.03 13.22
1/17/2021 11:45:00 AM 2.5 36.5 0.045 6.91 2.03 13.21
1/17/2021 12:00:00 PM 2.54 36.572 0.045 6.9 2.03 13.22
1/17/2021 12:15:00 PM 2.57 36.626 0.045 6.9 1.99 13.21
1/17/2021 12:30:00 PM 2.6 36.68 0.045 6.9 2 13.2
1/17/2021 12:45:00 PM 2.62 36.716 0.045 6.89 1.99 13.19
1/17/2021 1:00:00 PM 2.66 36.788 0.045 6.92 1.98 13.18
1/17/2021 1:15:00 PM 2.68 36.824 0.045 6.92 2.04 13.17
1/17/2021 1:30:00 PM 2.71 36.878 0.045 6.91 1.99 13.17
1/17/2021 1:45:00 PM 2.74 36.932 0.045 6.93 1.99 13.16
1/17/2021 2:00:00 PM 2.76 36.968 0.045 6.9 1.96 13.14
1/17/2021 2:15:00 PM 2.78 37.004 0.045 6.91 1.98 13.12
1/17/2021 2:30:00 PM 2.8 37.04 0.045 6.91 1.99 13.11
1/17/2021 2:45:00 PM 2.82 37.076 0.045 6.92 2.02 13.09
1/17/2021 3:00:00 PM 2.84 37.112 0.045 6.9 1.98 13.09
1/17/2021 3:15:00 PM 2.84 37.112 0.045 6.9 1.96 13.06
1/17/2021 3:30:00 PM 2.84 37.112 0.045 6.9 1.99 13.03
1/17/2021 3:45:00 PM 2.85 37.13 0.045 6.87 2.02 13.02
1/17/2021 4:00:00 PM 2.85 37.13 0.045 6.89 2.02 13.01
1/17/2021 4:15:00 PM 2.86 37.148 0.045 6.87 2 12.98
1/17/2021 4:30:00 PM 2.86 37.148 0.045 6.85 1.98 12.95
1/17/2021 4:45:00 PM 2.86 37.148 0.045 6.85 2.02 12.91
1/17/2021 5:00:00 PM 2.85 37.13 0.045 6.82 2.01 12.88
1/17/2021 5:15:00 PM 2.85 37.13 0.045 6.82 2.02 12.85
1/17/2021 5:30:00 PM 2.85 37.13 0.045 6.81 2.01 12.83
1/17/2021 5:45:00 PM 2.85 37.13 0.045 6.81 2.03 12.81
1/17/2021 6:00:00 PM 2.85 37.13 0.045 6.81 2.02 12.79
1/17/2021 6:15:00 PM 2.84 37.112 0.045 6.79 2.04 12.78
1/17/2021 6:30:00 PM 2.84 37.112 0.045 6.78 2.04 12.77
1/17/2021 6:45:00 PM 2.84 37.112 0.045 6.79 2.02 12.77
1/17/2021 7:00:00 PM 2.83 37.094 0.045 6.78 1.99 12.76
1/17/2021 7:15:00 PM 2.83 37.094 0.045 6.76 1.99 12.76
1/17/2021 7:30:00 PM 2.83 37.094 0.045 6.77 2.04 12.76
1/17/2021 7:45:00 PM 2.82 37.076 0.045 6.77 2.01 12.76
1/17/2021 8:00:00 PM 2.81 37.058 0.045 6.76 1.98 12.76
1/17/2021 8:15:00 PM 2.79 37.022 0.045 6.77 2.03 12.76
1/17/2021 8:30:00 PM 2.78 37.004 0.045 6.78 1.98 12.76
1/17/2021 8:45:00 PM 2.77 36.986 0.045 6.77 1.99 12.76
1/17/2021 9:00:00 PM 2.75 36.95 0.045 6.77 1.96 12.77
1/17/2021 9:15:00 PM 2.74 36.932 0.045 6.77 2.04 12.77
1/17/2021 9:30:00 PM 2.74 36.932 0.045 6.75 2.04 12.77
1/17/2021 9:45:00 PM 2.73 36.914 0.045 6.76 1.98 12.77
1/17/2021 10:00:00 PM 2.71 36.878 0.045 6.76 1.97 12.78
1/17/2021 10:15:00 PM 2.7 36.86 0.045 6.77 2 12.78
1/17/2021 10:30:00 PM 2.69 36.842 0.045 6.76 1.99 12.78
1/17/2021 10:45:00 PM 2.67 36.806 0.045 6.76 1.96 12.79
1/17/2021 11:00:00 PM 2.65 36.77 0.045 6.77 2.03 12.8
1/17/2021 11:15:00 PM 2.63 36.734 0.045 6.75 2.03 12.8
1/17/2021 11:30:00 PM 2.62 36.716 0.045 6.75 1.96 12.81
1/17/2021 11:45:00 PM 2.61 36.698 0.045 6.77 1.98 12.81
1/18/2021 12:00:00 AM 2.61 36.698 0.045 6.76 2.03 12.81
1/18/2021 12:15:00 AM 2.61 36.698 0.045 6.78 2.01 12.82
1/18/2021 12:30:00 AM 2.61 36.698 0.045 6.77 2 12.81
1/18/2021 12:45:00 AM 2.61 36.698 0.045 6.76 1.95 12.82
1/18/2021 1:00:00 AM 2.6 36.68 0.045 6.76 1.99 12.82
1/18/2021 1:15:00 AM 2.6 36.68 0.045 6.76 2.01 12.82
1/18/2021 1:30:00 AM 2.6 36.68 0.045 6.76 2.02 12.82
1/18/2021 1:45:00 AM 2.6 36.68 0.045 6.76 1.97 12.82
1/18/2021 2:00:00 AM 2.6 36.68 0.045 6.76 1.99 12.83
1/18/2021 2:15:00 AM 2.6 36.68 0.045 6.74 1.96 12.82
1/18/2021 2:30:00 AM 2.6 36.68 0.045 6.74 2 12.82
1/18/2021 2:45:00 AM 2.6 36.68 0.045 6.76 1.97 12.83
1/18/2021 3:00:00 AM 2.6 36.68 0.045 6.75 1.98 12.83
1/18/2021 3:15:00 AM 2.6 36.68 0.045 6.75 2 12.83
1/18/2021 3:30:00 AM 2.59 36.662 0.045 6.75 2 12.83
1/18/2021 3:45:00 AM 2.58 36.644 0.045 6.77 1.96 12.83
1/18/2021 4:00:00 AM 2.56 36.608 0.045 6.75 1.94 12.84
1/18/2021 4:15:00 AM 2.55 36.59 0.045 6.75 1.99 12.84
1/18/2021 4:30:00 AM 2.54 36.572 0.045 6.77 1.95 12.83
1/18/2021 4:45:00 AM 2.52 36.536 0.045 6.74 2 12.85
1/18/2021 5:00:00 AM 2.5 36.5 0.045 6.75 1.99 12.84
1/18/2021 5:15:00 AM 2.49 36.482 0.045 6.75 1.97 12.85
1/18/2021 5:30:00 AM 2.48 36.464 0.045 6.73 1.99 12.85
1/18/2021 5:45:00 AM 2.47 36.446 0.045 6.74 1.97 12.86
1/18/2021 6:00:00 AM 2.46 36.428 0.045 6.74 1.94 12.86
1/18/2021 6:15:00 AM 2.46 36.428 0.045 6.74 2 12.87
1/18/2021 6:30:00 AM 2.45 36.41 0.045 6.75 1.98 12.87
1/18/2021 6:45:00 AM 2.44 36.392 0.045 6.74 1.98 12.87
1/18/2021 7:00:00 AM 2.43 36.374 0.045 6.72 1.99 12.88
1/18/2021 7:15:00 AM 2.41 36.338 0.045 6.73 1.98 12.89
1/18/2021 7:30:00 AM 2.4 36.32 0.045 6.72 2.01 12.89
1/18/2021 7:45:00 AM 2.39 36.302 0.045 6.75 2 12.92
1/18/2021 8:00:00 AM 2.38 36.284 0.045 6.74 2.01 12.95
1/18/2021 8:15:00 AM 2.38 36.284 0.045 6.76 2.02 12.99
1/18/2021 8:30:00 AM 2.39 36.302 0.045 6.78 2 13.02
1/18/2021 8:45:00 AM 2.4 36.32 0.045 6.78 1.98 13.07
1/18/2021 9:00:00 AM 2.42 36.356 0.045 6.8 1.95 13.12
1/18/2021 9:15:00 AM 2.45 36.41 0.045 6.83 1.95 13.16
1/18/2021 9:30:00 AM 2.48 36.464 0.045 6.83 1.99 13.19
1/18/2021 9:45:00 AM 2.52 36.536 0.045 6.86 1.96 13.22
1/18/2021 10:00:00 AM 2.56 36.608 0.045 6.87 2 13.23
1/18/2021 10:15:00 AM 2.61 36.698 0.045 6.89 1.98 13.24
1/18/2021 10:30:00 AM 2.67 36.806 0.045 6.91 1.96 13.24
1/18/2021 10:45:00 AM 2.71 36.878 0.045 6.91 1.98 13.24
1/18/2021 11:00:00 AM 2.74 36.932 0.045 6.92 1.91 13.23
1/18/2021 11:15:00 AM 2.81 37.058 0.045 6.94 1.98 13.22
1/18/2021 11:30:00 AM 2.86 37.148 0.045 6.95 1.98 13.21
1/18/2021 11:45:00 AM 2.87 37.166 0.045 6.94 1.98 13.19
1/18/2021 12:00:00 PM 2.91 37.238 0.045 6.94 1.96 13.18
1/18/2021 12:15:00 PM 2.95 37.31 0.045 6.94 1.96 13.17
1/18/2021 12:30:00 PM 2.98 37.364 0.045 6.94 1.95 13.16
1/18/2021 12:45:00 PM 3.04 37.472 0.045 6.94 1.92 13.15
1/18/2021 1:00:00 PM 3.04 37.472 0.045 6.95 1.94 13.13
1/18/2021 1:15:00 PM 3.05 37.49 0.045 6.94 1.95 13.12
1/18/2021 1:30:00 PM 3.07 37.526 0.045 6.93 1.98 13.1
1/18/2021 1:45:00 PM 3.1 37.58 0.045 6.94 1.93 13.1
1/18/2021 2:00:00 PM 3.09 37.562 0.045 6.93 1.95 13.08
1/18/2021 2:15:00 PM 3.08 37.544 0.044 6.92 1.93 13.07
1/18/2021 2:30:00 PM 3.09 37.562 0.044 6.91 1.96 13.06
1/18/2021 2:45:00 PM 3.13 37.634 0.044 6.92 1.98 13.06
1/18/2021 3:00:00 PM 3.14 37.652 0.044 6.93 1.94 13.05
1/18/2021 3:15:00 PM 3.12 37.616 0.044 6.9 1.99 13.03
1/18/2021 3:30:00 PM 3.1 37.58 0.044 6.88 1.97 13.02
1/18/2021 3:45:00 PM 3.1 37.58 0.044 6.9 2 13.01
1/18/2021 4:00:00 PM 3.09 37.562 0.044 6.88 1.99 13
1/18/2021 4:15:00 PM 3.05 37.49 0.044 6.85 2 12.97
1/18/2021 4:30:00 PM 3.03 37.454 0.044 6.85 1.94 12.95
1/18/2021 4:45:00 PM 2.99 37.382 0.045 6.82 1.95 12.93
1/18/2021 5:00:00 PM 2.96 37.328 0.045 6.82 2.01 12.91
1/18/2021 5:15:00 PM 2.94 37.292 0.045 6.79 1.95 12.89
1/18/2021 5:30:00 PM 2.9 37.22 0.045 6.78 1.99 12.87
1/18/2021 5:45:00 PM 2.87 37.166 0.045 6.79 1.99 12.86
1/18/2021 6:00:00 PM 2.85 37.13 0.045 6.79 2 12.86
1/18/2021 6:15:00 PM 2.83 37.094 0.045 6.74 1.96 12.85
1/18/2021 6:30:00 PM 2.81 37.058 0.045 6.74 1.95 12.85
1/18/2021 6:45:00 PM 2.79 37.022 0.045 6.75 1.96 12.85
1/18/2021 7:00:00 PM 2.77 36.986 0.045 6.75 2 12.86
1/18/2021 7:15:00 PM 2.75 36.95 0.045 6.75 1.98 12.87
1/18/2021 7:30:00 PM 2.74 36.932 0.045 6.74 1.98 12.87
1/18/2021 7:45:00 PM 2.72 36.896 0.045 6.73 1.99 12.88
1/18/2021 8:00:00 PM 2.7 36.86 0.045 6.73 1.94 12.88
1/18/2021 8:15:00 PM 2.68 36.824 0.045 6.76 1.99 12.89
1/18/2021 8:30:00 PM 2.67 36.806 0.045 6.73 2.01 12.89
1/18/2021 8:45:00 PM 2.66 36.788 0.045 6.73 2.02 12.9
1/18/2021 9:00:00 PM 2.64 36.752 0.045 6.74 2.01 12.91
1/18/2021 9:15:00 PM 2.63 36.734 0.045 6.75 1.97 12.91
1/18/2021 9:30:00 PM 2.61 36.698 0.045 6.75 2.01 12.92
1/18/2021 9:45:00 PM 2.59 36.662 0.045 6.74 1.99 12.93
1/18/2021 10:00:00 PM 2.57 36.626 0.045 6.74 1.96 12.93
1/18/2021 10:15:00 PM 2.56 36.608 0.045 6.74 1.97 12.93
1/18/2021 10:30:00 PM 2.54 36.572 0.045 6.72 1.96 12.94
1/18/2021 10:45:00 PM 2.53 36.554 0.045 6.74 2.02 12.95
1/18/2021 11:00:00 PM 2.52 36.536 0.045 6.74 2.02 12.96
1/18/2021 11:15:00 PM 2.5 36.5 0.045 6.73 2.01 12.96
1/18/2021 11:30:00 PM 2.49 36.482 0.045 6.75 2.01 12.97
1/18/2021 11:45:00 PM 2.48 36.464 0.045 6.73 1.99 12.97
1/19/2021 12:00:00 AM 2.47 36.446 0.045 6.75 2.03 12.98
1/19/2021 12:15:00 AM 2.45 36.41 0.046 6.75 1.98 12.98
1/19/2021 12:30:00 AM 2.44 36.392 0.046 6.75 1.98 12.99
1/19/2021 12:45:00 AM 2.42 36.356 0.046 6.74 1.99 12.99
1/19/2021 1:00:00 AM 2.4 36.32 0.046 6.75 1.99 12.99
1/19/2021 1:15:00 AM 2.36 36.248 0.046 6.72 2 13
1/19/2021 1:30:00 AM 2.34 36.212 0.046 6.74 1.97 13.01
1/19/2021 1:45:00 AM 2.32 36.176 0.046 6.74 2.01 13.03
1/19/2021 2:00:00 AM 2.3 36.14 0.046 6.74 1.99 13.03
1/19/2021 2:15:00 AM 2.27 36.086 0.046 6.74 1.99 13.05
1/19/2021 2:30:00 AM 2.24 36.032 0.046 6.74 2.07 13.05
1/19/2021 2:45:00 AM 2.22 35.996 0.046 6.73 2 13.06
1/19/2021 3:00:00 AM 2.21 35.978 0.046 6.75 2.06 13.08
1/19/2021 3:15:00 AM 2.19 35.942 0.046 6.73 1.97 13.08
1/19/2021 3:30:00 AM 2.17 35.906 0.046 6.73 2.05 13.09
1/19/2021 3:45:00 AM 2.16 35.888 0.046 6.73 1.99 13.1
1/19/2021 4:00:00 AM 2.15 35.87 0.046 6.75 1.99 13.11
1/19/2021 4:15:00 AM 2.13 35.834 0.046 6.73 2 13.12
1/19/2021 4:30:00 AM 2.12 35.816 0.046 6.73 1.96 13.12
1/19/2021 4:45:00 AM 2.1 35.78 0.046 6.74 1.97 13.13
1/19/2021 5:00:00 AM 2.08 35.744 0.046 6.74 2.03 13.14
1/19/2021 5:15:00 AM 2.04 35.672 0.046 6.72 1.99 13.15
1/19/2021 5:30:00 AM 2.04 35.672 0.046 6.74 1.97 13.15
1/19/2021 5:45:00 AM 2.03 35.654 0.046 6.75 2 13.16
1/19/2021 6:00:00 AM 2 35.6 0.046 6.73 1.95 13.17
1/19/2021 6:15:00 AM 1.98 35.564 0.046 6.72 1.98 13.18
1/19/2021 6:30:00 AM 1.97 35.546 0.046 6.75 1.99 13.19
1/19/2021 6:45:00 AM 1.96 35.528 0.046 6.74 1.94 13.2
1/19/2021 7:00:00 AM 1.94 35.492 0.046 6.74 2.02 13.2
1/19/2021 7:15:00 AM 1.93 35.474 0.046 6.75 2.01 13.21
1/19/2021 7:30:00 AM 1.92 35.456 0.046 6.73 2 13.22
1/19/2021 7:45:00 AM 1.91 35.438 0.046 6.74 2.04 13.24
1/19/2021 8:00:00 AM 1.85 35.33 0.046 6.74 1.96 13.24
1/19/2021 8:15:00 AM 1.83 35.294 0.046 6.74 1.95 13.26
1/19/2021 8:30:00 AM 1.8 35.24 0.046 6.75 2.06 13.3
1/19/2021 8:45:00 AM 1.82 35.276 0.046 6.78 1.96 13.37
1/19/2021 9:00:00 AM 1.84 35.312 0.046 6.8 1.99 13.42
1/19/2021 9:15:00 AM 1.86 35.348 0.046 6.81 1.97 13.47
1/19/2021 9:30:00 AM 1.89 35.402 0.046 6.84 2 13.51
1/19/2021 9:45:00 AM 1.91 35.438 0.045 6.85 1.97 13.54
1/19/2021 10:00:00 AM 1.93 35.474 0.045 6.86 2.02 13.55
1/19/2021 10:15:00 AM 1.95 35.51 0.045 6.87 2.01 13.58
1/19/2021 10:30:00 AM 1.99 35.582 0.045 6.88 1.96 13.59
1/19/2021 10:45:00 AM 2.01 35.618 0.045 6.89 1.96 13.58
1/19/2021 11:00:00 AM 2.04 35.672 0.045 6.92 2 13.6
1/19/2021 11:15:00 AM 2.09 35.762 0.045 6.93 1.99 13.6
1/19/2021 11:30:00 AM 2.14 35.852 0.045 6.94 1.92 13.59
1/19/2021 11:45:00 AM 2.19 35.942 0.045 6.96 2.01 13.58
1/19/2021 12:00:00 PM 2.22 35.996 0.045 6.95 1.98 13.57
1/19/2021 12:15:00 PM 2.28 36.104 0.045 6.95 1.97 13.55
1/19/2021 12:30:00 PM 2.31 36.158 0.045 6.94 1.97 13.54
1/19/2021 12:45:00 PM 2.35 36.23 0.045 6.95 1.93 13.52
1/19/2021 1:00:00 PM 2.42 36.356 0.045 6.97 1.98 13.51
1/19/2021 1:15:00 PM 2.44 36.392 0.045 6.97 1.94 13.49
1/19/2021 1:30:00 PM 2.43 36.374 0.045 6.95 1.97 13.48
1/19/2021 1:45:00 PM 2.44 36.392 0.045 6.95 1.94 13.47
1/19/2021 2:00:00 PM 2.51 36.518 0.045 6.97 1.99 13.45
1/19/2021 2:15:00 PM 2.54 36.572 0.045 6.97 1.97 13.44
1/19/2021 2:30:00 PM 2.53 36.554 0.045 6.96 1.95 13.43
1/19/2021 2:45:00 PM 2.54 36.572 0.045 6.95 1.98 13.42
1/19/2021 3:00:00 PM 2.56 36.608 0.045 6.94 1.93 13.41
1/19/2021 3:15:00 PM 2.58 36.644 0.045 6.96 1.97 13.4
1/19/2021 3:30:00 PM 2.57 36.626 0.045 6.93 1.97 13.38
1/19/2021 3:45:00 PM 2.58 36.644 0.045 6.93 1.93 13.38
1/19/2021 4:00:00 PM 2.56 36.608 0.045 6.92 1.95 13.38
1/19/2021 4:15:00 PM 2.53 36.554 0.045 6.9 1.98 13.35
1/19/2021 4:30:00 PM 2.51 36.518 0.045 6.9 1.94 13.32
1/19/2021 4:45:00 PM 2.5 36.5 0.045 6.91 1.98 13.3
1/19/2021 5:00:00 PM 2.47 36.446 0.045 6.87 1.97 13.26
1/19/2021 5:15:00 PM 2.44 36.392 0.045 6.86 1.96 13.23
1/19/2021 5:30:00 PM 2.41 36.338 0.045 6.84 1.93 13.2
1/19/2021 5:45:00 PM 2.39 36.302 0.045 6.84 1.97 13.17
1/19/2021 6:00:00 PM 2.35 36.23 0.045 6.81 1.98 13.16
1/19/2021 6:15:00 PM 2.3 36.14 0.045 6.78 2.04 13.15
1/19/2021 6:30:00 PM 2.25 36.05 0.045 6.77 1.99 13.14
1/19/2021 6:45:00 PM 2.2 35.96 0.045 6.78 1.98 13.15
1/19/2021 7:00:00 PM 2.16 35.888 0.045 6.76 1.98 13.16
1/19/2021 7:15:00 PM 2.12 35.816 0.045 6.76 1.99 13.16
1/19/2021 7:30:00 PM 2.1 35.78 0.045 6.76 2.01 13.17
1/19/2021 7:45:00 PM 2.06 35.708 0.045 6.76 2.02 13.18
1/19/2021 8:00:00 PM 2.02 35.636 0.045 6.76 2.04 13.19
1/19/2021 8:15:00 PM 1.99 35.582 0.045 6.77 2 13.2
1/19/2021 8:30:00 PM 1.97 35.546 0.045 6.77 1.99 13.21
1/19/2021 8:45:00 PM 1.94 35.492 0.045 6.76 2.03 13.21
1/19/2021 9:00:00 PM 1.92 35.456 0.045 6.77 1.96 13.22
1/19/2021 9:15:00 PM 1.9 35.42 0.045 6.77 1.99 13.22
1/19/2021 9:30:00 PM 1.89 35.402 0.045 6.78 2 13.23
1/19/2021 9:45:00 PM 1.88 35.384 0.046 6.77 2.01 13.23
1/19/2021 10:00:00 PM 1.87 35.366 0.046 6.78 1.99 13.23
1/19/2021 10:15:00 PM 1.86 35.348 0.046 6.78 2.01 13.24
1/19/2021 10:30:00 PM 1.86 35.348 0.046 6.77 1.99 13.23
1/19/2021 10:45:00 PM 1.85 35.33 0.046 6.78 1.99 13.24
1/19/2021 11:00:00 PM 1.84 35.312 0.046 6.76 2 13.24
1/19/2021 11:15:00 PM 1.84 35.312 0.046 6.78 1.99 13.24
1/19/2021 11:30:00 PM 1.84 35.312 0.046 6.8 1.98 13.24
1/19/2021 11:45:00 PM 1.84 35.312 0.046 6.78 2.06 13.24
1/20/2021 12:00:00 AM 1.84 35.312 0.046 6.78 2.01 13.24
1/20/2021 12:15:00 AM 1.83 35.294 0.046 6.79 2.04 13.23
1/20/2021 12:30:00 AM 1.83 35.294 0.046 6.79 1.99 13.23
1/20/2021 12:45:00 AM 1.83 35.294 0.046 6.8 2.02 13.23
1/20/2021 1:00:00 AM 1.83 35.294 0.046 6.81 2 13.23
1/20/2021 1:15:00 AM 1.82 35.276 0.046 6.78 2 13.23
1/20/2021 1:30:00 AM 1.81 35.258 0.046 6.77 1.97 13.22
1/20/2021 1:45:00 AM 1.81 35.258 0.046 6.8 1.96 13.22
1/20/2021 2:00:00 AM 1.8 35.24 0.046 6.78 2 13.23
1/20/2021 2:15:00 AM 1.79 35.222 0.046 6.78 1.96 13.23
1/20/2021 2:30:00 AM 1.77 35.186 0.046 6.78 2.02 13.22
1/20/2021 2:45:00 AM 1.76 35.168 0.046 6.8 1.94 13.23
1/20/2021 3:00:00 AM 1.75 35.15 0.046 6.8 1.99 13.23
1/20/2021 3:15:00 AM 1.74 35.132 0.046 6.79 1.99 13.23
1/20/2021 3:30:00 AM 1.72 35.096 0.046 6.79 2.06 13.23
1/20/2021 3:45:00 AM 1.7 35.06 0.046 6.78 2.01 13.24
1/20/2021 4:00:00 AM 1.67 35.006 0.046 6.79 2.02 13.24
1/20/2021 4:15:00 AM 1.65 34.97 0.046 6.76 1.99 13.24
1/20/2021 4:30:00 AM 1.62 34.916 0.046 6.76 2.02 13.25
1/20/2021 4:45:00 AM 1.61 34.898 0.046 6.76 1.98 13.25
1/20/2021 5:00:00 AM 1.59 34.862 0.046 6.77 1.99 13.26
1/20/2021 5:15:00 AM 1.58 34.844 0.046 6.77 2 13.26
1/20/2021 5:30:00 AM 1.57 34.826 0.046 6.76 1.99 13.26
1/20/2021 5:45:00 AM 1.56 34.808 0.046 6.76 2.04 13.28
1/20/2021 6:00:00 AM 1.55 34.79 0.046 6.77 2.03 13.29
1/20/2021 6:15:00 AM 1.54 34.772 0.046 6.75 2 13.28
1/20/2021 6:30:00 AM 1.52 34.736 0.046 6.76 1.99 13.29
1/20/2021 6:45:00 AM 1.5 34.7 0.046 6.75 1.98 13.3
1/20/2021 7:00:00 AM 1.5 34.7 0.046 6.75 1.99 13.31
1/20/2021 7:15:00 AM 1.47 34.646 0.046 6.75 1.99 13.32
1/20/2021 7:30:00 AM 1.45 34.61 0.046 6.74 1.97 13.33
1/20/2021 7:45:00 AM 1.41 34.538 0.046 6.74 1.99 13.37
1/20/2021 8:00:00 AM 1.4 34.52 0.046 6.75 1.97 13.4
1/20/2021 8:15:00 AM 1.39 34.502 0.046 6.77 1.98 13.45
1/20/2021 8:30:00 AM 1.37 34.466 0.046 6.76 1.96 13.51
1/20/2021 8:45:00 AM 1.34 34.412 0.046 6.79 2.02 13.58
1/20/2021 9:00:00 AM 1.31 34.358 0.046 6.8 2.06 13.64
1/20/2021 9:15:00 AM 1.31 34.358 0.046 6.82 1.97 13.69
1/20/2021 9:30:00 AM 1.31 34.358 0.046 6.84 1.91 13.73
1/20/2021 9:45:00 AM 1.33 34.394 0.046 6.83 1.99 13.77
1/20/2021 10:00:00 AM 1.33 34.394 0.046 6.86 1.95 13.79
1/20/2021 10:15:00 AM 1.35 34.43 0.046 6.88 2 13.81
1/20/2021 10:30:00 AM 1.38 34.484 0.046 6.88 1.99 13.82
1/20/2021 10:45:00 AM 1.38 34.484 0.046 6.91 1.96 13.82
1/20/2021 11:00:00 AM 1.43 34.574 0.046 6.91 1.95 13.82
1/20/2021 11:15:00 AM 1.42 34.556 0.046 6.91 1.93 13.82
1/20/2021 11:30:00 AM 1.49 34.682 0.045 6.94 1.94 13.81
1/20/2021 11:45:00 AM 1.52 34.736 0.045 6.93 1.93 13.79
1/20/2021 12:00:00 PM 1.48 34.664 0.045 6.92 1.94 13.8
1/20/2021 12:15:00 PM 1.47 34.646 0.045 6.92 1.94 13.81
1/20/2021 12:30:00 PM 1.6 34.88 0.045 6.95 1.96 13.79
1/20/2021 12:45:00 PM 1.69 35.042 0.045 6.97 1.96 13.76
1/20/2021 1:00:00 PM 1.66 34.988 0.045 6.97 1.9 13.76
1/20/2021 1:15:00 PM 1.61 34.898 0.045 6.93 1.93 13.78
1/20/2021 1:30:00 PM 1.6 34.88 0.045 6.93 1.93 13.78
1/20/2021 1:45:00 PM 1.65 34.97 0.045 6.94 1.92 13.76
1/20/2021 2:00:00 PM 1.71 35.078 0.045 6.93 1.92 13.75
1/20/2021 2:15:00 PM 1.73 35.114 0.045 6.97 1.97 13.74
1/20/2021 2:30:00 PM 1.74 35.132 0.045 6.96 1.96 13.74
1/20/2021 2:45:00 PM 1.76 35.168 0.045 6.97 1.94 13.74
1/20/2021 3:00:00 PM 1.77 35.186 0.045 6.95 1.94 13.73
1/20/2021 3:15:00 PM 1.77 35.186 0.045 6.94 1.96 13.73
1/20/2021 3:30:00 PM 1.76 35.168 0.045 6.94 1.9 13.72
1/20/2021 3:45:00 PM 1.75 35.15 0.045 6.94 1.93 13.72
1/20/2021 4:00:00 PM 1.71 35.078 0.045 6.95 1.92 13.7
1/20/2021 4:15:00 PM 1.72 35.096 0.045 6.94 1.95 13.69
1/20/2021 4:30:00 PM 1.69 35.042 0.045 6.92 1.93 13.68
1/20/2021 4:45:00 PM 1.65 34.97 0.045 6.92 1.95 13.65
1/20/2021 5:00:00 PM 1.61 34.898 0.045 6.9 1.95 13.62
1/20/2021 5:15:00 PM 1.58 34.844 0.045 6.88 1.97 13.58
1/20/2021 5:30:00 PM 1.52 34.736 0.045 6.85 1.94 13.55
1/20/2021 5:45:00 PM 1.47 34.646 0.045 6.84 1.97 13.53
1/20/2021 6:00:00 PM 1.43 34.574 0.045 6.83 1.97 13.51
1/20/2021 6:15:00 PM 1.39 34.502 0.046 6.81 1.97 13.5
1/20/2021 6:30:00 PM 1.34 34.412 0.046 6.81 1.99 13.5
1/20/2021 6:45:00 PM 1.31 34.358 0.046 6.8 2.01 13.49
1/20/2021 7:00:00 PM 1.26 34.268 0.046 6.79 1.99 13.49
1/20/2021 7:15:00 PM 1.21 34.178 0.046 6.79 1.99 13.5
1/20/2021 7:30:00 PM 1.16 34.088 0.046 6.77 2.02 13.51
1/20/2021 7:45:00 PM 1.13 34.034 0.046 6.76 2 13.53
1/20/2021 8:00:00 PM 1.07 33.926 0.046 6.74 2.05 13.54
1/20/2021 8:15:00 PM 1.03 33.854 0.046 6.77 1.97 13.55
1/20/2021 8:30:00 PM 0.99 33.782 0.046 6.75 1.99 13.57
1/20/2021 8:45:00 PM 0.95 33.71 0.046 6.76 2.04 13.59
1/20/2021 9:00:00 PM 0.92 33.656 0.046 6.75 1.99 13.6
1/20/2021 9:15:00 PM 0.87 33.566 0.046 6.74 2.03 13.61
1/20/2021 9:30:00 PM 0.82 33.476 0.046 6.75 2.02 13.62
1/20/2021 9:45:00 PM 0.78 33.404 0.046 6.76 2.03 13.64
1/20/2021 10:00:00 PM 0.75 33.35 0.046 6.75 1.97 13.65
1/20/2021 10:15:00 PM 0.71 33.278 0.046 6.77 2 13.66
1/20/2021 10:30:00 PM 0.66 33.188 0.046 6.74 1.96 13.68
1/20/2021 10:45:00 PM 0.61 33.098 0.046 6.75 2.04 13.69
1/20/2021 11:00:00 PM 0.57 33.026 0.046 6.76 1.98 13.7
1/20/2021 11:15:00 PM 0.54 32.972 0.046 6.77 2 13.71
1/20/2021 11:30:00 PM 0.52 32.936 0.046 6.78 1.97 13.72
1/20/2021 11:45:00 PM 0.5 32.9 0.046 6.79 2 13.73
1/21/2021 12:00:00 AM 0.48 32.864 0.046 6.78 2.02 13.74
1/21/2021 12:15:00 AM 0.46 32.828 0.046 6.79 1.99 13.74
1/21/2021 12:30:00 AM 0.44 32.792 0.046 6.8 1.98 13.75
1/21/2021 12:45:00 AM 0.41 32.738 0.046 6.77 1.99 13.75
1/21/2021 1:00:00 AM 0.36 32.648 0.046 6.78 2 13.77
1/21/2021 1:15:00 AM 0.32 32.576 0.047 6.77 1.99 13.78
1/21/2021 1:30:00 AM 0.28 32.504 0.047 6.77 1.99 13.79
1/21/2021 1:45:00 AM 0.23 32.414 0.047 6.77 2 13.81
1/21/2021 2:00:00 AM 0.18 32.324 0.047 6.76 1.99 13.82
1/21/2021 2:15:00 AM 0.12 32.216 0.047 6.79 2.02 13.85
1/21/2021 2:30:00 AM 0.08 32.144 0.047 6.78 2.04 13.85
1/21/2021 2:45:00 AM 0.04 32.072 0.047 6.78 2 13.86
1/21/2021 3:00:00 AM 0 32 0.047 6.76 2 13.89
1/21/2021 3:15:00 AM -0.03 31.946 0.047 6.78 2 13.9
1/21/2021 3:30:00 AM -0.05 31.91 0.047 6.78 2.01 13.91
1/21/2021 3:45:00 AM -0.08 31.856 0.047 6.78 2.03 13.92
1/21/2021 4:00:00 AM -0.1 31.82 0.047 6.78 1.99 13.93
1/21/2021 4:15:00 AM -0.1 31.82 0.047 6.79 2.03 13.92
1/21/2021 4:30:00 AM -0.09 31.838 0.047 6.8 2.03 13.94
1/21/2021 4:45:00 AM -0.09 31.838 0.047 6.79 2 13.93
1/21/2021 5:00:00 AM -0.08 31.856 0.047 6.78 2.01 13.93
1/21/2021 5:15:00 AM -0.08 31.856 0.047 6.8 2.04 13.93
1/21/2021 5:30:00 AM -0.07 31.874 0.047 6.8 2.02 13.92
1/21/2021 5:45:00 AM -0.07 31.874 0.047 6.81 2.04 13.92
1/21/2021 6:00:00 AM -0.07 31.874 0.047 6.82 2.02 13.92
1/21/2021 6:15:00 AM -0.07 31.874 0.047 6.82 1.99 13.91
1/21/2021 6:30:00 AM -0.07 31.874 0.047 6.81 2.02 13.9
1/21/2021 6:45:00 AM -0.08 31.856 0.047 6.79 2.01 13.91
1/21/2021 7:00:00 AM -0.07 31.874 0.047 6.78 2.06 13.91
1/21/2021 7:15:00 AM -0.07 31.874 0.047 6.82 1.97 13.9
1/21/2021 7:30:00 AM -0.07 31.874 0.047 6.81 1.99 13.89
1/21/2021 7:45:00 AM -0.06 31.892 0.047 6.81 2.01 13.9
1/21/2021 8:00:00 AM -0.06 31.892 0.047 6.82 1.97 13.93
1/21/2021 8:15:00 AM -0.05 31.91 0.047 6.83 1.98 13.95
1/21/2021 8:30:00 AM -0.04 31.928 0.047 6.84 2.01 13.99
1/21/2021 8:45:00 AM -0.02 31.964 0.047 6.85 2.02 14.01
1/21/2021 9:00:00 AM 0.01 32.018 0.047 6.85 2.02 14.06
1/21/2021 9:15:00 AM 0.05 32.09 0.047 6.87 1.96 14.1
1/21/2021 9:30:00 AM 0.12 32.216 0.047 6.88 2.02 14.1
1/21/2021 9:45:00 AM 0.16 32.288 0.047 6.91 2 14.13
1/21/2021 10:00:00 AM 0.22 32.396 0.047 6.92 1.99 14.12
1/21/2021 10:15:00 AM 0.28 32.504 0.046 6.93 1.99 14.13
1/21/2021 10:30:00 AM 0.35 32.63 0.046 6.96 2 14.13
1/21/2021 10:45:00 AM 0.45 32.81 0.046 6.95 1.98 14.09
1/21/2021 11:00:00 AM 0.52 32.936 0.046 6.97 1.98 14.09
1/21/2021 11:15:00 AM 0.61 33.098 0.046 7 1.97 14.06
1/21/2021 11:30:00 AM 0.72 33.296 0.046 6.98 1.96 14.03
1/21/2021 11:45:00 AM 0.87 33.566 0.046 6.98 1.91 13.99
1/21/2021 12:00:00 PM 0.97 33.746 0.046 7.02 2.01 13.96
1/21/2021 12:15:00 PM 1.07 33.926 0.046 6.99 1.96 13.93
1/21/2021 12:30:00 PM 1.17 34.106 0.046 7 1.93 13.89
1/21/2021 12:45:00 PM 1.26 34.268 0.046 7.01 1.94 13.85
1/21/2021 1:00:00 PM 1.35 34.43 0.046 7.01 1.93 13.8
1/21/2021 1:15:00 PM 1.43 34.574 0.046 6.98 1.93 13.76
1/21/2021 1:30:00 PM 1.48 34.664 0.046 7.01 1.93 13.72
1/21/2021 1:45:00 PM 1.53 34.754 0.046 7.01 1.97 13.67
1/21/2021 2:00:00 PM 1.58 34.844 0.046 6.99 1.92 13.65
1/21/2021 2:15:00 PM 1.66 34.988 0.046 7 1.96 13.62
1/21/2021 2:30:00 PM 1.7 35.06 0.046 6.98 1.99 13.58
1/21/2021 2:45:00 PM 1.72 35.096 0.046 6.99 1.94 13.55
1/21/2021 3:00:00 PM 1.74 35.132 0.046 7 1.96 13.53
1/21/2021 3:15:00 PM 1.79 35.222 0.046 6.99 1.94 13.48
1/21/2021 3:30:00 PM 1.85 35.33 0.046 7 1.95 13.45
1/21/2021 3:45:00 PM 1.89 35.402 0.046 6.99 1.94 13.43
1/21/2021 4:00:00 PM 1.9 35.42 0.046 6.97 1.99 13.39
1/21/2021 4:15:00 PM 1.93 35.474 0.046 6.98 1.96 13.37
1/21/2021 4:30:00 PM 1.95 35.51 0.046 6.99 1.97 13.34
1/21/2021 4:45:00 PM 1.96 35.528 0.046 6.95 1.96 13.32
1/21/2021 5:00:00 PM 1.95 35.51 0.046 6.95 2 13.28
1/21/2021 5:15:00 PM 1.92 35.456 0.046 6.92 2.02 13.24
1/21/2021 5:30:00 PM 1.9 35.42 0.046 6.92 1.94 13.21
1/21/2021 5:45:00 PM 1.86 35.348 0.046 6.92 2.02 13.18
1/21/2021 6:00:00 PM 1.83 35.294 0.046 6.89 2.03 13.15
1/21/2021 6:15:00 PM 1.83 35.294 0.046 6.87 2 13.14
1/21/2021 6:30:00 PM 1.81 35.258 0.046 6.87 2.02 13.13
1/21/2021 6:45:00 PM 1.8 35.24 0.046 6.86 2.01 13.11
1/21/2021 7:00:00 PM 1.78 35.204 0.046 6.86 2.02 13.11
1/21/2021 7:15:00 PM 1.77 35.186 0.046 6.84 2.04 13.1
1/21/2021 7:30:00 PM 1.76 35.168 0.046 6.84 2.04 13.1
1/21/2021 7:45:00 PM 1.76 35.168 0.046 6.83 2.03 13.1
1/21/2021 8:00:00 PM 1.75 35.15 0.046 6.85 1.99 13.1
1/21/2021 8:15:00 PM 1.74 35.132 0.046 6.84 2 13.1
1/21/2021 8:30:00 PM 1.74 35.132 0.046 6.82 2.03 13.1
1/21/2021 8:45:00 PM 1.75 35.15 0.046 6.83 1.99 13.09
1/21/2021 9:00:00 PM 1.76 35.168 0.046 6.82 2.03 13.1
1/21/2021 9:15:00 PM 1.77 35.186 0.046 6.81 2.01 13.09
1/21/2021 9:30:00 PM 1.78 35.204 0.046 6.82 1.99 13.09
1/21/2021 9:45:00 PM 1.79 35.222 0.046 6.83 2 13.08
1/21/2021 10:00:00 PM 1.8 35.24 0.046 6.84 2 13.07
1/21/2021 10:15:00 PM 1.8 35.24 0.046 6.81 1.98 13.08
1/21/2021 10:30:00 PM 1.8 35.24 0.046 6.82 2.01 13.08
1/21/2021 10:45:00 PM 1.78 35.204 0.046 6.83 1.99 13.07
1/21/2021 11:00:00 PM 1.78 35.204 0.046 6.82 1.94 13.08
1/21/2021 11:15:00 PM 1.78 35.204 0.046 6.83 1.98 13.07
1/21/2021 11:30:00 PM 1.78 35.204 0.046 6.82 2 13.08
1/21/2021 11:45:00 PM 1.77 35.186 0.046 6.82 2 13.08
1/22/2021 12:00:00 AM 1.77 35.186 0.046 6.82 2.01 13.08
1/22/2021 12:15:00 AM 1.77 35.186 0.046 6.82 1.96 13.07
1/22/2021 12:30:00 AM 1.78 35.204 0.046 6.83 1.99 13.07
1/22/2021 12:45:00 AM 1.78 35.204 0.046 6.83 2.02 13.08
1/22/2021 1:00:00 AM 1.78 35.204 0.046 6.81 2.03 13.08
1/22/2021 1:15:00 AM 1.74 35.132 0.046 6.82 2.03 13.07
1/22/2021 1:30:00 AM 1.69 35.042 0.047 6.81 2.02 13.08
1/22/2021 1:45:00 AM 1.73 35.114 0.047 6.81 1.99 13.08
1/22/2021 2:00:00 AM 1.73 35.114 0.047 6.8 1.97 13.08
1/22/2021 2:15:00 AM 1.74 35.132 0.047 6.82 2.03 13.09
1/22/2021 2:30:00 AM 1.75 35.15 0.047 6.82 2.01 13.09
1/22/2021 2:45:00 AM 1.74 35.132 0.047 6.81 1.99 13.09
1/22/2021 3:00:00 AM 1.75 35.15 0.047 6.82 1.97 13.1
1/22/2021 3:15:00 AM 1.74 35.132 0.047 6.83 2.04 13.1
1/22/2021 3:30:00 AM 1.74 35.132 0.047 6.82 1.99 13.09
1/22/2021 3:45:00 AM 1.74 35.132 0.047 6.82 1.98 13.1
1/22/2021 4:00:00 AM 1.72 35.096 0.047 6.83 2.01 13.11
1/22/2021 4:15:00 AM 1.72 35.096 0.047 6.81 1.98 13.11
1/22/2021 4:30:00 AM 1.72 35.096 0.047 6.82 2.02 13.11
1/22/2021 4:45:00 AM 1.71 35.078 0.047 6.82 1.97 13.11
1/22/2021 5:00:00 AM 1.69 35.042 0.047 6.8 2 13.12
1/22/2021 5:15:00 AM 1.68 35.024 0.047 6.81 1.99 13.12
1/22/2021 5:30:00 AM 1.68 35.024 0.047 6.81 2 13.12
1/22/2021 5:45:00 AM 1.68 35.024 0.047 6.81 1.96 13.13
1/22/2021 6:00:00 AM 1.68 35.024 0.047 6.81 1.96 13.13
1/22/2021 6:15:00 AM 1.67 35.006 0.047 6.81 1.99 13.13
1/22/2021 6:30:00 AM 1.67 35.006 0.047 6.81 2 13.13
1/22/2021 6:45:00 AM 1.67 35.006 0.047 6.82 1.98 13.14
1/22/2021 7:00:00 AM 1.65 34.97 0.047 6.8 1.99 13.15
1/22/2021 7:15:00 AM 1.64 34.952 0.047 6.81 2.01 13.14
1/22/2021 7:30:00 AM 1.64 34.952 0.047 6.81 2.01 13.17
1/22/2021 7:45:00 AM 1.64 34.952 0.047 6.81 1.96 13.17
1/22/2021 8:00:00 AM 1.64 34.952 0.047 6.83 1.96 13.2
1/22/2021 8:15:00 AM 1.64 34.952 0.047 6.83 1.95 13.24
1/22/2021 8:30:00 AM 1.66 34.988 0.047 6.84 2.01 13.29
1/22/2021 8:45:00 AM 1.67 35.006 0.047 6.86 1.92 13.34
1/22/2021 9:00:00 AM 1.69 35.042 0.046 6.86 1.95 13.39
1/22/2021 9:15:00 AM 1.71 35.078 0.046 6.88 1.93 13.42
1/22/2021 9:30:00 AM 1.73 35.114 0.046 6.88 2.02 13.45
1/22/2021 9:45:00 AM 1.77 35.186 0.046 6.92 1.96 13.5
1/22/2021 10:00:00 AM 1.8 35.24 0.046 6.94 1.98 13.51
1/22/2021 10:15:00 AM 1.86 35.348 0.046 6.94 1.98 13.52
1/22/2021 10:30:00 AM 1.95 35.51 0.046 6.94 1.98 13.53
1/22/2021 10:45:00 AM 1.99 35.582 0.046 6.96 1.97 13.53
1/22/2021 11:00:00 AM 2.05 35.69 0.046 6.98 1.93 13.53
1/22/2021 11:15:00 AM 2.13 35.834 0.046 6.97 1.97 13.52
1/22/2021 11:30:00 AM 2.17 35.906 0.046 6.99 1.97 13.5
1/22/2021 11:45:00 AM 2.21 35.978 0.046 6.99 1.96 13.49
1/22/2021 12:00:00 PM 2.26 36.068 0.046 7 1.98 13.47
1/22/2021 12:15:00 PM 2.26 36.068 0.046 7.01 2 13.43
1/22/2021 12:30:00 PM 2.19 35.942 0.046 6.97 1.97 13.4
1/22/2021 12:45:00 PM 2.2 35.96 0.046 6.99 1.97 13.42
1/22/2021 1:00:00 PM 2.28 36.104 0.046 6.99 1.93 13.41
1/22/2021 1:15:00 PM 2.31 36.158 0.046 7.02 1.97 13.42
1/22/2021 1:30:00 PM 2.34 36.212 0.046 7 1.95 13.41
1/22/2021 1:45:00 PM 2.34 36.212 0.046 7.02 1.98 13.41
1/22/2021 2:00:00 PM 2.34 36.212 0.046 7 1.95 13.38
1/22/2021 2:15:00 PM 2.34 36.212 0.046 7 1.96 13.4
1/22/2021 2:30:00 PM 2.31 36.158 0.046 6.98 1.99 13.39
1/22/2021 2:45:00 PM 2.32 36.176 0.046 7.01 2 13.4
1/22/2021 3:00:00 PM 2.31 36.158 0.045 7.01 1.96 13.4
1/22/2021 3:15:00 PM 2.3 36.14 0.045 6.99 1.96 13.39
1/22/2021 3:30:00 PM 2.28 36.104 0.045 6.97 1.95 13.39
1/22/2021 3:45:00 PM 2.28 36.104 0.045 6.97 1.98 13.39
1/22/2021 4:00:00 PM 2.24 36.032 0.045 6.95 2.01 13.37
1/22/2021 4:15:00 PM 2.21 35.978 0.046 6.95 1.96 13.35
1/22/2021 4:30:00 PM 2.19 35.942 0.045 6.95 1.99 13.36
1/22/2021 4:45:00 PM 2.16 35.888 0.046 6.9 1.94 13.34
1/22/2021 5:00:00 PM 2.12 35.816 0.046 6.89 1.97 13.31
1/22/2021 5:15:00 PM 2.07 35.726 0.046 6.88 2.02 13.28
1/22/2021 5:30:00 PM 2.02 35.636 0.046 6.85 2 13.26
1/22/2021 5:45:00 PM 2 35.6 0.046 6.84 2.04 13.24
1/22/2021 6:00:00 PM 1.97 35.546 0.046 6.82 1.97 13.22
1/22/2021 6:15:00 PM 1.93 35.474 0.046 6.83 1.97 13.21
1/22/2021 6:30:00 PM 1.9 35.42 0.046 6.81 2.02 13.2
1/22/2021 6:45:00 PM 1.86 35.348 0.046 6.8 2.03 13.2
1/22/2021 7:00:00 PM 1.81 35.258 0.046 6.8 2.02 13.21
1/22/2021 7:15:00 PM 1.77 35.186 0.046 6.8 2 13.21
1/22/2021 7:30:00 PM 1.74 35.132 0.046 6.77 2.04 13.22
1/22/2021 7:45:00 PM 1.7 35.06 0.046 6.77 2.02 13.23
1/22/2021 8:00:00 PM 1.65 34.97 0.046 6.79 2.02 13.25
1/22/2021 8:15:00 PM 1.6 34.88 0.046 6.76 2 13.26
1/22/2021 8:30:00 PM 1.55 34.79 0.046 6.77 1.98 13.28
1/22/2021 8:45:00 PM 1.53 34.754 0.046 6.76 2.02 13.3
1/22/2021 9:00:00 PM 1.49 34.682 0.046 6.76 1.98 13.31
1/22/2021 9:15:00 PM 1.45 34.61 0.046 6.75 1.99 13.32
1/22/2021 9:30:00 PM 1.41 34.538 0.046 6.77 1.98 13.34
1/22/2021 9:45:00 PM 1.36 34.448 0.046 6.77 1.96 13.37
1/22/2021 10:00:00 PM 1.33 34.394 0.046 6.76 1.98 13.38
1/22/2021 10:15:00 PM 1.29 34.322 0.046 6.77 2 13.4
1/22/2021 10:30:00 PM 1.25 34.25 0.046 6.76 2 13.42
1/22/2021 10:45:00 PM 1.21 34.178 0.046 6.75 1.98 13.43
1/22/2021 11:00:00 PM 1.18 34.124 0.046 6.75 2.04 13.45
1/22/2021 11:15:00 PM 1.15 34.07 0.046 6.79 2.01 13.47
1/22/2021 11:30:00 PM 1.11 33.998 0.046 6.76 2 13.48
1/22/2021 11:45:00 PM 1.08 33.944 0.046 6.77 2.01 13.49
1/23/2021 12:00:00 AM 1.05 33.89 0.046 6.79 1.99 13.51
1/23/2021 12:15:00 AM 1 33.8 0.046 6.77 1.99 13.52
1/23/2021 12:30:00 AM 0.98 33.764 0.047 6.78 2.01 13.55
1/23/2021 12:45:00 AM 0.94 33.692 0.047 6.78 1.96 13.55
1/23/2021 1:00:00 AM 0.89 33.602 0.047 6.75 1.98 13.56
1/23/2021 1:15:00 AM 0.87 33.566 0.047 6.76 2.01 13.57
1/23/2021 1:30:00 AM 0.84 33.512 0.047 6.76 1.97 13.59
1/23/2021 1:45:00 AM 0.79 33.422 0.047 6.73 2 13.6
1/23/2021 2:00:00 AM 0.75 33.35 0.047 6.77 1.98 13.62
1/23/2021 2:15:00 AM 0.73 33.314 0.047 6.76 2.02 13.63
1/23/2021 2:30:00 AM 0.7 33.26 0.047 6.73 2 13.65
1/23/2021 2:45:00 AM 0.66 33.188 0.047 6.76 1.99 13.66
1/23/2021 3:00:00 AM 0.63 33.134 0.047 6.78 1.97 13.68
1/23/2021 3:15:00 AM 0.6 33.08 0.047 6.77 1.99 13.7
1/23/2021 3:30:00 AM 0.55 32.99 0.047 6.78 1.99 13.7
1/23/2021 3:45:00 AM 0.5 32.9 0.047 6.76 1.96 13.73
1/23/2021 4:00:00 AM 0.48 32.864 0.047 6.75 2.05 13.75
1/23/2021 4:15:00 AM 0.46 32.828 0.047 6.76 2.02 13.76
1/23/2021 4:30:00 AM 0.43 32.774 0.047 6.77 1.98 13.77
1/23/2021 4:45:00 AM 0.4 32.72 0.047 6.77 2 13.79
1/23/2021 5:00:00 AM 0.36 32.648 0.047 6.75 1.97 13.8
1/23/2021 5:15:00 AM 0.34 32.612 0.047 6.75 2.01 13.82
1/23/2021 5:30:00 AM 0.32 32.576 0.047 6.77 2.06 13.83
1/23/2021 5:45:00 AM 0.31 32.558 0.047 6.76 2.01 13.84
1/23/2021 6:00:00 AM 0.28 32.504 0.047 6.78 2 13.86
1/23/2021 6:15:00 AM 0.27 32.486 0.047 6.75 2.05 13.86
1/23/2021 6:30:00 AM 0.24 32.432 0.047 6.77 1.98 13.89
1/23/2021 6:45:00 AM 0.21 32.378 0.047 6.77 2.04 13.89
1/23/2021 7:00:00 AM 0.19 32.342 0.047 6.76 2 13.91
1/23/2021 7:15:00 AM 0.16 32.288 0.047 6.76 2.01 13.93
1/23/2021 7:30:00 AM 0.14 32.252 0.047 6.75 1.95 13.93
1/23/2021 7:45:00 AM 0.11 32.198 0.047 6.77 1.99 13.97
1/23/2021 8:00:00 AM 0.11 32.198 0.047 6.76 2.02 13.98
1/23/2021 8:15:00 AM 0.09 32.162 0.047 6.79 2.08 14.02
1/23/2021 8:30:00 AM 0.08 32.144 0.047 6.78 1.95 14.07
1/23/2021 8:45:00 AM 0.06 32.108 0.047 6.8 2.03 14.13
1/23/2021 9:00:00 AM 0.05 32.09 0.047 6.82 2.04 14.19
1/23/2021 9:15:00 AM 0.04 32.072 0.047 6.83 2.06 14.25
1/23/2021 9:30:00 AM 0.04 32.072 0.047 6.83 2.03 14.29
1/23/2021 9:45:00 AM 0.04 32.072 0.047 6.86 2 14.36
1/23/2021 10:00:00 AM 0.04 32.072 0.047 6.87 2.03 14.38
1/23/2021 10:15:00 AM 0.06 32.108 0.047 6.88 2.01 14.39
1/23/2021 10:30:00 AM 0.09 32.162 0.047 6.89 2.02 14.43
1/23/2021 10:45:00 AM 0.12 32.216 0.047 6.91 1.99 14.44
1/23/2021 11:00:00 AM 0.15 32.27 0.047 6.9 2.03 14.43
1/23/2021 11:15:00 AM 0.16 32.288 0.047 6.92 2.03 14.44
1/23/2021 11:30:00 AM 0.2 32.36 0.046 6.95 1.97 14.44
1/23/2021 11:45:00 AM 0.25 32.45 0.046 6.96 1.94 14.43
1/23/2021 12:00:00 PM 0.31 32.558 0.046 6.95 2.01 14.4
1/23/2021 12:15:00 PM 0.35 32.63 0.046 6.95 1.98 14.39
1/23/2021 12:30:00 PM 0.41 32.738 0.046 6.96 2.02 14.37
1/23/2021 12:45:00 PM 0.45 32.81 0.046 6.98 1.98 14.36
1/23/2021 1:00:00 PM 0.5 32.9 0.046 6.97 1.97 14.33
1/23/2021 1:15:00 PM 0.56 33.008 0.046 6.98 2 14.32
1/23/2021 1:30:00 PM 0.62 33.116 0.046 6.99 1.95 14.3
1/23/2021 1:45:00 PM 0.65 33.17 0.046 6.99 1.97 14.28
1/23/2021 2:00:00 PM 0.7 33.26 0.046 6.99 1.94 14.26
1/23/2021 2:15:00 PM 0.78 33.404 0.046 6.99 2 14.23
1/23/2021 2:30:00 PM 0.8 33.44 0.046 6.99 2.01 14.21
1/23/2021 2:45:00 PM 0.77 33.386 0.046 6.99 1.99 14.21
1/23/2021 3:00:00 PM 0.77 33.386 0.046 6.98 2 14.19
1/23/2021 3:15:00 PM 0.74 33.332 0.046 6.96 1.98 14.18
1/23/2021 3:30:00 PM 0.72 33.296 0.046 6.95 2.01 14.19
1/23/2021 3:45:00 PM 0.7 33.26 0.046 6.95 2 14.2
1/23/2021 4:00:00 PM 0.66 33.188 0.046 6.93 1.97 14.21
1/23/2021 4:15:00 PM 0.62 33.116 0.046 6.91 2.03 14.2
1/23/2021 4:30:00 PM 0.56 33.008 0.046 6.89 2.01 14.2
1/23/2021 4:45:00 PM 0.49 32.882 0.046 6.9 1.98 14.19
1/23/2021 5:00:00 PM 0.44 32.792 0.046 6.88 1.94 14.15
1/23/2021 5:15:00 PM 0.42 32.756 0.046 6.86 2.01 14.13
1/23/2021 5:30:00 PM 0.39 32.702 0.046 6.84 1.99 14.1
1/23/2021 5:45:00 PM 0.36 32.648 0.046 6.82 1.98 14.07
1/23/2021 6:00:00 PM 0.33 32.594 0.046 6.82 2.01 14.05
1/23/2021 6:15:00 PM 0.29 32.522 0.046 6.81 1.96 14.03
1/23/2021 6:30:00 PM 0.24 32.432 0.046 6.79 2.03 14.02
1/23/2021 6:45:00 PM 0.23 32.414 0.046 6.79 1.98 14.02
1/23/2021 7:00:00 PM 0.2 32.36 0.046 6.78 2.02 14.02
1/23/2021 7:15:00 PM 0.17 32.306 0.047 6.78 2.03 14.02
1/23/2021 7:30:00 PM 0.15 32.27 0.047 6.78 2.05 14.03
1/23/2021 7:45:00 PM 0.13 32.234 0.047 6.79 2.02 14.02
1/23/2021 8:00:00 PM 0.12 32.216 0.047 6.78 2 14.04
1/23/2021 8:15:00 PM 0.1 32.18 0.047 6.77 2.01 14.03
1/23/2021 8:30:00 PM 0.08 32.144 0.047 6.79 1.99 14.04
1/23/2021 8:45:00 PM 0.05 32.09 0.047 6.78 1.99 14.05
1/23/2021 9:00:00 PM 0.02 32.036 0.047 6.79 1.95 14.06
1/23/2021 9:15:00 PM 0.01 32.018 0.047 6.77 2.01 14.07
1/23/2021 9:30:00 PM -0.03 31.946 0.047 6.78 1.98 14.08
1/23/2021 9:45:00 PM -0.02 31.964 0.047 6.76 2 14.07
1/23/2021 10:00:00 PM -0.03 31.946 0.047 6.78 1.99 14.08
1/23/2021 10:15:00 PM -0.04 31.928 0.047 6.79 2 14.09
1/23/2021 10:30:00 PM -0.05 31.91 0.047 6.79 2 14.1
1/23/2021 10:45:00 PM -0.08 31.856 0.047 6.77 1.99 14.09
1/23/2021 11:00:00 PM -0.09 31.838 0.047 6.77 2.02 14.11
1/23/2021 11:15:00 PM -0.09 31.838 0.047 6.78 2.22 14.11
1/23/2021 11:30:00 PM -0.09 31.838 0.047 6.76 2.06 14.12
1/23/2021 11:45:00 PM -0.09 31.838 0.047 6.78 2.15 14.14
1/24/2021 12:00:00 AM -0.09 31.838 0.047 6.78 2.05 14.13
1/24/2021 12:15:00 AM -0.08 31.856 0.047 6.78 1.95 14.15
1/24/2021 12:30:00 AM -0.08 31.856 0.047 6.8 2.02 14.15
1/24/2021 12:45:00 AM -0.09 31.838 0.047 6.79 2 14.16
1/24/2021 1:00:00 AM -0.09 31.838 0.047 6.79 2.07 14.16
1/24/2021 1:15:00 AM -0.09 31.838 0.047 6.8 2.01 14.17
1/24/2021 1:30:00 AM -0.09 31.838 0.047 6.79 2.08 14.16
1/24/2021 1:45:00 AM -0.09 31.838 0.047 6.78 1.88 14.16
1/24/2021 2:00:00 AM -0.09 31.838 0.048 6.78 1.77 14.17
1/24/2021 2:15:00 AM -0.09 31.838 0.048 6.79 1.82 14.16
1/24/2021 2:30:00 AM -0.09 31.838 0.048 6.81 3.1 14.18
1/24/2021 2:45:00 AM -0.09 31.838 0.047 6.8 2.8 14.18
1/24/2021 3:00:00 AM -0.08 31.856 0.047 6.84 1.85 14.17
1/24/2021 3:15:00 AM -0.08 31.856 0.048 6.89 1.88 14.17
1/24/2021 3:30:00 AM -0.08 31.856 0.048 6.9 1.99 14.17
1/24/2021 3:45:00 AM -0.08 31.856 0.048 6.9 1.92 14.16
1/24/2021 4:00:00 AM -0.08 31.856 0.048 6.9 1.92 14.18
1/24/2021 4:15:00 AM -0.08 31.856 0.048 6.9 1.94 14.19
1/24/2021 4:30:00 AM -0.08 31.856 0.048 6.9 2 14.18
1/24/2021 4:45:00 AM -0.08 31.856 0.048 6.9 1.87 14.18
1/24/2021 5:00:00 AM -0.08 31.856 0.048 6.9 1.93 14.19
1/24/2021 5:15:00 AM -0.08 31.856 0.048 6.89 1.88 14.16
1/24/2021 5:30:00 AM -0.08 31.856 0.048 6.9 1.88 14.17
1/24/2021 5:45:00 AM -0.08 31.856 0.048 6.89 1.94 14.18
1/24/2021 6:00:00 AM -0.08 31.856 0.048 6.9 1.92 14.16
1/24/2021 6:15:00 AM -0.08 31.856 0.048 6.9 1.91 14.17
1/24/2021 6:30:00 AM -0.08 31.856 0.048 6.9 1.91 14.16
1/24/2021 6:45:00 AM -0.08 31.856 0.048 6.89 1.87 14.16
1/24/2021 7:00:00 AM -0.08 31.856 0.048 6.89 1.88 14.15
1/24/2021 7:15:00 AM -0.08 31.856 0.048 6.89 1.92 14.16
1/24/2021 7:30:00 AM -0.08 31.856 0.048 6.9 1.93 14.16
1/24/2021 7:45:00 AM -0.08 31.856 0.048 6.89 1.91 14.17
1/24/2021 8:00:00 AM -0.08 31.856 0.048 6.9 1.91 14.21
1/24/2021 8:15:00 AM -0.08 31.856 0.048 6.91 1.92 14.26
1/24/2021 8:30:00 AM -0.08 31.856 0.048 6.92 1.86 14.3
1/24/2021 8:45:00 AM -0.08 31.856 0.048 6.93 1.85 14.33
1/24/2021 9:00:00 AM -0.08 31.856 0.048 6.94 1.97 14.36
1/24/2021 9:15:00 AM -0.08 31.856 0.048 6.94 2.3 14.39
1/24/2021 9:30:00 AM -0.08 31.856 0.048 6.94 1.95 14.4
1/24/2021 9:45:00 AM -0.08 31.856 0.048 6.93 1.93 14.43
1/24/2021 10:00:00 AM -0.07 31.874 0.048 6.86 1.91 14.45
1/24/2021 10:15:00 AM -0.06 31.892 0.048 6.87 1.9 14.45
1/24/2021 10:30:00 AM -0.06 31.892 0.048 6.91 1.86 14.46
1/24/2021 10:45:00 AM -0.05 31.91 0.048 6.92 1.93 14.46
1/24/2021 11:00:00 AM -0.05 31.91 0.048 6.91 1.93 14.47
1/24/2021 11:15:00 AM -0.05 31.91 0.048 6.86 1.93 14.47
1/24/2021 11:30:00 AM -0.04 31.928 0.048 6.87 2.11 14.46
1/24/2021 11:45:00 AM -0.04 31.928 0.047 6.9 1.97 14.46
1/24/2021 12:00:00 PM -0.03 31.946 0.047 6.89 2 14.45
1/24/2021 12:15:00 PM -0.04 31.928 0.047 6.89 2.25 14.45
1/24/2021 12:30:00 PM -0.03 31.946 0.047 6.9 2.11 14.46
1/24/2021 12:45:00 PM -0.04 31.928 0.047 6.88 2.12 14.45
1/24/2021 1:00:00 PM -0.04 31.928 0.047 6.92 2.18 14.44
1/24/2021 1:15:00 PM -0.04 31.928 0.047 6.93 2.13 14.44
1/24/2021 1:30:00 PM -0.03 31.946 0.047 6.91 2.15 14.42
1/24/2021 1:45:00 PM -0.02 31.964 0.047 6.94 2.28 14.41
1/24/2021 2:00:00 PM -0.01 31.982 0.047 6.95 2.14 14.39
1/24/2021 2:15:00 PM -0.02 31.964 0.047 6.95 2.15 14.41
1/24/2021 2:30:00 PM -0.03 31.946 0.047 6.94 2.12 14.39
1/24/2021 2:45:00 PM -0.03 31.946 0.046 6.94 2.17 14.38
1/24/2021 3:00:00 PM -0.02 31.964 0.046 6.93 2.17 14.33
1/24/2021 3:15:00 PM -0.02 31.964 0.046 6.91 2.22 14.31
1/24/2021 3:30:00 PM 0.05 32.09 0.046 6.93 2.14 14.29
1/24/2021 3:45:00 PM 0.13 32.234 0.046 6.95 2.22 14.26
1/24/2021 4:00:00 PM 0.2 32.36 0.046 6.96 2.14 14.24
1/24/2021 4:15:00 PM 0.29 32.522 0.046 6.99 2.07 14.21
1/24/2021 4:30:00 PM 0.36 32.648 0.046 6.98 2.13 14.18
1/24/2021 4:45:00 PM 0.42 32.756 0.046 6.96 2.08 14.13
1/24/2021 5:00:00 PM 0.45 32.81 0.046 6.95 2.08 14.09
1/24/2021 5:15:00 PM 0.47 32.846 0.046 6.93 2.08 14.05
1/24/2021 5:30:00 PM 0.47 32.846 0.046 6.92 2.08 14
1/24/2021 5:45:00 PM 0.47 32.846 0.047 6.9 2.15 13.97
1/24/2021 6:00:00 PM 0.46 32.828 0.047 6.88 2.06 13.94
1/24/2021 6:15:00 PM 0.45 32.81 0.047 6.87 2.04 13.92
1/24/2021 6:30:00 PM 0.44 32.792 0.047 6.86 2.04 13.9
1/24/2021 6:45:00 PM 0.44 32.792 0.047 6.85 2.03 13.89
1/24/2021 7:00:00 PM 0.43 32.774 0.047 6.83 2.09 13.88
1/24/2021 7:15:00 PM 0.42 32.756 0.047 6.83 2.09 13.87
1/24/2021 7:30:00 PM 0.4 32.72 0.047 6.84 2.05 13.87
1/24/2021 7:45:00 PM 0.39 32.702 0.047 6.82 2.09 13.87
1/24/2021 8:00:00 PM 0.38 32.684 0.047 6.79 2.04 13.87
1/24/2021 8:15:00 PM 0.37 32.666 0.047 6.81 1.99 13.87
1/24/2021 8:30:00 PM 0.36 32.648 0.047 6.82 2.07 13.88
1/24/2021 8:45:00 PM 0.35 32.63 0.047 6.83 2.02 13.88
1/24/2021 9:00:00 PM 0.35 32.63 0.047 6.82 2.07 13.87
1/24/2021 9:15:00 PM 0.34 32.612 0.047 6.82 2.05 13.87
1/24/2021 9:30:00 PM 0.33 32.594 0.047 6.8 2.07 13.88
1/24/2021 9:45:00 PM 0.32 32.576 0.047 6.82 2.05 13.88
1/24/2021 10:00:00 PM 0.32 32.576 0.047 6.81 2.02 13.89
1/24/2021 10:15:00 PM 0.32 32.576 0.047 6.81 2.06 13.88
1/24/2021 10:30:00 PM 0.32 32.576 0.047 6.81 2.03 13.88
1/24/2021 10:45:00 PM 0.31 32.558 0.047 6.81 2.01 13.89
1/24/2021 11:00:00 PM 0.31 32.558 0.047 6.8 2.04 13.89
1/24/2021 11:15:00 PM 0.31 32.558 0.047 6.81 2.02 13.89
1/24/2021 11:30:00 PM 0.3 32.54 0.047 6.81 2.09 13.89
1/24/2021 11:45:00 PM 0.3 32.54 0.047 6.81 2.03 13.9
1/25/2021 12:00:00 AM 0.28 32.504 0.047 6.82 1.98 13.89
1/25/2021 12:15:00 AM 0.25 32.45 0.047 6.8 2 13.9
1/25/2021 12:30:00 AM 0.22 32.396 0.047 6.81 1.99 13.91
1/25/2021 12:45:00 AM 0.19 32.342 0.047 6.79 2.01 13.91
1/25/2021 1:00:00 AM 0.15 32.27 0.047 6.8 1.99 13.92
1/25/2021 1:15:00 AM 0.12 32.216 0.047 6.79 2.02 13.92
1/25/2021 1:30:00 AM 0.09 32.162 0.047 6.77 2.05 13.93
1/25/2021 1:45:00 AM 0.05 32.09 0.047 6.77 2.03 13.94
1/25/2021 2:00:00 AM 0 32 0.047 6.78 2.04 13.96
1/25/2021 2:15:00 AM -0.04 31.928 0.047 6.77 2.05 13.98
1/25/2021 2:30:00 AM -0.07 31.874 0.047 6.79 1.98 13.99
1/25/2021 2:45:00 AM -0.09 31.838 0.047 6.78 2.08 14.01
1/25/2021 3:00:00 AM -0.11 31.802 0.047 6.79 2.08 14.02
1/25/2021 3:15:00 AM -0.11 31.802 0.048 6.78 2.1 14.04
1/25/2021 3:30:00 AM -0.09 31.838 0.048 6.78 2.2 14.03
1/25/2021 3:45:00 AM -0.09 31.838 0.048 6.85 2.16 14.05
1/25/2021 4:00:00 AM -0.09 31.838 0.048 6.89 2.05 14.06
1/25/2021 4:15:00 AM -0.09 31.838 0.048 6.89 2.1 14.06
1/25/2021 4:30:00 AM -0.09 31.838 0.048 6.89 2.07 14.07
1/25/2021 4:45:00 AM -0.09 31.838 0.048 6.88 1.95 14.07
1/25/2021 5:00:00 AM -0.09 31.838 0.048 6.9 1.95 14.09
1/25/2021 5:15:00 AM -0.09 31.838 0.048 6.9 2.11 14.11
1/25/2021 5:30:00 AM -0.08 31.856 0.048 6.9 1.98 14.12
1/25/2021 5:45:00 AM -0.09 31.838 0.048 6.9 2.01 14.12
1/25/2021 6:00:00 AM -0.09 31.838 0.048 6.9 2.03 14.13
1/25/2021 6:15:00 AM -0.09 31.838 0.048 6.9 2.06 14.14
1/25/2021 6:30:00 AM -0.08 31.856 0.049 6.91 2.02 14.14
1/25/2021 6:45:00 AM -0.08 31.856 0.049 6.9 2.04 14.12
1/25/2021 7:00:00 AM -0.08 31.856 0.049 6.91 2.02 14.13
1/25/2021 7:15:00 AM -0.08 31.856 0.049 6.91 2.06 14.13
1/25/2021 7:30:00 AM -0.08 31.856 0.049 6.91 2.08 14.13
1/25/2021 7:45:00 AM -0.08 31.856 0.049 6.92 2.01 14.15
1/25/2021 8:00:00 AM -0.08 31.856 0.049 6.91 2.06 14.15
1/25/2021 8:15:00 AM -0.08 31.856 0.049 6.92 2.06 14.19
1/25/2021 8:30:00 AM -0.08 31.856 0.049 6.93 2.07 14.22
1/25/2021 8:45:00 AM -0.08 31.856 0.049 6.94 2.07 14.26
1/25/2021 9:00:00 AM -0.08 31.856 0.049 6.95 2.08 14.29
1/25/2021 9:15:00 AM -0.08 31.856 0.049 6.95 2.14 14.31
1/25/2021 9:30:00 AM -0.08 31.856 0.049 6.96 2.15 14.36
1/25/2021 9:45:00 AM -0.08 31.856 0.049 6.97 2.12 14.38
1/25/2021 10:00:00 AM -0.08 31.856 0.049 6.98 2.13 14.39
1/25/2021 10:15:00 AM -0.08 31.856 0.049 6.98 2.09 14.39
1/25/2021 10:30:00 AM -0.08 31.856 0.049 6.96 2.11 14.41
1/25/2021 10:45:00 AM -0.08 31.856 0.048 6.97 2.08 14.41
1/25/2021 11:00:00 AM -0.07 31.874 0.048 6.98 2.08 14.43
1/25/2021 11:15:00 AM -0.07 31.874 0.048 6.98 1.88 14.43
1/25/2021 11:30:00 AM -0.05 31.91 0.048 6.98 2.02 14.42
1/25/2021 11:45:00 AM -0.04 31.928 0.048 6.93 1.86 14.43
1/25/2021 12:00:00 PM -0.04 31.928 0.048 6.92 2.05 14.41
1/25/2021 12:15:00 PM -0.03 31.946 0.048 6.9 2.07 14.4
1/25/2021 12:30:00 PM -0.05 31.91 0.048 6.88 2.08 14.42
1/25/2021 12:45:00 PM -0.04 31.928 0.048 6.89 2.12 14.4
1/25/2021 1:00:00 PM -0.04 31.928 0.047 6.91 2.06 14.39
1/25/2021 1:15:00 PM -0.05 31.91 0.047 6.9 2.14 14.38
1/25/2021 1:30:00 PM -0.03 31.946 0.047 6.91 2.2 14.36
1/25/2021 1:45:00 PM -0.02 31.964 0.047 6.93 2.16 14.33
1/25/2021 2:00:00 PM 0 32 0.047 6.95 2.13 14.32
1/25/2021 2:15:00 PM 0 32 0.047 6.95 2.22 14.31
1/25/2021 2:30:00 PM 0.05 32.09 0.047 6.94 2.11 14.27
1/25/2021 2:45:00 PM 0.12 32.216 0.046 6.93 2.12 14.25
1/25/2021 3:00:00 PM 0.21 32.378 0.046 6.98 2.11 14.22
1/25/2021 3:15:00 PM 0.3 32.54 0.046 6.96 2.12 14.2
1/25/2021 3:30:00 PM 0.41 32.738 0.046 6.99 2.09 14.17
1/25/2021 3:45:00 PM 0.51 32.918 0.046 6.99 2.12 14.14
1/25/2021 4:00:00 PM 0.59 33.062 0.046 6.99 2.11 14.11
1/25/2021 4:15:00 PM 0.66 33.188 0.046 6.97 2.06 14.08
1/25/2021 4:30:00 PM 0.7 33.26 0.046 6.98 2.05 14.04
1/25/2021 4:45:00 PM 0.73 33.314 0.046 6.97 2.04 14
1/25/2021 5:00:00 PM 0.74 33.332 0.046 6.94 2.05 13.95
1/25/2021 5:15:00 PM 0.74 33.332 0.046 6.94 2.09 13.91
1/25/2021 5:30:00 PM 0.73 33.314 0.046 6.9 2.11 13.87
1/25/2021 5:45:00 PM 0.72 33.296 0.046 6.9 2.05 13.84
1/25/2021 6:00:00 PM 0.71 33.278 0.046 6.88 2.09 13.81
1/25/2021 6:15:00 PM 0.7 33.26 0.046 6.87 2.04 13.79
1/25/2021 6:30:00 PM 0.69 33.242 0.046 6.87 2.08 13.77
1/25/2021 6:45:00 PM 0.68 33.224 0.047 6.86 2.07 13.76
1/25/2021 7:00:00 PM 0.67 33.206 0.047 6.83 2.07 13.75
1/25/2021 7:15:00 PM 0.66 33.188 0.047 6.84 2.08 13.75
1/25/2021 7:30:00 PM 0.65 33.17 0.047 6.83 2.02 13.74
1/25/2021 7:45:00 PM 0.65 33.17 0.047 6.83 2.03 13.74
1/25/2021 8:00:00 PM 0.64 33.152 0.047 6.81 2.04 13.73
1/25/2021 8:15:00 PM 0.65 33.17 0.047 6.82 2.04 13.73
1/25/2021 8:30:00 PM 0.65 33.17 0.047 6.82 2.03 13.73
1/25/2021 8:45:00 PM 0.66 33.188 0.047 6.81 2.01 13.72
1/25/2021 9:00:00 PM 0.66 33.188 0.047 6.82 1.99 13.72
1/25/2021 9:15:00 PM 0.67 33.206 0.047 6.83 2.04 13.72
1/25/2021 9:30:00 PM 0.67 33.206 0.047 6.82 2.03 13.71
1/25/2021 9:45:00 PM 0.68 33.224 0.047 6.82 2.01 13.72
1/25/2021 10:00:00 PM 0.69 33.242 0.047 6.83 2.01 13.7
1/25/2021 10:15:00 PM 0.7 33.26 0.047 6.82 2.07 13.69
1/25/2021 10:30:00 PM 0.71 33.278 0.047 6.83 2.03 13.7
1/25/2021 10:45:00 PM 0.72 33.296 0.047 6.83 2.02 13.69
1/25/2021 11:00:00 PM 0.73 33.314 0.047 6.83 1.98 13.69
1/25/2021 11:15:00 PM 0.73 33.314 0.047 6.82 1.99 13.68
1/25/2021 11:30:00 PM 0.74 33.332 0.047 6.82 2.03 13.68
1/25/2021 11:45:00 PM 0.75 33.35 0.047 6.83 2.03 13.67
1/26/2021 12:00:00 AM 0.76 33.368 0.047 6.83 1.99 13.66
1/26/2021 12:15:00 AM 0.77 33.386 0.047 6.84 2.01 13.66
1/26/2021 12:30:00 AM 0.78 33.404 0.047 6.82 2.01 13.65
1/26/2021 12:45:00 AM 0.79 33.422 0.047 6.83 2.02 13.64
1/26/2021 1:00:00 AM 0.8 33.44 0.047 6.83 2.01 13.63
1/26/2021 1:15:00 AM 0.81 33.458 0.047 6.84 2.04 13.63
1/26/2021 1:30:00 AM 0.82 33.476 0.047 6.83 1.99 13.62
1/26/2021 1:45:00 AM 0.83 33.494 0.047 6.83 2.03 13.61
1/26/2021 2:00:00 AM 0.84 33.512 0.047 6.84 2.02 13.61
1/26/2021 2:15:00 AM 0.85 33.53 0.047 6.85 2.02 13.61
1/26/2021 2:30:00 AM 0.86 33.548 0.047 6.84 2 13.6
1/26/2021 2:45:00 AM 0.86 33.548 0.047 6.85 1.99 13.59
1/26/2021 3:00:00 AM 0.86 33.548 0.047 6.85 2 13.59
1/26/2021 3:15:00 AM 0.87 33.566 0.047 6.83 2.03 13.58
1/26/2021 3:30:00 AM 0.88 33.584 0.047 6.85 1.99 13.58
1/26/2021 3:45:00 AM 0.88 33.584 0.047 6.85 1.98 13.57
1/26/2021 4:00:00 AM 0.88 33.584 0.047 6.85 2.02 13.57
1/26/2021 4:15:00 AM 0.88 33.584 0.047 6.85 2.02 13.57
1/26/2021 4:30:00 AM 0.86 33.548 0.047 6.85 1.95 13.56
1/26/2021 4:45:00 AM 0.87 33.566 0.047 6.85 2 13.56
1/26/2021 5:00:00 AM 0.87 33.566 0.047 6.86 1.98 13.55
1/26/2021 5:15:00 AM 0.86 33.548 0.047 6.86 1.98 13.56
1/26/2021 5:30:00 AM 0.85 33.53 0.047 6.84 1.96 13.56
1/26/2021 5:45:00 AM 0.85 33.53 0.047 6.85 1.99 13.56
1/26/2021 6:00:00 AM 0.85 33.53 0.047 6.84 1.98 13.56
1/26/2021 6:15:00 AM 0.85 33.53 0.047 6.85 1.98 13.56
1/26/2021 6:30:00 AM 0.85 33.53 0.047 6.84 1.94 13.55
1/26/2021 6:45:00 AM 0.86 33.548 0.047 6.85 1.99 13.55
1/26/2021 7:00:00 AM 0.86 33.548 0.047 6.84 1.96 13.55
1/26/2021 7:15:00 AM 0.85 33.53 0.047 6.83 2 13.55
1/26/2021 7:30:00 AM 0.77 33.386 0.047 6.84 2 13.55
1/26/2021 7:45:00 AM 0.72 33.296 0.047 6.84 2.03 13.57
1/26/2021 8:00:00 AM 0.64 33.152 0.047 6.84 2.03 13.59
1/26/2021 8:15:00 AM 0.45 32.81 0.047 6.78 2.03 13.64
1/26/2021 8:30:00 AM 0.43 32.774 0.047 6.82 2 13.69
1/26/2021 8:45:00 AM 0.44 32.792 0.047 6.84 1.99 13.74
1/26/2021 9:00:00 AM 0.44 32.792 0.047 6.84 2.38 13.77
1/26/2021 9:15:00 AM 0.4 32.72 0.047 6.85 2.99 13.8
1/26/2021 9:30:00 AM 0.32 32.576 0.047 6.84 2.08 13.88
1/26/2021 9:45:00 AM 0.3 32.54 0.047 6.84 3.03 13.9
1/26/2021 10:00:00 AM 0.14 32.252 0.047 6.83 2.19 13.93
1/26/2021 10:15:00 AM 0.17 32.306 0.047 6.84 2.12 13.98
1/26/2021 10:30:00 AM 0.11 32.198 0.047 6.88 2.05 14.01
1/26/2021 10:45:00 AM 0.13 32.234 0.046 6.88 2.04 14.06
1/26/2021 11:00:00 AM 0.21 32.378 0.046 6.92 2.06 14.08
1/26/2021 11:15:00 AM 0.26 32.468 0.046 6.94 2.04 14.09
1/26/2021 11:30:00 AM 0.31 32.558 0.046 6.94 2.02 14.09
1/26/2021 11:45:00 AM 0.35 32.63 0.046 6.94 2.07 14.08
1/26/2021 12:00:00 PM 0.32 32.576 0.046 6.94 2.02 14.08
1/26/2021 12:15:00 PM 0.38 32.684 0.046 6.95 2.02 14.08
1/26/2021 12:30:00 PM 0.38 32.684 0.046 6.95 2.07 14.07
1/26/2021 12:45:00 PM 0.4 32.72 0.046 6.96 1.97 14.06
1/26/2021 1:00:00 PM 0.41 32.738 0.046 6.96 1.98 14.06
1/26/2021 1:15:00 PM 0.46 32.828 0.046 6.96 2.02 14.04
1/26/2021 1:30:00 PM 0.45 32.81 0.046 6.96 2.01 14.04
1/26/2021 1:45:00 PM 0.5 32.9 0.046 6.97 2 14.05
1/26/2021 2:00:00 PM 0.55 32.99 0.046 6.98 2.02 14.03
1/26/2021 2:15:00 PM 0.59 33.062 0.046 6.97 2.03 14.02
1/26/2021 2:30:00 PM 0.63 33.134 0.046 6.98 2.05 14.01
1/26/2021 2:45:00 PM 0.67 33.206 0.046 6.99 2.05 13.99
1/26/2021 3:00:00 PM 0.69 33.242 0.046 6.96 2.01 13.96
1/26/2021 3:15:00 PM 0.71 33.278 0.046 6.98 2.04 13.95
1/26/2021 3:30:00 PM 0.73 33.314 0.046 6.97 2.02 13.92
1/26/2021 3:45:00 PM 0.76 33.368 0.046 6.97 2.01 13.88
1/26/2021 4:00:00 PM 0.77 33.386 0.046 6.92 2 13.85
1/26/2021 4:15:00 PM 0.79 33.422 0.046 6.93 2.04 13.82
1/26/2021 4:30:00 PM 0.79 33.422 0.046 6.95 2.02 13.8
1/26/2021 4:45:00 PM 0.8 33.44 0.046 6.9 2.01 13.76
1/26/2021 5:00:00 PM 0.8 33.44 0.046 6.89 1.99 13.74
1/26/2021 5:15:00 PM 0.78 33.404 0.046 6.89 2 13.71
1/26/2021 5:30:00 PM 0.78 33.404 0.046 6.88 2.01 13.68
1/26/2021 5:45:00 PM 0.78 33.404 0.046 6.87 2.03 13.65
1/26/2021 6:00:00 PM 0.78 33.404 0.046 6.87 2.02 13.63
1/26/2021 6:15:00 PM 0.8 33.44 0.046 6.85 2.01 13.61
1/26/2021 6:30:00 PM 0.81 33.458 0.046 6.86 2.03 13.6
1/26/2021 6:45:00 PM 0.82 33.476 0.046 6.85 2 13.58
1/26/2021 7:00:00 PM 0.83 33.494 0.046 6.84 2 13.56
1/26/2021 7:15:00 PM 0.85 33.53 0.046 6.85 2 13.56
1/26/2021 7:30:00 PM 0.87 33.566 0.046 6.84 2.03 13.54
1/26/2021 7:45:00 PM 0.89 33.602 0.046 6.86 2.01 13.53
1/26/2021 8:00:00 PM 0.92 33.656 0.046 6.85 2.02 13.52
1/26/2021 8:15:00 PM 0.94 33.692 0.046 6.83 2.05 13.52
1/26/2021 8:30:00 PM 0.96 33.728 0.046 6.83 2.03 13.5
1/26/2021 8:45:00 PM 0.98 33.764 0.046 6.85 2.03 13.49
1/26/2021 9:00:00 PM 1 33.8 0.046 6.82 2.01 13.48
1/26/2021 9:15:00 PM 1.02 33.836 0.046 6.85 2.03 13.47
1/26/2021 9:30:00 PM 1.03 33.854 0.046 6.82 2.03 13.47
1/26/2021 9:45:00 PM 1.05 33.89 0.046 6.82 1.96 13.46
1/26/2021 10:00:00 PM 1.08 33.944 0.046 6.81 2.02 13.44
1/26/2021 10:15:00 PM 1.1 33.98 0.046 6.82 2.02 13.45
1/26/2021 10:30:00 PM 1.12 34.016 0.046 6.82 2 13.44
1/26/2021 10:45:00 PM 1.14 34.052 0.046 6.82 2.02 13.43
1/26/2021 11:00:00 PM 1.16 34.088 0.046 6.82 2.02 13.43
1/26/2021 11:15:00 PM 1.17 34.106 0.046 6.83 1.96 13.43
1/26/2021 11:30:00 PM 1.18 34.124 0.046 6.83 1.99 13.41
1/26/2021 11:45:00 PM 1.19 34.142 0.046 6.84 2.01 13.41
1/27/2021 12:00:00 AM 1.19 34.142 0.046 6.84 1.97 13.41
1/27/2021 12:15:00 AM 1.17 34.106 0.046 6.83 2 13.41
1/27/2021 12:30:00 AM 1.18 34.124 0.047 6.83 1.99 13.4
1/27/2021 12:45:00 AM 1.19 34.142 0.047 6.82 2 13.41
1/27/2021 1:00:00 AM 1.2 34.16 0.047 6.81 1.99 13.41
1/27/2021 1:15:00 AM 1.2 34.16 0.047 6.81 2 13.41
1/27/2021 1:30:00 AM 1.2 34.16 0.047 6.82 1.98 13.41
1/27/2021 1:45:00 AM 1.2 34.16 0.047 6.82 1.97 13.41
1/27/2021 2:00:00 AM 1.21 34.178 0.047 6.81 1.97 13.41
1/27/2021 2:15:00 AM 1.21 34.178 0.047 6.79 2.01 13.42
1/27/2021 2:30:00 AM 1.19 34.142 0.047 6.8 2.04 13.42
1/27/2021 2:45:00 AM 1.19 34.142 0.047 6.8 2 13.43
1/27/2021 3:00:00 AM 1.2 34.16 0.047 6.8 2 13.44
1/27/2021 3:15:00 AM 1.2 34.16 0.047 6.8 2 13.44
1/27/2021 3:30:00 AM 1.2 34.16 0.047 6.81 2.01 13.44
1/27/2021 3:45:00 AM 1.21 34.178 0.047 6.8 1.97 13.43
1/27/2021 4:00:00 AM 1.19 34.142 0.047 6.8 2.01 13.45
1/27/2021 4:15:00 AM 1.2 34.16 0.047 6.8 1.98 13.46
1/27/2021 4:30:00 AM 1.19 34.142 0.047 6.81 1.99 13.45
1/27/2021 4:45:00 AM 1.18 34.124 0.047 6.81 1.99 13.46
1/27/2021 5:00:00 AM 1.17 34.106 0.047 6.79 2 13.47
1/27/2021 5:15:00 AM 1.16 34.088 0.047 6.81 2.03 13.47
1/27/2021 5:30:00 AM 1.15 34.07 0.047 6.79 1.97 13.48
1/27/2021 5:45:00 AM 1.14 34.052 0.047 6.79 1.96 13.48
1/27/2021 6:00:00 AM 1.13 34.034 0.047 6.79 1.94 13.49
1/27/2021 6:15:00 AM 1.11 33.998 0.047 6.79 1.96 13.5
1/27/2021 6:30:00 AM 1.1 33.98 0.047 6.79 1.98 13.5
1/27/2021 6:45:00 AM 1.09 33.962 0.047 6.78 1.99 13.51
1/27/2021 7:00:00 AM 1.07 33.926 0.047 6.78 1.95 13.52
1/27/2021 7:15:00 AM 1.06 33.908 0.047 6.8 1.95 13.53
1/27/2021 7:30:00 AM 1.04 33.872 0.047 6.81 1.95 13.54
1/27/2021 7:45:00 AM 1.03 33.854 0.047 6.8 1.98 13.57
1/27/2021 8:00:00 AM 1.01 33.818 0.047 6.81 1.95 13.61
1/27/2021 8:15:00 AM 1.01 33.818 0.047 6.84 1.94 13.66
1/27/2021 8:30:00 AM 1.02 33.836 0.047 6.83 1.99 13.71
1/27/2021 8:45:00 AM 1.01 33.818 0.047 6.84 1.97 13.75
1/27/2021 9:00:00 AM 1.02 33.836 0.047 6.86 1.99 13.81
1/27/2021 9:15:00 AM 1.04 33.872 0.047 6.9 1.98 13.85
1/27/2021 9:30:00 AM 1.07 33.926 0.047 6.9 1.95 13.9
1/27/2021 9:45:00 AM 1.07 33.926 0.047 6.91 1.98 13.92
1/27/2021 10:00:00 AM 1.07 33.926 0.047 6.91 1.94 13.94
1/27/2021 10:15:00 AM 1.09 33.962 0.047 6.93 1.95 13.95
1/27/2021 10:30:00 AM 1.11 33.998 0.047 6.95 1.94 13.97
1/27/2021 10:45:00 AM 1.14 34.052 0.047 6.95 1.95 13.98
1/27/2021 11:00:00 AM 1.17 34.106 0.047 6.97 1.96 13.98
1/27/2021 11:15:00 AM 1.19 34.142 0.047 6.98 1.95 13.99
1/27/2021 11:30:00 AM 1.22 34.196 0.047 6.99 1.97 13.98
1/27/2021 11:45:00 AM 1.27 34.286 0.047 6.99 1.97 13.97
1/27/2021 12:00:00 PM 1.3 34.34 0.046 6.99 1.96 13.98
1/27/2021 12:15:00 PM 1.34 34.412 0.046 7 1.94 13.97
1/27/2021 12:30:00 PM 1.36 34.448 0.046 6.99 1.95 13.96
1/27/2021 12:45:00 PM 1.39 34.502 0.046 7 1.97 13.95
1/27/2021 1:00:00 PM 1.41 34.538 0.046 7 1.95 13.93
1/27/2021 1:15:00 PM 1.43 34.574 0.046 7.01 1.99 13.92
1/27/2021 1:30:00 PM 1.44 34.592 0.046 7.01 1.98 13.92
1/27/2021 1:45:00 PM 1.44 34.592 0.046 6.99 1.99 13.91
1/27/2021 2:00:00 PM 1.44 34.592 0.046 7 1.99 13.91
1/27/2021 2:15:00 PM 1.44 34.592 0.046 7 1.96 13.9
1/27/2021 2:30:00 PM 1.43 34.574 0.046 6.99 2 13.89
1/27/2021 2:45:00 PM 1.42 34.556 0.046 7.01 1.95 13.89
1/27/2021 3:00:00 PM 1.43 34.574 0.046 6.99 1.95 13.89
1/27/2021 3:15:00 PM 1.42 34.556 0.046 6.98 1.96 13.88
1/27/2021 3:30:00 PM 1.41 34.538 0.046 6.99 1.98 13.89
1/27/2021 3:45:00 PM 1.41 34.538 0.046 7 1.96 13.88
1/27/2021 4:00:00 PM 1.39 34.502 0.046 6.98 2 13.88
1/27/2021 4:15:00 PM 1.38 34.484 0.046 6.96 1.99 13.88
1/27/2021 4:30:00 PM 1.37 34.466 0.046 6.97 1.97 13.86
1/27/2021 4:45:00 PM 1.36 34.448 0.046 6.93 1.96 13.84
1/27/2021 5:00:00 PM 1.33 34.394 0.046 6.92 1.98 13.79
1/27/2021 5:15:00 PM 1.3 34.34 0.046 6.92 2.01 13.75
1/27/2021 5:30:00 PM 1.27 34.286 0.046 6.9 1.99 13.71
1/27/2021 5:45:00 PM 1.25 34.25 0.046 6.89 2.05 13.68
1/27/2021 6:00:00 PM 1.21 34.178 0.047 6.87 2.01 13.66
1/27/2021 6:15:00 PM 1.19 34.142 0.047 6.87 2 13.64
1/27/2021 6:30:00 PM 1.16 34.088 0.047 6.83 2.02 13.62
1/27/2021 6:45:00 PM 1.13 34.034 0.047 6.84 1.98 13.6
1/27/2021 7:00:00 PM 1.1 33.98 0.047 6.82 1.97 13.6
1/27/2021 7:15:00 PM 1.07 33.926 0.047 6.81 1.96 13.6
1/27/2021 7:30:00 PM 1.02 33.836 0.047 6.83 1.94 13.61
1/27/2021 7:45:00 PM 0.98 33.764 0.047 6.79 1.98 13.62
1/27/2021 8:00:00 PM 0.93 33.674 0.047 6.81 2.03 13.64
1/27/2021 8:15:00 PM 0.89 33.602 0.047 6.8 2 13.64
1/27/2021 8:30:00 PM 0.84 33.512 0.047 6.78 1.97 13.67
1/27/2021 8:45:00 PM 0.79 33.422 0.047 6.77 1.97 13.68
1/27/2021 9:00:00 PM 0.74 33.332 0.047 6.79 2 13.7
1/27/2021 9:15:00 PM 0.69 33.242 0.047 6.77 2.02 13.72
1/27/2021 9:30:00 PM 0.64 33.152 0.047 6.76 2.01 13.74
1/27/2021 9:45:00 PM 0.59 33.062 0.047 6.78 1.99 13.76
1/27/2021 10:00:00 PM 0.54 32.972 0.047 6.77 2 13.78
1/27/2021 10:15:00 PM 0.5 32.9 0.047 6.77 1.98 13.81
1/27/2021 10:30:00 PM 0.45 32.81 0.047 6.77 1.95 13.82
1/27/2021 10:45:00 PM 0.41 32.738 0.047 6.77 2.01 13.84
1/27/2021 11:00:00 PM 0.35 32.63 0.047 6.77 2.04 13.86
1/27/2021 11:15:00 PM 0.3 32.54 0.047 6.77 2 13.88
1/27/2021 11:30:00 PM 0.26 32.468 0.047 6.76 2 13.9
1/27/2021 11:45:00 PM 0.22 32.396 0.047 6.77 2.01 13.91
1/28/2021 12:00:00 AM 0.2 32.36 0.047 6.78 1.99 13.93
1/28/2021 12:15:00 AM 0.17 32.306 0.047 6.78 2.01 13.94
1/28/2021 12:30:00 AM 0.13 32.234 0.048 6.77 1.97 13.96
1/28/2021 12:45:00 AM 0.09 32.162 0.048 6.79 1.98 13.97
1/28/2021 1:00:00 AM 0.06 32.108 0.048 6.79 2.01 13.98
1/28/2021 1:15:00 AM 0.02 32.036 0.048 6.79 1.97 13.99
1/28/2021 1:30:00 AM -0.03 31.946 0.048 6.77 2 14.01
1/28/2021 1:45:00 AM -0.05 31.91 0.048 6.78 2.01 14.03
1/28/2021 2:00:00 AM -0.06 31.892 0.048 6.79 2 14.03
1/28/2021 2:15:00 AM -0.09 31.838 0.048 6.79 2.01 14.04
1/28/2021 2:30:00 AM -0.09 31.838 0.048 6.79 2 14.04
1/28/2021 2:45:00 AM -0.09 31.838 0.048 6.79 2.05 14.05
1/28/2021 3:00:00 AM -0.09 31.838 0.048 6.76 2.02 14.06
1/28/2021 3:15:00 AM -0.09 31.838 0.049 6.8 2 14.08
1/28/2021 3:30:00 AM -0.09 31.838 0.049 6.8 1.95 14.09
1/28/2021 3:45:00 AM -0.08 31.856 0.049 6.84 1.92 14.09
1/28/2021 4:00:00 AM -0.08 31.856 0.049 6.88 2 14.09
1/28/2021 4:15:00 AM -0.08 31.856 0.049 6.89 1.99 14.1
1/28/2021 4:30:00 AM -0.08 31.856 0.049 6.9 1.91 14.1
1/28/2021 4:45:00 AM -0.08 31.856 0.049 6.91 1.98 14.12
1/28/2021 5:00:00 AM -0.08 31.856 0.049 6.92 1.93 14.14
1/28/2021 5:15:00 AM -0.08 31.856 0.049 6.91 1.93 14.12
1/28/2021 5:30:00 AM -0.08 31.856 0.049 6.92 1.9 14.14
1/28/2021 5:45:00 AM -0.08 31.856 0.049 6.91 1.98 14.13
1/28/2021 6:00:00 AM -0.08 31.856 0.049 6.91 1.91 14.14
1/28/2021 6:15:00 AM -0.08 31.856 0.049 6.9 1.89 14.15
1/28/2021 6:30:00 AM -0.08 31.856 0.049 6.9 1.87 14.14
1/28/2021 6:45:00 AM -0.08 31.856 0.049 6.9 1.96 14.13
1/28/2021 7:00:00 AM -0.08 31.856 0.049 6.9 1.86 14.15
1/28/2021 7:15:00 AM -0.08 31.856 0.05 6.91 1.86 14.15
1/28/2021 7:30:00 AM -0.08 31.856 0.05 6.91 1.85 14.17
1/28/2021 7:45:00 AM -0.08 31.856 0.05 6.91 1.86 14.18
1/28/2021 8:00:00 AM -0.08 31.856 0.05 6.92 1.87 14.24
1/28/2021 8:15:00 AM -0.08 31.856 0.05 6.93 1.92 14.28
1/28/2021 8:30:00 AM -0.08 31.856 0.049 6.94 2.1 14.31
1/28/2021 8:45:00 AM -0.08 31.856 0.049 6.96 2.01 14.37
1/28/2021 9:00:00 AM -0.08 31.856 0.049 6.96 1.94 14.39
1/28/2021 9:15:00 AM -0.08 31.856 0.049 6.97 2.02 14.43
1/28/2021 9:30:00 AM -0.08 31.856 0.049 6.98 1.92 14.45
1/28/2021 9:45:00 AM -0.08 31.856 0.049 6.98 1.95 14.48
1/28/2021 10:00:00 AM -0.08 31.856 0.049 7 1.97 14.51
1/28/2021 10:15:00 AM -0.08 31.856 0.049 7 1.93 14.53
1/28/2021 10:30:00 AM -0.08 31.856 0.049 7.01 1.96 14.54
1/28/2021 10:45:00 AM -0.08 31.856 0.049 7.01 1.93 14.54
1/28/2021 11:00:00 AM -0.08 31.856 0.049 7.01 1.96 14.54
1/28/2021 11:15:00 AM -0.08 31.856 0.049 7 1.95 14.52
1/28/2021 11:30:00 AM -0.08 31.856 0.049 6.97 1.91 14.52
1/28/2021 11:45:00 AM -0.06 31.892 0.048 6.93 2.22 14.52
1/28/2021 12:00:00 PM -0.07 31.874 0.049 6.96 2.1 14.52
1/28/2021 12:15:00 PM -0.07 31.874 0.049 6.93 1.99 14.52
1/28/2021 12:30:00 PM -0.04 31.928 0.048 6.96 2.09 14.5
1/28/2021 12:45:00 PM -0.05 31.91 0.048 6.92 2.25 14.47
1/28/2021 1:00:00 PM -0.03 31.946 0.048 6.93 2.06 14.48
1/28/2021 1:15:00 PM -0.02 31.964 0.048 6.94 2.06 14.47
1/28/2021 1:30:00 PM -0.01 31.982 0.048 6.96 2.14 14.45
1/28/2021 1:45:00 PM -0.02 31.964 0.048 6.93 2.27 14.45
1/28/2021 2:00:00 PM 0 32 0.048 6.95 2.23 14.44
1/28/2021 2:15:00 PM -0.02 31.964 0.048 6.95 2.09 14.44
1/28/2021 2:30:00 PM -0.02 31.964 0.048 6.94 2.08 14.43
1/28/2021 2:45:00 PM -0.03 31.946 0.048 6.92 2.07 14.43
1/28/2021 3:00:00 PM -0.03 31.946 0.048 6.94 2.04 14.43
1/28/2021 3:15:00 PM -0.04 31.928 0.048 6.91 2.06 14.44
1/28/2021 3:30:00 PM -0.05 31.91 0.048 6.92 2.05 14.44
1/28/2021 3:45:00 PM -0.07 31.874 0.048 6.91 2.01 14.42
1/28/2021 4:00:00 PM -0.08 31.856 0.048 6.91 2.01 14.4
1/28/2021 4:15:00 PM -0.08 31.856 0.048 6.91 2.07 14.39
1/28/2021 4:30:00 PM -0.09 31.838 0.048 6.89 2.02 14.39
1/28/2021 4:45:00 PM -0.09 31.838 0.048 6.91 2.03 14.38
1/28/2021 5:00:00 PM -0.08 31.856 0.048 6.94 2.05 14.37
1/28/2021 5:15:00 PM -0.09 31.838 0.048 6.92 2.05 14.34
1/28/2021 5:30:00 PM -0.09 31.838 0.048 6.9 2.05 14.31
1/28/2021 5:45:00 PM -0.08 31.856 0.048 6.88 2.04 14.29
1/28/2021 6:00:00 PM -0.08 31.856 0.048 6.88 2.09 14.27
1/28/2021 6:15:00 PM -0.08 31.856 0.048 6.88 2.12 14.25
1/28/2021 6:30:00 PM -0.09 31.838 0.048 6.86 2.12 14.23
1/28/2021 6:45:00 PM -0.09 31.838 0.049 6.87 1.95 14.23
1/28/2021 7:00:00 PM -0.09 31.838 0.045 6.87 2.19 14.22
1/28/2021 7:15:00 PM -0.08 31.856 0.049 6.93 2.01 14.21
1/28/2021 7:30:00 PM -0.08 31.856 0.049 6.93 2 14.21
1/28/2021 7:45:00 PM -0.08 31.856 0.049 6.94 2.08 14.2
1/28/2021 8:00:00 PM -0.08 31.856 0.049 6.94 1.98 14.2
1/28/2021 8:15:00 PM -0.08 31.856 0.049 6.94 1.97 14.2
1/28/2021 8:30:00 PM -0.08 31.856 0.049 6.94 1.96 14.19
1/28/2021 8:45:00 PM -0.08 31.856 0.049 6.93 1.95 14.19
1/28/2021 9:00:00 PM -0.08 31.856 0.049 6.93 1.99 14.19
1/28/2021 9:15:00 PM -0.08 31.856 0.049 6.93 2.02 14.19
1/28/2021 9:30:00 PM -0.08 31.856 0.049 6.93 2.01 14.17
1/28/2021 9:45:00 PM -0.08 31.856 0.049 6.93 1.93 14.18
1/28/2021 10:00:00 PM -0.08 31.856 0.05 6.93 2.01 14.17
1/28/2021 10:15:00 PM -0.08 31.856 0.05 6.93 1.94 14.17
1/28/2021 10:30:00 PM -0.08 31.856 0.05 6.93 1.99 14.16
1/28/2021 10:45:00 PM -0.08 31.856 0.05 6.94 1.96 14.15
1/28/2021 11:00:00 PM -0.08 31.856 0.05 6.93 1.95 14.17
1/28/2021 11:15:00 PM -0.08 31.856 0.05 6.93 2.01 14.16
1/28/2021 11:30:00 PM -0.08 31.856 0.05 6.92 1.99 14.16
1/28/2021 11:45:00 PM -0.08 31.856 0.05 6.92 2.02 14.16
1/29/2021 12:00:00 AM -0.08 31.856 0.05 6.92 1.99 14.14
1/29/2021 12:15:00 AM -0.08 31.856 0.05 6.93 1.99 14.15
1/29/2021 12:30:00 AM -0.08 31.856 0.05 6.93 1.99 14.15
1/29/2021 12:45:00 AM -0.08 31.856 0.05 6.93 1.97 14.13
1/29/2021 1:00:00 AM -0.08 31.856 0.05 6.92 1.99 14.13
1/29/2021 1:15:00 AM -0.08 31.856 0.05 6.92 1.94 14.12
1/29/2021 1:30:00 AM -0.08 31.856 0.05 6.92 1.93 14.13
1/29/2021 1:45:00 AM -0.08 31.856 0.05 6.92 1.93 14.12
1/29/2021 2:00:00 AM -0.08 31.856 0.05 6.91 1.91 14.11
1/29/2021 2:15:00 AM -0.08 31.856 0.05 6.91 1.96 14.12
1/29/2021 2:30:00 AM -0.08 31.856 0.05 6.92 1.91 14.12
1/29/2021 2:45:00 AM -0.08 31.856 0.05 6.91 1.98 14.12
1/29/2021 3:00:00 AM -0.08 31.856 0.05 6.91 1.9 14.12
1/29/2021 3:15:00 AM -0.08 31.856 0.05 6.91 1.91 14.12
1/29/2021 3:30:00 AM -0.08 31.856 0.05 6.91 1.86 14.12
1/29/2021 3:45:00 AM -0.08 31.856 0.05 6.91 1.93 14.13
1/29/2021 4:00:00 AM -0.08 31.856 0.05 6.91 1.89 14.12
1/29/2021 4:15:00 AM -0.08 31.856 0.05 6.91 1.9 14.12
1/29/2021 4:30:00 AM -0.08 31.856 0.05 6.91 1.88 14.12
1/29/2021 4:45:00 AM -0.08 31.856 0.05 6.91 1.88 14.11
1/29/2021 5:00:00 AM -0.08 31.856 0.05 6.9 1.91 14.12
1/29/2021 5:15:00 AM -0.08 31.856 0.05 6.91 1.89 14.1
1/29/2021 5:30:00 AM -0.08 31.856 0.05 6.9 1.9 14.11
1/29/2021 5:45:00 AM -0.08 31.856 0.05 6.9 1.94 14.09
1/29/2021 6:00:00 AM -0.08 31.856 0.05 6.9 1.9 14.11
1/29/2021 6:15:00 AM -0.08 31.856 0.051 6.9 1.93 14.1
1/29/2021 6:30:00 AM -0.08 31.856 0.051 6.9 1.88 14.1
1/29/2021 6:45:00 AM -0.08 31.856 0.051 6.9 1.91 14.1
1/29/2021 7:00:00 AM -0.08 31.856 0.051 6.89 1.93 14.09
1/29/2021 7:15:00 AM -0.08 31.856 0.051 6.89 1.92 14.08
1/29/2021 7:30:00 AM -0.08 31.856 0.051 6.89 1.91 14.07
1/29/2021 7:45:00 AM -0.08 31.856 0.051 6.89 1.94 14.07
1/29/2021 8:00:00 AM -0.08 31.856 0.051 6.89 1.92 14.09
1/29/2021 8:15:00 AM -0.08 31.856 0.051 6.89 1.92 14.12
1/29/2021 8:30:00 AM -0.08 31.856 0.051 6.89 1.91 14.14
1/29/2021 8:45:00 AM -0.08 31.856 0.051 6.89 1.96 14.19
1/29/2021 9:00:00 AM -0.08 31.856 0.051 6.93 1.97 14.29
1/29/2021 9:15:00 AM -0.08 31.856 0.051 6.93 1.95 14.34
1/29/2021 9:30:00 AM -0.08 31.856 0.051 6.95 1.96 14.4
1/29/2021 9:45:00 AM -0.08 31.856 0.05 6.97 1.98 14.44
1/29/2021 10:00:00 AM -0.08 31.856 0.05 6.98 1.96 14.47
1/29/2021 10:15:00 AM -0.08 31.856 0.05 6.98 1.95 14.49
1/29/2021 10:30:00 AM -0.08 31.856 0.05 6.99 1.98 14.5
1/29/2021 10:45:00 AM -0.08 31.856 0.05 6.99 1.96 14.51
1/29/2021 11:00:00 AM -0.08 31.856 0.05 7 1.94 14.52
1/29/2021 11:15:00 AM -0.08 31.856 0.05 6.99 1.93 14.54
1/29/2021 11:30:00 AM -0.08 31.856 0.05 6.99 1.95 14.52
1/29/2021 11:45:00 AM -0.08 31.856 0.05 7 1.94 14.52
1/29/2021 12:00:00 PM -0.08 31.856 0.05 7.01 2 14.54
1/29/2021 12:15:00 PM -0.08 31.856 0.05 7 2.03 14.53
1/29/2021 12:30:00 PM -0.08 31.856 0.05 6.99 2.13 14.51
1/29/2021 12:45:00 PM -0.08 31.856 0.05 6.98 2.07 14.52
1/29/2021 1:00:00 PM -0.08 31.856 0.05 7 2.08 14.52
1/29/2021 1:15:00 PM -0.08 31.856 0.05 6.99 2.08 14.52
1/29/2021 1:30:00 PM -0.08 31.856 0.049 6.99 2.04 14.52
1/29/2021 1:45:00 PM -0.08 31.856 0.049 7.01 1.95 14.54
1/29/2021 2:00:00 PM -0.08 31.856 0.049 7.03 1.93 14.55
1/29/2021 2:15:00 PM -0.08 31.856 0.049 7.04 1.95 14.55
1/29/2021 2:30:00 PM -0.08 31.856 0.049 7.04 1.95 14.55
1/29/2021 2:45:00 PM -0.08 31.856 0.049 7.04 1.9 14.54
1/29/2021 3:00:00 PM -0.08 31.856 0.049 7.03 1.88 14.55
1/29/2021 3:15:00 PM -0.08 31.856 0.049 7.04 1.91 14.55
1/29/2021 3:30:00 PM -0.08 31.856 0.049 7.05 1.94 14.57
1/29/2021 3:45:00 PM -0.08 31.856 0.049 7.05 1.99 14.57
1/29/2021 4:00:00 PM -0.08 31.856 0.049 7.04 2.06 14.57
1/29/2021 4:15:00 PM -0.08 31.856 0.049 7.04 2.14 14.57
1/29/2021 4:30:00 PM -0.08 31.856 0.049 7.04 2.06 14.54
1/29/2021 4:45:00 PM -0.08 31.856 0.049 7.02 2.15 14.52
1/29/2021 5:00:00 PM -0.08 31.856 0.049 7.02 2.06 14.48
1/29/2021 5:15:00 PM -0.08 31.856 0.049 6.99 1.96 14.44
1/29/2021 5:30:00 PM -0.08 31.856 0.049 7 1.93 14.39
1/29/2021 5:45:00 PM -0.08 31.856 0.049 6.97 1.96 14.35
1/29/2021 6:00:00 PM -0.08 31.856 0.049 6.96 2 14.31
1/29/2021 6:15:00 PM -0.08 31.856 0.049 6.94 2.09 14.28
1/29/2021 6:30:00 PM -0.08 31.856 0.049 6.93 2.1 14.26
1/29/2021 6:45:00 PM -0.08 31.856 0.049 6.93 1.94 14.23
1/29/2021 7:00:00 PM -0.08 31.856 0.049 6.93 2.05 14.21
1/29/2021 7:15:00 PM -0.08 31.856 0.049 6.93 1.89 14.19
1/29/2021 7:30:00 PM -0.08 31.856 0.049 6.91 1.89 14.18
1/29/2021 7:45:00 PM -0.08 31.856 0.05 6.89 1.97 14.16
1/29/2021 8:00:00 PM -0.08 31.856 0.05 6.85 1.95 14.15
1/29/2021 8:15:00 PM -0.08 31.856 0.05 6.82 2.19 14.15
1/29/2021 8:30:00 PM -0.08 31.856 0.05 6.79 1.94 14.14
1/29/2021 8:45:00 PM -0.08 31.856 0.05 6.8 2.04 14.14
1/29/2021 9:00:00 PM -0.08 31.856 0.05 6.8 2.02 14.12
1/29/2021 9:15:00 PM -0.08 31.856 0.05 6.8 2.06 14.12
1/29/2021 9:30:00 PM -0.08 31.856 0.05 6.79 1.99 14.13
1/29/2021 9:45:00 PM -0.08 31.856 0.05 6.78 1.99 14.12
1/29/2021 10:00:00 PM -0.08 31.856 0.05 6.78 2.02 14.11
1/29/2021 10:15:00 PM -0.08 31.856 0.05 6.78 2.03 14.12
1/29/2021 10:30:00 PM -0.08 31.856 0.05 6.78 2.06 14.13
1/29/2021 10:45:00 PM -0.08 31.856 0.05 6.77 2.04 14.1
1/29/2021 11:00:00 PM -0.08 31.856 0.05 6.78 1.99 14.11
1/29/2021 11:15:00 PM -0.08 31.856 0.05 6.77 2.01 14.12
1/29/2021 11:30:00 PM -0.08 31.856 0.05 6.78 2.01 14.12
1/29/2021 11:45:00 PM -0.08 31.856 0.05 6.78 1.97 14.11
1/30/2021 12:00:00 AM -0.08 31.856 0.05 6.78 1.99 14.11
1/30/2021 12:15:00 AM -0.08 31.856 0.05 6.84 2.01 14.12
1/30/2021 12:30:00 AM -0.08 31.856 0.05 6.78 2 14.11
1/30/2021 12:45:00 AM -0.08 31.856 0.05 6.78 2 14.1
1/30/2021 1:00:00 AM -0.08 31.856 0.05 6.79 2.01 14.12
1/30/2021 1:15:00 AM -0.08 31.856 0.05 6.78 1.97 14.11
1/30/2021 1:30:00 AM -0.08 31.856 0.05 6.79 1.99 14.11
1/30/2021 1:45:00 AM -0.08 31.856 0.05 6.77 2 14.12
1/30/2021 2:00:00 AM -0.08 31.856 0.05 6.78 2.02 14.11
1/30/2021 2:15:00 AM -0.08 31.856 0.05 6.78 1.95 14.12
1/30/2021 2:30:00 AM -0.08 31.856 0.05 6.78 1.98 14.12
1/30/2021 2:45:00 AM -0.08 31.856 0.05 6.78 2.01 14.12
1/30/2021 3:00:00 AM -0.08 31.856 0.05 6.77 1.99 14.11
1/30/2021 3:15:00 AM -0.08 31.856 0.05 6.78 1.97 14.11
1/30/2021 3:30:00 AM -0.08 31.856 0.05 6.78 2 14.12
1/30/2021 3:45:00 AM -0.08 31.856 0.05 6.79 2.05 14.12
1/30/2021 4:00:00 AM -0.08 31.856 0.05 6.8 1.99 14.12
1/30/2021 4:15:00 AM -0.08 31.856 0.05 6.79 1.98 14.11
1/30/2021 4:30:00 AM -0.08 31.856 0.05 6.78 1.99 14.12
1/30/2021 4:45:00 AM -0.08 31.856 0.05 6.78 1.98 14.12
1/30/2021 5:00:00 AM -0.08 31.856 0.05 6.79 1.98 14.12
1/30/2021 5:15:00 AM -0.08 31.856 0.05 6.78 2.01 14.12
1/30/2021 5:30:00 AM -0.08 31.856 0.05 6.78 2.01 14.11
1/30/2021 5:45:00 AM -0.08 31.856 0.05 6.79 1.97 14.13
1/30/2021 6:00:00 AM -0.09 31.838 0.05 6.79 1.95 14.12
1/30/2021 6:15:00 AM -0.09 31.838 0.05 6.78 2.01 14.13
1/30/2021 6:30:00 AM -0.09 31.838 0.05 6.76 1.99 14.14
1/30/2021 6:45:00 AM -0.09 31.838 0.05 6.78 2.03 14.13
1/30/2021 7:00:00 AM -0.09 31.838 0.05 6.78 2.02 14.13
1/30/2021 7:15:00 AM -0.09 31.838 0.05 6.79 2.01 14.14
1/30/2021 7:30:00 AM -0.09 31.838 0.05 6.8 1.99 14.15
1/30/2021 7:45:00 AM -0.09 31.838 0.05 6.8 1.99 14.17
1/30/2021 8:00:00 AM -0.08 31.856 0.05 6.81 2.04 14.21
1/30/2021 8:15:00 AM -0.08 31.856 0.05 6.83 1.98 14.24
1/30/2021 8:30:00 AM -0.08 31.856 0.05 6.83 2.02 14.29
1/30/2021 8:45:00 AM -0.08 31.856 0.05 6.82 2 14.34
1/30/2021 9:00:00 AM -0.08 31.856 0.05 6.83 1.98 14.38
1/30/2021 9:15:00 AM -0.08 31.856 0.05 6.85 2.03 14.42
1/30/2021 9:30:00 AM -0.08 31.856 0.05 6.85 2.05 14.45
1/30/2021 9:45:00 AM -0.07 31.874 0.05 6.85 2 14.48
1/30/2021 10:00:00 AM -0.07 31.874 0.05 6.86 2.04 14.51
1/30/2021 10:15:00 AM -0.06 31.892 0.05 6.88 2.03 14.53
1/30/2021 10:30:00 AM -0.06 31.892 0.05 6.88 2.04 14.54
1/30/2021 10:45:00 AM -0.07 31.874 0.05 6.86 2.07 14.56
1/30/2021 11:00:00 AM -0.07 31.874 0.05 6.9 2.06 14.58
1/30/2021 11:15:00 AM -0.07 31.874 0.05 6.92 2.82 14.58
1/30/2021 11:30:00 AM -0.07 31.874 0.05 6.94 2.03 14.57
1/30/2021 11:45:00 AM -0.07 31.874 0.049 6.84 2.56 14.57
1/30/2021 12:00:00 PM -0.07 31.874 0.049 6.9 2.17 14.57
1/30/2021 12:15:00 PM -0.08 31.856 0.05 6.88 2.01 14.56
1/30/2021 12:30:00 PM -0.07 31.874 0.05 6.9 2.15 14.55
1/30/2021 12:45:00 PM -0.06 31.892 0.049 6.9 2.24 14.55
1/30/2021 1:00:00 PM -0.07 31.874 0.049 6.93 3.08 14.55
1/30/2021 1:15:00 PM -0.07 31.874 0.049 6.9 3.06 14.53
1/30/2021 1:30:00 PM -0.07 31.874 0.049 6.89 2.95 14.53
1/30/2021 1:45:00 PM -0.06 31.892 0.049 6.93 3.26 14.51
1/30/2021 2:00:00 PM -0.06 31.892 0.049 6.93 3.14 14.51
1/30/2021 2:15:00 PM -0.07 31.874 0.049 6.92 2.9 14.52
1/30/2021 2:30:00 PM -0.07 31.874 0.049 6.96 2.3 14.52
1/30/2021 2:45:00 PM -0.07 31.874 0.049 7 2.29 14.51
1/30/2021 3:00:00 PM -0.07 31.874 0.049 6.98 2.22 14.51
1/30/2021 3:15:00 PM -0.07 31.874 0.049 6.97 2.27 14.49
1/30/2021 3:30:00 PM -0.07 31.874 0.049 7 2.22 14.5
1/30/2021 3:45:00 PM -0.07 31.874 0.049 7 2.24 14.5
1/30/2021 4:00:00 PM -0.07 31.874 0.049 6.97 2.29 14.5
1/30/2021 4:15:00 PM -0.07 31.874 0.049 6.97 2.28 14.48
1/30/2021 4:30:00 PM -0.07 31.874 0.048 6.97 2.27 14.47
1/30/2021 4:45:00 PM -0.07 31.874 0.048 6.99 2.23 14.46
1/30/2021 5:00:00 PM -0.07 31.874 0.048 6.99 2.26 14.46
1/30/2021 5:15:00 PM -0.08 31.856 0.048 6.98 2.3 14.43
1/30/2021 5:30:00 PM -0.08 31.856 0.048 6.97 2.29 14.38
1/30/2021 5:45:00 PM -0.08 31.856 0.048 6.97 2.2 14.36
1/30/2021 6:00:00 PM -0.08 31.856 0.048 6.96 2.2 14.32
1/30/2021 6:15:00 PM -0.08 31.856 0.048 6.95 2.21 14.3
1/30/2021 6:30:00 PM -0.08 31.856 0.049 6.93 2.19 14.28
1/30/2021 6:45:00 PM -0.08 31.856 0.049 6.93 2.18 14.26
1/30/2021 7:00:00 PM -0.08 31.856 0.049 6.93 2.16 14.24
1/30/2021 7:15:00 PM -0.08 31.856 0.049 6.91 2.12 14.21
1/30/2021 7:30:00 PM -0.08 31.856 0.049 6.92 2.14 14.19
1/30/2021 7:45:00 PM -0.08 31.856 0.049 6.91 2.14 14.18
1/30/2021 8:00:00 PM -0.08 31.856 0.049 6.89 2.12 14.16
1/30/2021 8:15:00 PM -0.08 31.856 0.049 6.89 2.15 14.15
1/30/2021 8:30:00 PM -0.08 31.856 0.049 6.87 2.12 14.16
1/30/2021 8:45:00 PM -0.08 31.856 0.049 6.87 2.1 14.15
1/30/2021 9:00:00 PM -0.09 31.838 0.049 6.87 2.11 14.15
1/30/2021 9:15:00 PM -0.09 31.838 0.049 6.87 2.15 14.13
1/30/2021 9:30:00 PM -0.09 31.838 0.049 6.87 2.08 14.14
1/30/2021 9:45:00 PM -0.09 31.838 0.05 6.88 2.1 14.14
1/30/2021 10:00:00 PM -0.09 31.838 0.05 6.88 2.04 14.14
1/30/2021 10:15:00 PM -0.09 31.838 0.05 6.88 2.07 14.13
1/30/2021 10:30:00 PM -0.08 31.856 0.05 6.88 2.12 14.13
1/30/2021 10:45:00 PM -0.08 31.856 0.05 6.89 2.08 14.13
1/30/2021 11:00:00 PM -0.08 31.856 0.05 6.88 2.1 14.12
1/30/2021 11:15:00 PM -0.08 31.856 0.05 6.87 2.01 14.12
1/30/2021 11:30:00 PM -0.08 31.856 0.05 6.86 2.07 14.12
1/30/2021 11:45:00 PM -0.08 31.856 0.05 6.86 1.97 14.11
1/31/2021 12:00:00 AM -0.08 31.856 0.05 6.86 2.05 14.11
1/31/2021 12:15:00 AM -0.08 31.856 0.05 6.86 2.1 14.11
1/31/2021 12:30:00 AM -0.08 31.856 0.05 6.86 2.04 14.09
1/31/2021 12:45:00 AM -0.08 31.856 0.05 6.86 2.09 14.1
1/31/2021 1:00:00 AM -0.08 31.856 0.05 6.86 2.07 14.1
1/31/2021 1:15:00 AM -0.08 31.856 0.05 6.86 2.05 14.09
1/31/2021 1:30:00 AM -0.08 31.856 0.05 6.85 2.09 14.08
1/31/2021 1:45:00 AM -0.08 31.856 0.05 6.84 2.1 14.08
1/31/2021 2:00:00 AM -0.08 31.856 0.05 6.84 2.07 14.08
1/31/2021 2:15:00 AM -0.08 31.856 0.05 6.83 2.11 14.08
1/31/2021 2:30:00 AM -0.08 31.856 0.05 6.84 2.11 14.07
1/31/2021 2:45:00 AM -0.08 31.856 0.05 6.85 2.07 14.06
1/31/2021 3:00:00 AM -0.08 31.856 0.05 6.85 2.04 14.06
1/31/2021 3:15:00 AM -0.08 31.856 0.05 6.84 2.06 14.07
1/31/2021 3:30:00 AM -0.08 31.856 0.05 6.84 2.09 14.05
1/31/2021 3:45:00 AM -0.08 31.856 0.05 6.84 2.09 14.04
1/31/2021 4:00:00 AM -0.08 31.856 0.05 6.85 2.11 14.05
1/31/2021 4:15:00 AM -0.08 31.856 0.05 6.86 2.06 14.04
1/31/2021 4:30:00 AM -0.08 31.856 0.05 6.86 2.07 14.05
1/31/2021 4:45:00 AM -0.08 31.856 0.05 6.86 2.07 14.04
1/31/2021 5:00:00 AM -0.08 31.856 0.05 6.85 2.1 14.04
1/31/2021 5:15:00 AM -0.07 31.874 0.05 6.84 2.11 14.03
1/31/2021 5:30:00 AM -0.07 31.874 0.05 6.84 2.1 14.02
1/31/2021 5:45:00 AM -0.07 31.874 0.05 6.83 2.06 14.02
1/31/2021 6:00:00 AM -0.08 31.856 0.05 6.84 2.08 14.02
1/31/2021 6:15:00 AM -0.07 31.874 0.05 6.85 2.1 14.01
1/31/2021 6:30:00 AM -0.07 31.874 0.05 6.85 2.08 14.02
1/31/2021 6:45:00 AM -0.07 31.874 0.05 6.85 2.04 14.02
1/31/2021 7:00:00 AM -0.07 31.874 0.05 6.85 2.12 14.01
1/31/2021 7:15:00 AM -0.07 31.874 0.05 6.83 2.1 14.01
1/31/2021 7:30:00 AM -0.07 31.874 0.05 6.83 2.09 14
1/31/2021 7:45:00 AM -0.07 31.874 0.05 6.84 2.06 14.02
1/31/2021 8:00:00 AM -0.07 31.874 0.05 6.85 2.11 14.03
1/31/2021 8:15:00 AM -0.07 31.874 0.05 6.85 2.07 14.06
1/31/2021 8:30:00 AM -0.07 31.874 0.05 6.87 2.09 14.12
1/31/2021 8:45:00 AM -0.07 31.874 0.05 6.88 2.13 14.15
1/31/2021 9:00:00 AM -0.07 31.874 0.05 6.87 2.1 14.18
1/31/2021 9:15:00 AM -0.06 31.892 0.05 6.88 2.09 14.21
1/31/2021 9:30:00 AM -0.07 31.874 0.05 6.87 2.09 14.24
1/31/2021 9:45:00 AM -0.07 31.874 0.05 6.88 2.1 14.28
1/31/2021 10:00:00 AM -0.07 31.874 0.05 6.9 2.12 14.31
1/31/2021 10:15:00 AM -0.07 31.874 0.05 6.93 2.19 14.35
1/31/2021 10:30:00 AM -0.07 31.874 0.05 6.92 2.09 14.37
1/31/2021 10:45:00 AM -0.08 31.856 0.05 6.92 2.25 14.4
1/31/2021 11:00:00 AM -0.07 31.874 0.05 6.93 2.31 14.42
1/31/2021 11:15:00 AM -0.07 31.874 0.05 6.95 2.84 14.43
1/31/2021 11:30:00 AM -0.06 31.892 0.05 6.95 2.07 14.45
1/31/2021 11:45:00 AM -0.05 31.91 0.05 6.96 2.12 14.48
1/31/2021 12:00:00 PM -0.05 31.91 0.049 6.98 2.07 14.49
1/31/2021 12:15:00 PM -0.03 31.946 0.049 6.99 2.07 14.51
1/31/2021 12:30:00 PM -0.04 31.928 0.049 7 2.07 14.52
1/31/2021 12:45:00 PM -0.03 31.946 0.049 7 2.04 14.53
1/31/2021 1:00:00 PM -0.03 31.946 0.049 7.02 2.08 14.54
1/31/2021 1:15:00 PM -0.04 31.928 0.049 7.02 2.1 14.53
1/31/2021 1:30:00 PM -0.04 31.928 0.049 7.03 2.1 14.53
1/31/2021 1:45:00 PM -0.04 31.928 0.049 7.02 2.09 14.53
1/31/2021 2:00:00 PM -0.04 31.928 0.049 7.01 2.06 14.51
1/31/2021 2:15:00 PM -0.05 31.91 0.049 7.01 2.15 14.5
1/31/2021 2:30:00 PM -0.05 31.91 0.049 7 2.14 14.5
1/31/2021 2:45:00 PM -0.05 31.91 0.049 7 2.13 14.5
1/31/2021 3:00:00 PM -0.05 31.91 0.049 7.01 2.08 14.5
1/31/2021 3:15:00 PM -0.06 31.892 0.049 6.98 2.26 14.49
1/31/2021 3:30:00 PM -0.06 31.892 0.049 7.04 2.1 14.48
1/31/2021 3:45:00 PM -0.06 31.892 0.049 7.02 2.13 14.47
1/31/2021 4:00:00 PM -0.06 31.892 0.049 7.02 2.11 14.45
1/31/2021 4:15:00 PM -0.06 31.892 0.049 7.02 2.2 14.43
1/31/2021 4:30:00 PM -0.06 31.892 0.049 7 2.06 14.4
1/31/2021 4:45:00 PM -0.06 31.892 0.049 6.99 2.05 14.36
1/31/2021 5:00:00 PM -0.06 31.892 0.049 6.99 2.08 14.32
1/31/2021 5:15:00 PM -0.06 31.892 0.049 6.97 2.12 14.29
1/31/2021 5:30:00 PM -0.06 31.892 0.049 6.97 2.09 14.24
1/31/2021 5:45:00 PM -0.06 31.892 0.049 6.97 2.13 14.21
1/31/2021 6:00:00 PM -0.07 31.874 0.049 6.95 2.1 14.17
1/31/2021 6:15:00 PM -0.06 31.892 0.049 6.95 2.12 14.15
1/31/2021 6:30:00 PM -0.06 31.892 0.049 6.93 2.1 14.11
1/31/2021 6:45:00 PM -0.06 31.892 0.049 6.93 2.09 14.08
1/31/2021 7:00:00 PM -0.07 31.874 0.049 6.92 2.13 14.06
1/31/2021 7:15:00 PM -0.07 31.874 0.049 6.92 2.14 14.03
1/31/2021 7:30:00 PM -0.07 31.874 0.049 6.91 2.15 14.02
1/31/2021 7:45:00 PM -0.07 31.874 0.049 6.91 2.2 14
1/31/2021 8:00:00 PM -0.07 31.874 0.049 6.9 2.1 13.99
1/31/2021 8:15:00 PM -0.07 31.874 0.049 6.89 2.17 13.98
1/31/2021 8:30:00 PM -0.07 31.874 0.049 6.89 2.13 13.97
1/31/2021 8:45:00 PM -0.07 31.874 0.049 6.89 2.15 13.95
1/31/2021 9:00:00 PM -0.07 31.874 0.049 6.89 2.18 13.95
1/31/2021 9:15:00 PM -0.07 31.874 0.049 6.88 2.21 13.94
1/31/2021 9:30:00 PM -0.08 31.856 0.049 6.89 2.24 13.94
1/31/2021 9:45:00 PM -0.07 31.874 0.049 6.87 2.13 13.94
1/31/2021 10:00:00 PM -0.07 31.874 0.049 6.88 2.18 13.93
1/31/2021 10:15:00 PM -0.07 31.874 0.049 6.87 2.15 13.93
1/31/2021 10:30:00 PM -0.07 31.874 0.049 6.87 2.18 13.93
1/31/2021 10:45:00 PM -0.07 31.874 0.048 6.87 2.1 13.93
1/31/2021 11:00:00 PM -0.07 31.874 0.048 6.86 2.14 13.92
1/31/2021 11:15:00 PM -0.07 31.874 0.048 6.87 2.12 13.92
1/31/2021 11:30:00 PM -0.07 31.874 0.048 6.85 2.16 13.92
1/31/2021 11:45:00 PM -0.07 31.874 0.048 6.83 2.12 13.91
2/1/2021 12:00:00 AM -0.08 31.856 0.048 6.83 2.12 13.91
2/1/2021 12:15:00 AM -0.07 31.874 0.048 6.82 2.09 13.91
2/1/2021 12:30:00 AM -0.07 31.874 0.048 6.82 2.07 13.9
2/1/2021 12:45:00 AM -0.07 31.874 0.048 6.83 2.11 13.91
2/1/2021 1:00:00 AM -0.08 31.856 0.048 6.81 2.11 13.9
2/1/2021 1:15:00 AM -0.07 31.874 0.048 6.8 2.1 13.9
2/1/2021 1:30:00 AM -0.07 31.874 0.048 6.81 2.07 13.9
2/1/2021 1:45:00 AM -0.06 31.892 0.048 6.82 2.04 13.89
2/1/2021 2:00:00 AM -0.06 31.892 0.048 6.83 2.08 13.89
2/1/2021 2:15:00 AM -0.06 31.892 0.048 6.82 2.1 13.89
2/1/2021 2:30:00 AM -0.06 31.892 0.048 6.82 2.06 13.89
2/1/2021 2:45:00 AM -0.07 31.874 0.048 6.82 2.07 13.89
2/1/2021 3:00:00 AM -0.06 31.892 0.048 6.81 2.08 13.89
2/1/2021 3:15:00 AM -0.06 31.892 0.048 6.81 2.03 13.89
2/1/2021 3:30:00 AM -0.06 31.892 0.048 6.82 2.04 13.87
2/1/2021 3:45:00 AM -0.06 31.892 0.048 6.83 2.02 13.87
2/1/2021 4:00:00 AM -0.06 31.892 0.048 6.82 2.06 13.87
2/1/2021 4:15:00 AM -0.06 31.892 0.049 6.82 2.07 13.86
2/1/2021 4:30:00 AM -0.07 31.874 0.049 6.81 2.05 13.87
2/1/2021 4:45:00 AM -0.07 31.874 0.049 6.82 2.13 13.87
2/1/2021 5:00:00 AM -0.07 31.874 0.049 6.82 2.08 13.87
2/1/2021 5:15:00 AM -0.07 31.874 0.049 6.81 2.2 13.87
2/1/2021 5:30:00 AM -0.07 31.874 0.049 6.82 2.08 13.88
2/1/2021 5:45:00 AM -0.07 31.874 0.049 6.81 2.13 13.87
2/1/2021 6:00:00 AM -0.08 31.856 0.049 6.81 2.09 13.88
2/1/2021 6:15:00 AM -0.07 31.874 0.049 6.79 2.06 13.88
2/1/2021 6:30:00 AM -0.07 31.874 0.049 6.8 2.07 13.87
2/1/2021 6:45:00 AM -0.07 31.874 0.049 6.8 2.07 13.87
2/1/2021 7:00:00 AM -0.07 31.874 0.049 6.8 2.1 13.87
2/1/2021 7:15:00 AM -0.07 31.874 0.049 6.8 2.05 13.87
2/1/2021 7:30:00 AM -0.07 31.874 0.049 6.82 2 13.88
2/1/2021 7:45:00 AM -0.06 31.892 0.049 6.81 2.07 13.87
2/1/2021 8:00:00 AM -0.06 31.892 0.049 6.81 2 13.89
2/1/2021 8:15:00 AM -0.06 31.892 0.049 6.81 2.03 13.91
2/1/2021 8:30:00 AM -0.07 31.874 0.049 6.82 2.09 13.94
2/1/2021 8:45:00 AM -0.07 31.874 0.048 6.84 2.07 13.96
2/1/2021 9:00:00 AM -0.07 31.874 0.048 6.85 2.23 14.01
2/1/2021 9:15:00 AM -0.07 31.874 0.048 6.84 2.07 14.05
2/1/2021 9:30:00 AM -0.07 31.874 0.048 6.86 2.06 14.09
2/1/2021 9:45:00 AM -0.06 31.892 0.048 6.87 2.12 14.12
2/1/2021 10:00:00 AM -0.07 31.874 0.048 6.87 2.14 14.15
2/1/2021 10:15:00 AM -0.06 31.892 0.048 6.88 2.11 14.17
2/1/2021 10:30:00 AM -0.06 31.892 0.048 6.89 2.12 14.2
2/1/2021 10:45:00 AM -0.06 31.892 0.048 6.9 2.1 14.22
2/1/2021 11:00:00 AM -0.05 31.91 0.048 6.91 2.07 14.24
2/1/2021 11:15:00 AM -0.05 31.91 0.048 6.92 2.06 14.26
2/1/2021 11:30:00 AM -0.04 31.928 0.048 6.93 2.06 14.28
2/1/2021 11:45:00 AM -0.04 31.928 0.048 6.93 2.1 14.3
2/1/2021 12:00:00 PM -0.03 31.946 0.048 6.94 2.09 14.31
2/1/2021 12:15:00 PM -0.03 31.946 0.048 6.96 2.09 14.32
2/1/2021 12:30:00 PM -0.03 31.946 0.048 6.96 2.07 14.33
2/1/2021 12:45:00 PM -0.03 31.946 0.047 6.97 2.14 14.34
2/1/2021 1:00:00 PM -0.03 31.946 0.047 6.97 2.13 14.35
2/1/2021 1:15:00 PM -0.03 31.946 0.047 6.97 2.09 14.34
2/1/2021 1:30:00 PM -0.03 31.946 0.047 6.98 2.13 14.33
2/1/2021 1:45:00 PM -0.02 31.964 0.047 6.98 2.12 14.33
2/1/2021 2:00:00 PM -0.02 31.964 0.047 6.96 2.13 14.33
2/1/2021 2:15:00 PM -0.03 31.946 0.047 6.99 2.12 14.33
2/1/2021 2:30:00 PM -0.03 31.946 0.047 6.98 2.13 14.32
2/1/2021 2:45:00 PM -0.03 31.946 0.047 6.98 2.16 14.32
2/1/2021 3:00:00 PM -0.03 31.946 0.047 6.98 2.17 14.3
2/1/2021 3:15:00 PM -0.03 31.946 0.047 6.99 2.15 14.27
2/1/2021 3:30:00 PM -0.03 31.946 0.047 6.99 2.18 14.27
2/1/2021 3:45:00 PM -0.03 31.946 0.047 6.96 2.15 14.25
2/1/2021 4:00:00 PM -0.03 31.946 0.047 6.96 2.16 14.26
2/1/2021 4:15:00 PM -0.03 31.946 0.047 6.97 2.1 14.24
2/1/2021 4:30:00 PM -0.04 31.928 0.047 6.96 2.16 14.25
2/1/2021 4:45:00 PM -0.04 31.928 0.047 6.97 2.13 14.23
2/1/2021 5:00:00 PM -0.04 31.928 0.047 6.96 2.16 14.21
2/1/2021 5:15:00 PM -0.04 31.928 0.047 6.93 2.11 14.15
2/1/2021 5:30:00 PM -0.05 31.91 0.047 6.92 2.12 14.12
2/1/2021 5:45:00 PM -0.05 31.91 0.047 6.92 2.13 14.07
2/1/2021 6:00:00 PM -0.05 31.91 0.047 6.9 2.13 14.03
2/1/2021 6:15:00 PM -0.05 31.91 0.047 6.9 2.19 14.01
2/1/2021 6:30:00 PM -0.05 31.91 0.047 6.89 2.16 13.97
2/1/2021 6:45:00 PM -0.05 31.91 0.047 6.87 2.15 13.94
2/1/2021 7:00:00 PM -0.05 31.91 0.047 6.87 2.15 13.93
2/1/2021 7:15:00 PM -0.05 31.91 0.047 6.86 2.16 13.9
2/1/2021 7:30:00 PM -0.06 31.892 0.047 6.86 2.16 13.88
2/1/2021 7:45:00 PM -0.06 31.892 0.047 6.86 2.15 13.87
2/1/2021 8:00:00 PM -0.06 31.892 0.047 6.84 2.11 13.85
2/1/2021 8:15:00 PM -0.05 31.91 0.047 6.85 2.15 13.85
2/1/2021 8:30:00 PM -0.06 31.892 0.047 6.84 2.15 13.84
2/1/2021 8:45:00 PM -0.06 31.892 0.047 6.85 2.14 13.83
2/1/2021 9:00:00 PM -0.06 31.892 0.047 6.84 2.16 13.84
2/1/2021 9:15:00 PM -0.06 31.892 0.047 6.83 2.11 13.83
2/1/2021 9:30:00 PM -0.06 31.892 0.047 6.83 2.11 13.83
2/1/2021 9:45:00 PM -0.06 31.892 0.047 6.84 2.11 13.83
2/1/2021 10:00:00 PM -0.06 31.892 0.047 6.83 2.12 13.82
2/1/2021 10:15:00 PM -0.06 31.892 0.047 6.82 2.07 13.82
2/1/2021 10:30:00 PM -0.06 31.892 0.047 6.83 2.13 13.83
2/1/2021 10:45:00 PM -0.06 31.892 0.047 6.83 2.24 13.82
2/1/2021 11:00:00 PM -0.06 31.892 0.047 6.83 2.31 13.82
2/1/2021 11:15:00 PM -0.06 31.892 0.047 6.83 2.31 13.82
2/1/2021 11:30:00 PM -0.06 31.892 0.047 6.82 2.26 13.82
2/1/2021 11:45:00 PM -0.06 31.892 0.047 6.83 2.19 13.82
2/2/2021 12:00:00 AM -0.06 31.892 0.047 6.82 2.14 13.81
2/2/2021 12:15:00 AM -0.06 31.892 0.048 6.82 2.22 13.81
2/2/2021 12:30:00 AM -0.06 31.892 0.048 6.82 2.17 13.82
2/2/2021 12:45:00 AM -0.06 31.892 0.048 6.82 2.15 13.81
2/2/2021 1:00:00 AM -0.06 31.892 0.048 6.83 2.15 13.81
2/2/2021 1:15:00 AM -0.06 31.892 0.048 6.83 2.08 13.81
2/2/2021 1:30:00 AM -0.06 31.892 0.048 6.82 2.13 13.79
2/2/2021 1:45:00 AM -0.06 31.892 0.048 6.83 2.11 13.8
2/2/2021 2:00:00 AM -0.05 31.91 0.048 6.82 2.08 13.8
2/2/2021 2:15:00 AM -0.05 31.91 0.048 6.83 2.07 13.8
2/2/2021 2:30:00 AM -0.05 31.91 0.048 6.83 2.08 13.79
2/2/2021 2:45:00 AM -0.05 31.91 0.048 6.82 2.1 13.79
2/2/2021 3:00:00 AM -0.05 31.91 0.048 6.82 2.08 13.8
2/2/2021 3:15:00 AM -0.05 31.91 0.048 6.82 2.09 13.79
2/2/2021 3:30:00 AM -0.05 31.91 0.048 6.83 2.06 13.78
2/2/2021 3:45:00 AM -0.05 31.91 0.048 6.83 2.09 13.78
2/2/2021 4:00:00 AM -0.05 31.91 0.048 6.82 2.05 13.79
2/2/2021 4:15:00 AM -0.06 31.892 0.048 6.82 2.07 13.77
2/2/2021 4:30:00 AM -0.06 31.892 0.048 6.82 2.06 13.78
2/2/2021 4:45:00 AM -0.06 31.892 0.048 6.83 2.06 13.79
2/2/2021 5:00:00 AM -0.06 31.892 0.048 6.83 2.05 13.79
2/2/2021 5:15:00 AM -0.06 31.892 0.048 6.83 2.07 13.78
2/2/2021 5:30:00 AM -0.06 31.892 0.048 6.82 2.07 13.77
2/2/2021 5:45:00 AM -0.06 31.892 0.048 6.83 2.02 13.78
2/2/2021 6:00:00 AM -0.06 31.892 0.048 6.82 2.08 13.78
2/2/2021 6:15:00 AM -0.06 31.892 0.048 6.83 2.05 13.77
2/2/2021 6:30:00 AM -0.06 31.892 0.048 6.82 2.08 13.77
2/2/2021 6:45:00 AM -0.06 31.892 0.048 6.83 2.03 13.77
2/2/2021 7:00:00 AM -0.06 31.892 0.048 6.83 2.02 13.77
2/2/2021 7:15:00 AM -0.05 31.91 0.048 6.83 2.04 13.77
2/2/2021 7:30:00 AM -0.05 31.91 0.048 6.83 2.05 13.77
2/2/2021 7:45:00 AM -0.05 31.91 0.048 6.83 2.03 13.78
2/2/2021 8:00:00 AM -0.05 31.91 0.048 6.83 2.01 13.79
2/2/2021 8:15:00 AM -0.05 31.91 0.048 6.84 2.05 13.8
2/2/2021 8:30:00 AM -0.05 31.91 0.048 6.83 2.05 13.82
2/2/2021 8:45:00 AM -0.05 31.91 0.048 6.85 2.03 13.86
2/2/2021 9:00:00 AM -0.05 31.91 0.048 6.87 2.01 13.9
2/2/2021 9:15:00 AM -0.05 31.91 0.048 6.87 2.05 13.93
2/2/2021 9:30:00 AM -0.04 31.928 0.048 6.88 2.05 13.96
2/2/2021 9:45:00 AM -0.04 31.928 0.048 6.89 2.08 14
2/2/2021 10:00:00 AM -0.04 31.928 0.048 6.9 2.04 14.05
2/2/2021 10:15:00 AM -0.04 31.928 0.048 6.9 2.06 14.09
2/2/2021 10:30:00 AM -0.04 31.928 0.048 6.92 2.04 14.09
2/2/2021 10:45:00 AM -0.04 31.928 0.048 6.92 2.04 14.11
2/2/2021 11:00:00 AM -0.04 31.928 0.048 6.93 1.98 14.13
2/2/2021 11:15:00 AM -0.03 31.946 0.048 6.95 2.06 14.17
2/2/2021 11:30:00 AM -0.04 31.928 0.048 6.96 2.06 14.18
2/2/2021 11:45:00 AM -0.03 31.946 0.048 6.96 2.04 14.2
2/2/2021 12:00:00 PM -0.04 31.928 0.048 6.98 2.06 14.22
2/2/2021 12:15:00 PM -0.04 31.928 0.048 6.98 2.09 14.22
2/2/2021 12:30:00 PM -0.04 31.928 0.048 6.98 2.02 14.22
2/2/2021 12:45:00 PM -0.03 31.946 0.048 6.98 2.1 14.22
2/2/2021 1:00:00 PM -0.04 31.928 0.048 6.99 2.05 14.22
2/2/2021 1:15:00 PM -0.03 31.946 0.048 6.99 2.08 14.21
2/2/2021 1:30:00 PM -0.04 31.928 0.048 6.98 2.09 14.21
2/2/2021 1:45:00 PM -0.04 31.928 0.048 6.98 2.08 14.2
2/2/2021 2:00:00 PM -0.04 31.928 0.047 6.98 2.09 14.19
2/2/2021 2:15:00 PM -0.03 31.946 0.047 6.98 2.05 14.19
2/2/2021 2:30:00 PM -0.03 31.946 0.047 6.99 2.12 14.17
2/2/2021 2:45:00 PM -0.04 31.928 0.047 6.98 2.13 14.18
2/2/2021 3:00:00 PM -0.04 31.928 0.047 7 2.06 14.16
2/2/2021 3:15:00 PM -0.04 31.928 0.047 6.98 2.07 14.16
2/2/2021 3:30:00 PM -0.04 31.928 0.047 6.97 2.07 14.14
2/2/2021 3:45:00 PM -0.04 31.928 0.047 6.98 2.08 14.13
2/2/2021 4:00:00 PM -0.04 31.928 0.047 6.96 2.03 14.12
2/2/2021 4:15:00 PM -0.04 31.928 0.047 6.97 2.06 14.1
2/2/2021 4:30:00 PM -0.04 31.928 0.047 6.97 2.13 14.1
2/2/2021 4:45:00 PM -0.05 31.91 0.047 6.94 2.07 14.08
2/2/2021 5:00:00 PM -0.05 31.91 0.047 6.96 2.08 14.06
2/2/2021 5:15:00 PM -0.05 31.91 0.047 6.95 2.05 14.03
2/2/2021 5:30:00 PM -0.05 31.91 0.047 6.93 2.03 13.98
2/2/2021 5:45:00 PM -0.06 31.892 0.047 6.92 2.09 13.96
2/2/2021 6:00:00 PM -0.06 31.892 0.047 6.91 2.07 13.92
2/2/2021 6:15:00 PM -0.06 31.892 0.048 6.91 2.12 13.9
2/2/2021 6:30:00 PM -0.06 31.892 0.048 6.9 2.08 13.87
2/2/2021 6:45:00 PM -0.06 31.892 0.048 6.89 2.09 13.86
2/2/2021 7:00:00 PM -0.06 31.892 0.048 6.88 2.06 13.83
2/2/2021 7:15:00 PM -0.06 31.892 0.048 6.88 2.03 13.82
2/2/2021 7:30:00 PM -0.05 31.91 0.048 6.87 2.08 13.8
2/2/2021 7:45:00 PM -0.06 31.892 0.048 6.86 2.06 13.78
2/2/2021 8:00:00 PM -0.06 31.892 0.048 6.86 2.05 13.77
2/2/2021 8:15:00 PM -0.08 31.856 0.048 6.83 2.12 13.76
2/2/2021 8:30:00 PM -0.08 31.856 0.048 6.84 2.16 13.75
2/2/2021 8:45:00 PM -0.07 31.874 0.048 6.85 2.06 13.75
2/2/2021 9:00:00 PM -0.06 31.892 0.048 6.85 2.07 13.74
2/2/2021 9:15:00 PM -0.06 31.892 0.048 6.86 2.06 13.73
2/2/2021 9:30:00 PM -0.06 31.892 0.048 6.85 2.07 13.73
2/2/2021 9:45:00 PM -0.06 31.892 0.048 6.85 2.06 13.72
2/2/2021 10:00:00 PM -0.06 31.892 0.048 6.84 2.12 13.73
2/2/2021 10:15:00 PM -0.06 31.892 0.048 6.83 2.07 13.73
2/2/2021 10:30:00 PM -0.06 31.892 0.048 6.82 2.13 13.73
2/2/2021 10:45:00 PM -0.06 31.892 0.048 6.83 2.11 13.72
2/2/2021 11:00:00 PM -0.06 31.892 0.048 6.83 2.04 13.72
2/2/2021 11:15:00 PM -0.06 31.892 0.048 6.83 2.11 13.72
2/2/2021 11:30:00 PM -0.05 31.91 0.048 6.84 2.07 13.71
2/2/2021 11:45:00 PM -0.05 31.91 0.048 6.83 2.08 13.71
2/3/2021 12:00:00 AM -0.05 31.91 0.048 6.82 2.05 13.71
2/3/2021 12:15:00 AM -0.05 31.91 0.048 6.84 2.07 13.71
2/3/2021 12:30:00 AM -0.05 31.91 0.048 6.83 2.06 13.71
2/3/2021 12:45:00 AM -0.06 31.892 0.048 6.82 2.08 13.71
2/3/2021 1:00:00 AM -0.05 31.91 0.048 6.84 2.1 13.71
2/3/2021 1:15:00 AM -0.05 31.91 0.048 6.83 2.11 13.7
2/3/2021 1:30:00 AM -0.05 31.91 0.048 6.83 2.09 13.7
2/3/2021 1:45:00 AM -0.05 31.91 0.048 6.84 2.06 13.7
2/3/2021 2:00:00 AM -0.05 31.91 0.048 6.83 2.09 13.7
2/3/2021 2:15:00 AM -0.05 31.91 0.048 6.82 2.05 13.7
2/3/2021 2:30:00 AM -0.06 31.892 0.048 6.82 2.11 13.7
2/3/2021 2:45:00 AM -0.06 31.892 0.048 6.83 2.09 13.7
2/3/2021 3:00:00 AM -0.06 31.892 0.048 6.84 2.09 13.7
2/3/2021 3:15:00 AM -0.06 31.892 0.048 6.84 2.17 13.69
2/3/2021 3:30:00 AM -0.06 31.892 0.048 6.83 2.13 13.7
2/3/2021 3:45:00 AM -0.05 31.91 0.048 6.82 2.03 13.7
2/3/2021 4:00:00 AM -0.05 31.91 0.048 6.83 2.05 13.7
2/3/2021 4:15:00 AM -0.05 31.91 0.048 6.84 2.03 13.7
2/3/2021 4:30:00 AM -0.05 31.91 0.048 6.83 2.1 13.7
2/3/2021 4:45:00 AM -0.05 31.91 0.048 6.83 2.07 13.69
2/3/2021 5:00:00 AM -0.05 31.91 0.048 6.83 2.07 13.69
2/3/2021 5:15:00 AM -0.05 31.91 0.048 6.83 2.06 13.71
2/3/2021 5:30:00 AM -0.05 31.91 0.048 6.83 2.09 13.7
2/3/2021 5:45:00 AM -0.06 31.892 0.048 6.83 2.06 13.7
2/3/2021 6:00:00 AM -0.06 31.892 0.048 6.82 2.05 13.7
2/3/2021 6:15:00 AM -0.06 31.892 0.048 6.82 2.03 13.71
2/3/2021 6:30:00 AM -0.06 31.892 0.048 6.81 2.05 13.71
2/3/2021 6:45:00 AM -0.06 31.892 0.048 6.83 2.04 13.71
2/3/2021 7:00:00 AM -0.06 31.892 0.048 6.82 2.06 13.71
2/3/2021 7:15:00 AM -0.06 31.892 0.048 6.83 2.06 13.71
2/3/2021 7:30:00 AM -0.06 31.892 0.048 6.83 2.07 13.72
2/3/2021 7:45:00 AM -0.06 31.892 0.048 6.82 2.03 13.73
2/3/2021 8:00:00 AM -0.06 31.892 0.048 6.83 2.04 13.75
2/3/2021 8:15:00 AM -0.06 31.892 0.048 6.84 2.07 13.76
2/3/2021 8:30:00 AM -0.05 31.91 0.048 6.84 2.07 13.79
2/3/2021 8:45:00 AM -0.05 31.91 0.048 6.85 2.1 13.81
2/3/2021 9:00:00 AM -0.05 31.91 0.048 6.85 2.08 13.85
2/3/2021 9:15:00 AM -0.05 31.91 0.048 6.85 2.1 13.88
2/3/2021 9:30:00 AM -0.05 31.91 0.048 6.86 2.06 13.92
2/3/2021 9:45:00 AM -0.04 31.928 0.048 6.88 2.03 13.96
2/3/2021 10:00:00 AM -0.04 31.928 0.048 6.88 2.06 13.99
2/3/2021 10:15:00 AM -0.04 31.928 0.048 6.89 2.08 14.04
2/3/2021 10:30:00 AM -0.03 31.946 0.048 6.9 2.1 14.06
2/3/2021 10:45:00 AM -0.03 31.946 0.048 6.9 2.03 14.09
2/3/2021 11:00:00 AM -0.03 31.946 0.048 6.93 2.07 14.11
2/3/2021 11:15:00 AM -0.03 31.946 0.048 6.93 2.07 14.12
2/3/2021 11:30:00 AM -0.03 31.946 0.048 6.93 2.07 14.13
2/3/2021 11:45:00 AM -0.03 31.946 0.048 6.94 2.1 14.14
2/3/2021 12:00:00 PM -0.03 31.946 0.048 6.95 2.04 14.14
2/3/2021 12:15:00 PM -0.03 31.946 0.048 6.95 2.06 14.14
2/3/2021 12:30:00 PM -0.02 31.964 0.048 6.95 2.06 14.13
2/3/2021 12:45:00 PM -0.01 31.982 0.048 6.96 2.1 14.13
2/3/2021 1:00:00 PM -0.01 31.982 0.048 6.95 2.12 14.12
2/3/2021 1:15:00 PM -0.01 31.982 0.048 6.95 2.14 14.12
2/3/2021 1:30:00 PM -0.01 31.982 0.048 6.96 2.21 14.1
2/3/2021 1:45:00 PM 0 32 0.047 6.95 2.25 14.11
2/3/2021 2:00:00 PM 0 32 0.047 6.95 2.19 14.09
2/3/2021 2:15:00 PM 0 32 0.047 6.94 2.2 14.1
2/3/2021 2:30:00 PM 0 32 0.047 6.95 2.28 14.08
2/3/2021 2:45:00 PM -0.02 31.964 0.047 6.94 2.28 14.08
2/3/2021 3:00:00 PM -0.02 31.964 0.047 6.94 2.2 14.06
2/3/2021 3:15:00 PM -0.02 31.964 0.047 6.93 2.16 14.06
2/3/2021 3:30:00 PM -0.02 31.964 0.047 6.93 2.19 14.05
2/3/2021 3:45:00 PM -0.02 31.964 0.047 6.92 2.19 14.04
2/3/2021 4:00:00 PM -0.03 31.946 0.047 6.93 2.13 14.02
2/3/2021 4:15:00 PM -0.04 31.928 0.047 6.91 2.17 14.03
2/3/2021 4:30:00 PM -0.04 31.928 0.047 6.92 2.29 14.01
2/3/2021 4:45:00 PM -0.04 31.928 0.047 6.9 2.14 14.01
2/3/2021 5:00:00 PM -0.04 31.928 0.047 6.91 2.17 14
2/3/2021 5:15:00 PM -0.05 31.91 0.047 6.89 2.17 13.99
2/3/2021 5:30:00 PM -0.05 31.91 0.047 6.88 2.17 13.96
2/3/2021 5:45:00 PM -0.05 31.91 0.047 6.88 2.12 13.93
2/3/2021 6:00:00 PM -0.05 31.91 0.047 6.87 2.12 13.92
2/3/2021 6:15:00 PM -0.06 31.892 0.047 6.87 2.1 13.89
2/3/2021 6:30:00 PM -0.06 31.892 0.047 6.87 2.14 13.87
2/3/2021 6:45:00 PM -0.06 31.892 0.047 6.86 2.14 13.86
2/3/2021 7:00:00 PM -0.06 31.892 0.047 6.84 2.12 13.84
2/3/2021 7:15:00 PM -0.06 31.892 0.047 6.84 2.09 13.84
2/3/2021 7:30:00 PM -0.06 31.892 0.047 6.84 2.11 13.83
2/3/2021 7:45:00 PM -0.06 31.892 0.048 6.84 2.11 13.82
2/3/2021 8:00:00 PM -0.07 31.874 0.048 6.84 2.14 13.81
2/3/2021 8:15:00 PM -0.07 31.874 0.048 6.84 2.09 13.81
2/3/2021 8:30:00 PM -0.07 31.874 0.048 6.82 2.09 13.81
2/3/2021 8:45:00 PM -0.07 31.874 0.048 6.83 2.09 13.83
2/3/2021 9:00:00 PM -0.07 31.874 0.048 6.83 2.05 13.82
2/3/2021 9:15:00 PM -0.07 31.874 0.048 6.83 2.11 13.83
2/3/2021 9:30:00 PM -0.07 31.874 0.048 6.83 2.14 13.83
2/3/2021 9:45:00 PM -0.07 31.874 0.048 6.82 2.13 13.83
2/3/2021 10:00:00 PM -0.08 31.856 0.048 6.82 2.07 13.84
2/3/2021 10:15:00 PM -0.08 31.856 0.048 6.84 2.04 13.83
2/3/2021 10:30:00 PM -0.08 31.856 0.048 6.84 2.1 13.85
2/3/2021 10:45:00 PM -0.08 31.856 0.048 6.83 2.12 13.84
2/3/2021 11:00:00 PM -0.08 31.856 0.048 6.83 2.12 13.85
2/3/2021 11:15:00 PM -0.08 31.856 0.048 6.84 2.08 13.85
2/3/2021 11:30:00 PM -0.08 31.856 0.048 6.82 2.07 13.85
2/3/2021 11:45:00 PM -0.08 31.856 0.048 6.83 2.08 13.85
2/4/2021 12:00:00 AM -0.08 31.856 0.048 6.83 2.12 13.86
2/4/2021 12:15:00 AM -0.08 31.856 0.048 6.82 2.1 13.85
2/4/2021 12:30:00 AM -0.08 31.856 0.048 6.83 2.05 13.86
2/4/2021 12:45:00 AM -0.08 31.856 0.048 6.82 2.03 13.87
2/4/2021 1:00:00 AM -0.08 31.856 0.048 6.82 2.04 13.85
2/4/2021 1:15:00 AM -0.08 31.856 0.048 6.82 2.04 13.87
2/4/2021 1:30:00 AM -0.08 31.856 0.048 6.83 2.06 13.87
2/4/2021 1:45:00 AM -0.08 31.856 0.048 6.83 2.04 13.87
2/4/2021 2:00:00 AM -0.08 31.856 0.048 6.83 2.07 13.86
2/4/2021 2:15:00 AM -0.08 31.856 0.048 6.83 2.02 13.87
2/4/2021 2:30:00 AM -0.08 31.856 0.049 6.83 2.07 13.86
2/4/2021 2:45:00 AM -0.09 31.838 0.049 6.83 2.03 13.87
2/4/2021 3:00:00 AM -0.09 31.838 0.049 6.83 2.07 13.87
2/4/2021 3:15:00 AM -0.09 31.838 0.049 6.83 2.06 13.89
2/4/2021 3:30:00 AM -0.09 31.838 0.049 6.83 2.04 13.87
2/4/2021 3:45:00 AM -0.09 31.838 0.049 6.82 2.07 13.88
2/4/2021 4:00:00 AM -0.09 31.838 0.049 6.81 2.05 13.89
2/4/2021 4:15:00 AM -0.09 31.838 0.049 6.82 2.03 13.88
2/4/2021 4:30:00 AM -0.09 31.838 0.049 6.81 2.01 13.88
2/4/2021 4:45:00 AM -0.09 31.838 0.049 6.81 2.04 13.89
2/4/2021 5:00:00 AM -0.09 31.838 0.049 6.82 2.03 13.89
2/4/2021 5:15:00 AM -0.1 31.82 0.049 6.81 2.15 13.89
2/4/2021 5:30:00 AM -0.1 31.82 0.049 6.82 2.09 13.9
2/4/2021 5:45:00 AM -0.1 31.82 0.049 6.8 2.2 13.89
2/4/2021 6:00:00 AM -0.1 31.82 0.049 6.81 2.14 13.89
2/4/2021 6:15:00 AM -0.1 31.82 0.049 6.81 2.15 13.89
2/4/2021 6:30:00 AM -0.1 31.82 0.049 6.8 5.7 13.89
2/4/2021 6:45:00 AM -0.1 31.82 0.049 6.81 2.03 13.88
2/4/2021 7:00:00 AM -0.1 31.82 0.049 6.81 2.07 13.88
2/4/2021 7:15:00 AM -0.1 31.82 0.049 6.82 2.14 13.89
2/4/2021 7:30:00 AM -0.1 31.82 0.05 6.83 2.18 13.89
2/4/2021 7:45:00 AM -0.09 31.838 0.05 6.82 2.1 13.89
2/4/2021 8:00:00 AM -0.09 31.838 0.05 6.81 2.09 13.92
2/4/2021 8:15:00 AM -0.09 31.838 0.05 6.83 1.89 13.94
2/4/2021 8:30:00 AM -0.09 31.838 0.05 6.83 1.98 13.96
2/4/2021 8:45:00 AM -0.08 31.856 0.05 6.83 2.25 14
2/4/2021 9:00:00 AM -0.07 31.874 0.05 6.83 2.2 14.02
2/4/2021 9:15:00 AM -0.07 31.874 0.05 6.86 2.37 14.04
2/4/2021 9:30:00 AM -0.06 31.892 0.05 6.86 2.37 14.08
2/4/2021 9:45:00 AM -0.05 31.91 0.05 6.85 2.19 14.1
2/4/2021 10:00:00 AM -0.04 31.928 0.05 6.87 2.21 14.13
2/4/2021 10:15:00 AM -0.02 31.964 0.049 6.87 2.4 14.15
2/4/2021 10:30:00 AM -0.01 31.982 0.049 6.89 2.36 14.17
2/4/2021 10:45:00 AM 0 32 0.049 6.88 2.41 14.18
2/4/2021 11:00:00 AM 0.01 32.018 0.049 6.88 2.43 14.2
2/4/2021 11:15:00 AM 0.01 32.018 0.049 6.86 2.48 14.21
2/4/2021 11:30:00 AM 0.01 32.018 0.049 6.86 2.3 14.22
2/4/2021 11:45:00 AM 0.01 32.018 0.049 6.88 63.71 14.23
2/4/2021 12:00:00 PM 0.02 32.036 0.049 6.86 2.22 14.23
2/4/2021 12:15:00 PM 0.02 32.036 0.049 6.87 2.44 14.23
2/4/2021 12:30:00 PM 0.01 32.018 0.049 6.85 2.34 14.24
2/4/2021 12:45:00 PM 0 32 0.049 6.86 2.38 14.25
2/4/2021 1:00:00 PM 0 32 0.049 6.84 2.44 14.25
2/4/2021 1:15:00 PM -0.01 31.982 0.049 6.86 2.5 14.25
2/4/2021 1:30:00 PM -0.03 31.946 0.049 6.84 2.82 14.28
2/4/2021 1:45:00 PM -0.02 31.964 0.049 6.88 2.67 14.25
2/4/2021 2:00:00 PM -0.02 31.964 0.049 6.86 4.71 14.24
2/4/2021 2:15:00 PM -0.02 31.964 0.049 6.86 8.28 14.22
2/4/2021 2:30:00 PM -0.01 31.982 0.049 6.87 4.15 14.21
2/4/2021 2:45:00 PM -0.02 31.964 0.048 6.86 3.72 14.21
2/4/2021 3:00:00 PM -0.03 31.946 0.049 6.86 7.11 14.2
2/4/2021 3:15:00 PM -0.03 31.946 0.049 6.88 3.02 14.2
2/4/2021 3:30:00 PM -0.04 31.928 0.048 6.91 4.66 14.2
2/4/2021 3:45:00 PM -0.05 31.91 0.048 6.9 3.6 14.18
2/4/2021 4:00:00 PM -0.04 31.928 0.048 6.9 3.03 14.17
2/4/2021 4:15:00 PM -0.04 31.928 0.048 6.98 3.36 14.18
2/4/2021 4:30:00 PM -0.04 31.928 0.048 6.94 2.79 14.15
2/4/2021 4:45:00 PM -0.04 31.928 0.048 6.94 2.55 14.13
2/4/2021 5:00:00 PM -0.05 31.91 0.048 6.93 2.56 14.12
2/4/2021 5:15:00 PM -0.05 31.91 0.048 6.93 2.37 14.08
2/4/2021 5:30:00 PM -0.05 31.91 0.048 6.9 2.43 14.04
2/4/2021 5:45:00 PM -0.05 31.91 0.048 6.92 2.47 14.01
2/4/2021 6:00:00 PM -0.05 31.91 0.048 6.9 2.62 13.99
2/4/2021 6:15:00 PM -0.05 31.91 0.048 6.89 2.95 13.97
2/4/2021 6:30:00 PM -0.06 31.892 0.048 6.87 2.19 13.94
2/4/2021 6:45:00 PM -0.06 31.892 0.049 6.86 2.24 13.92
2/4/2021 7:00:00 PM -0.06 31.892 0.049 6.85 2.21 13.9
2/4/2021 7:15:00 PM -0.06 31.892 0.049 6.86 2.27 13.88
2/4/2021 7:30:00 PM -0.06 31.892 0.049 6.85 2.2 13.87
2/4/2021 7:45:00 PM -0.06 31.892 0.049 6.85 2.19 13.86
2/4/2021 8:00:00 PM -0.06 31.892 0.049 6.86 2.15 13.85
2/4/2021 8:15:00 PM -0.06 31.892 0.049 6.85 2.36 13.84
2/4/2021 8:30:00 PM -0.06 31.892 0.049 6.85 2.15 13.84
2/4/2021 8:45:00 PM -0.06 31.892 0.05 6.85 2.16 13.84
2/4/2021 9:00:00 PM -0.06 31.892 0.05 6.84 2.15 13.84
2/4/2021 9:15:00 PM -0.06 31.892 0.05 6.84 2.15 13.83
2/4/2021 9:30:00 PM -0.06 31.892 0.05 6.82 2.15 13.83
2/4/2021 9:45:00 PM -0.06 31.892 0.05 6.84 2.13 13.83
2/4/2021 10:00:00 PM -0.06 31.892 0.05 6.84 2.11 13.82
2/4/2021 10:15:00 PM -0.05 31.91 0.05 6.83 2.12 13.81
2/4/2021 10:30:00 PM -0.05 31.91 0.05 6.83 2.11 13.81
2/4/2021 10:45:00 PM -0.05 31.91 0.05 6.82 2.12 13.8
2/4/2021 11:00:00 PM -0.05 31.91 0.05 6.84 2.11 13.8
2/4/2021 11:15:00 PM -0.05 31.91 0.05 6.83 2.11 13.8
2/4/2021 11:30:00 PM -0.05 31.91 0.05 6.82 2.06 13.79
2/4/2021 11:45:00 PM -0.05 31.91 0.05 6.82 2.13 13.79
2/5/2021 12:00:00 AM -0.05 31.91 0.05 6.82 2.09 13.79
2/5/2021 12:15:00 AM -0.06 31.892 0.05 6.82 2.19 13.77
2/5/2021 12:30:00 AM -0.05 31.91 0.05 6.83 2.08 13.77
2/5/2021 12:45:00 AM -0.06 31.892 0.05 6.83 2.14 13.77
2/5/2021 1:00:00 AM -0.06 31.892 0.05 6.83 2.13 13.76
2/5/2021 1:15:00 AM -0.05 31.91 0.05 6.84 2.29 13.76
2/5/2021 1:30:00 AM -0.05 31.91 0.05 6.84 2.1 13.75
2/5/2021 1:45:00 AM -0.05 31.91 0.05 6.84 2.12 13.75
2/5/2021 2:00:00 AM -0.05 31.91 0.05 6.84 2.06 13.73
2/5/2021 2:15:00 AM -0.04 31.928 0.05 6.85 2.06 13.73
2/5/2021 2:30:00 AM -0.05 31.91 0.05 6.84 2.09 13.73
2/5/2021 2:45:00 AM -0.05 31.91 0.05 6.84 2.06 13.72
2/5/2021 3:00:00 AM -0.05 31.91 0.05 6.85 2.09 13.71
2/5/2021 3:15:00 AM -0.05 31.91 0.05 6.85 2.16 13.71
2/5/2021 3:30:00 AM -0.05 31.91 0.05 6.86 2.1 13.7
2/5/2021 3:45:00 AM -0.04 31.928 0.05 6.86 2.09 13.7
2/5/2021 4:00:00 AM -0.04 31.928 0.05 6.85 2.09 13.69
2/5/2021 4:15:00 AM -0.04 31.928 0.05 6.85 2.15 13.68
2/5/2021 4:30:00 AM -0.04 31.928 0.05 6.85 2.06 13.67
2/5/2021 4:45:00 AM -0.05 31.91 0.05 6.85 2.12 13.67
2/5/2021 5:00:00 AM -0.04 31.928 0.05 6.84 2.07 13.66
2/5/2021 5:15:00 AM -0.04 31.928 0.05 6.85 2.11 13.66
2/5/2021 5:30:00 AM -0.04 31.928 0.05 6.84 2.11 13.65
2/5/2021 5:45:00 AM -0.05 31.91 0.05 6.85 2.1 13.65
2/5/2021 6:00:00 AM -0.04 31.928 0.05 6.84 2.11 13.64
2/5/2021 6:15:00 AM -0.04 31.928 0.05 6.85 2.08 13.64
2/5/2021 6:30:00 AM -0.04 31.928 0.05 6.84 2.1 13.64
2/5/2021 6:45:00 AM -0.04 31.928 0.05 6.85 2.13 13.63
2/5/2021 7:00:00 AM -0.04 31.928 0.05 6.84 2.11 13.63
2/5/2021 7:15:00 AM -0.04 31.928 0.05 6.83 2.05 13.64
2/5/2021 7:30:00 AM -0.03 31.946 0.05 6.83 2.11 13.64
2/5/2021 7:45:00 AM -0.03 31.946 0.05 6.84 2.06 13.64
2/5/2021 8:00:00 AM -0.03 31.946 0.05 6.83 2.08 13.68
2/5/2021 8:15:00 AM -0.03 31.946 0.049 6.85 2.11 13.7
2/5/2021 8:30:00 AM -0.03 31.946 0.049 6.86 2.13 13.72
2/5/2021 8:45:00 AM -0.03 31.946 0.049 6.86 2.05 13.75
2/5/2021 9:00:00 AM -0.02 31.964 0.049 6.86 2.11 13.79
2/5/2021 9:15:00 AM -0.02 31.964 0.049 6.87 2.12 13.83
2/5/2021 9:30:00 AM -0.01 31.982 0.049 6.88 2.17 13.87
2/5/2021 9:45:00 AM -0.03 31.946 0.049 6.89 2.19 13.88
2/5/2021 10:00:00 AM -0.01 31.982 0.049 6.9 2.15 13.92
2/5/2021 10:15:00 AM -0.02 31.964 0.049 6.91 2.17